Provisional Data: Chest Creek near Patton, PA


Please select a monitoring station.
Please select start date.
Please select start date.

Toggle Unit: C/F Toggle Unit: C/F
Sample Time Temperature (C) Temperature (F) Specific Conductivity (mS/cm) pH   Turbidity (NTU+) DO (mg/L)
6/22/2021 12:00:00 AM 18.93 66.074 0.199 7.36 13.29 7.79
6/22/2021 12:15:00 AM 18.89 66.002 0.199 7.36 13.61 7.79
6/22/2021 12:30:00 AM 18.84 65.912 0.2 7.35 13.75 7.8
6/22/2021 12:45:00 AM 18.77 65.786 0.202 7.36 13.51 7.81
6/22/2021 1:00:00 AM 18.73 65.714 0.202 7.35 14.35 7.8
6/22/2021 1:15:00 AM 18.7 65.66 0.202 7.36 13.5 7.81
6/22/2021 1:30:00 AM 18.69 65.642 0.201 7.35 13.82 7.81
6/22/2021 1:45:00 AM 18.67 65.606 0.201 7.36 15 7.81
6/22/2021 2:00:00 AM 18.64 65.552 0.2 7.36 14.01 7.81
6/22/2021 2:15:00 AM 18.6 65.48 0.2 7.36 14.89 7.83
6/22/2021 2:30:00 AM 18.53 65.354 0.203 7.36 14.85 7.82
6/22/2021 2:45:00 AM 18.5 65.3 0.202 7.35 15.2 7.83
6/22/2021 3:00:00 AM 18.48 65.264 0.202 7.37 14.76 7.85
6/22/2021 3:15:00 AM 18.47 65.246 0.201 7.37 14.7 7.85
6/22/2021 3:30:00 AM 18.46 65.228 0.2 7.38 15.26 7.85
6/22/2021 3:45:00 AM 18.44 65.192 0.199 7.37 14.92 7.86
6/22/2021 4:00:00 AM 18.42 65.156 0.199 7.38 15.44 7.86
6/22/2021 4:15:00 AM 18.4 65.12 0.198 7.38 16.16 7.85
6/22/2021 4:30:00 AM 18.38 65.084 0.197 7.38 15.79 7.86
6/22/2021 4:45:00 AM 18.35 65.03 0.197 7.38 16.54 7.87
6/22/2021 5:00:00 AM 18.32 64.976 0.196 7.37 17.15 7.87
6/22/2021 5:15:00 AM 18.29 64.922 0.195 7.39 17.11 7.88
6/22/2021 5:30:00 AM 18.25 64.85 0.195 7.38 17.95 7.88
6/22/2021 5:45:00 AM 18.19 64.742 0.194 7.37 19.55 7.9
6/22/2021 6:00:00 AM 18.12 64.616 0.194 7.38 18.94 7.92
6/22/2021 6:15:00 AM 18.05 64.49 0.195 7.38 19.1 7.93
6/22/2021 6:30:00 AM 18.02 64.436 0.193 7.38 19.39 7.94
6/22/2021 6:45:00 AM 18.01 64.418 0.191 7.38 19.84 7.94
6/22/2021 7:00:00 AM 17.98 64.364 0.191 7.38 19.48 7.96
6/22/2021 7:15:00 AM 17.95 64.31 0.191 7.37 19.93 7.97
6/22/2021 7:30:00 AM 17.9 64.22 0.19 7.39 20.12 7.99
6/22/2021 7:45:00 AM 17.85 64.13 0.19 7.39 19.96 8
6/22/2021 8:00:00 AM 17.82 64.076 0.189 7.39 20.14 8.01
6/22/2021 8:15:00 AM 17.8 64.04 0.189 7.39 20.54 8.04
6/22/2021 8:30:00 AM 17.79 64.022 0.188 7.41 20.55 8.06
6/22/2021 8:45:00 AM 17.78 64.004 0.188 7.4 20.44 8.07
6/22/2021 9:00:00 AM 17.77 63.986 0.187 7.41 21.9 8.1
6/22/2021 9:15:00 AM 17.76 63.968 0.187 7.41 21.23 8.13
6/22/2021 9:30:00 AM 17.74 63.932 0.186 7.42 22.02 8.15
6/22/2021 9:45:00 AM 17.72 63.896 0.186 7.42 20.98 8.18
6/22/2021 10:00:00 AM 17.72 63.896 0.186 7.43 20.87 8.22
6/22/2021 10:15:00 AM 17.74 63.932 0.185 7.44 21.64 8.27
6/22/2021 10:30:00 AM 17.74 63.932 0.185 7.46 21.03 8.31
6/22/2021 10:45:00 AM 17.75 63.95 0.185 7.44 20.93 8.36
6/22/2021 11:00:00 AM 17.73 63.914 0.184 7.46 20.63 8.37
6/22/2021 11:15:00 AM 17.69 63.842 0.184 7.47 21.51 8.38
6/22/2021 11:30:00 AM 17.62 63.716 0.184 7.46 22.02 8.37
6/22/2021 11:45:00 AM 17.57 63.626 0.184 7.45 20.85 8.37
6/22/2021 12:00:00 PM 17.55 63.59 0.184 7.46 21.01 8.4
6/22/2021 12:15:00 PM 17.52 63.536 0.184 7.45 21.48 8.42
6/22/2021 12:30:00 PM 17.47 63.446 0.184 7.46 20.98 8.43
6/22/2021 12:45:00 PM 17.49 63.482 0.184 7.46 20.63 8.46
6/22/2021 1:00:00 PM 17.45 63.41 0.184 7.46 20.84 8.47
6/22/2021 1:15:00 PM 17.46 63.428 0.184 7.47 20.03 8.53
6/22/2021 1:30:00 PM 17.45 63.41 0.184 7.47 19.94 8.57
6/22/2021 1:45:00 PM 17.42 63.356 0.184 7.48 20.03 8.58
6/22/2021 2:00:00 PM 17.39 63.302 0.184 7.47 20.33 8.59
6/22/2021 2:15:00 PM 17.37 63.266 0.184 7.48 19.75 8.61
6/22/2021 2:30:00 PM 17.48 63.464 0.184 7.49 19.66 8.67
6/22/2021 2:45:00 PM 17.46 63.428 0.184 7.5 19.56 8.67
6/22/2021 3:00:00 PM 17.55 63.59 0.184 7.5 18.87 8.71
6/22/2021 3:15:00 PM 17.55 63.59 0.184 7.51 19.51 8.71
6/22/2021 3:30:00 PM 17.59 63.662 0.184 7.5 18.87 8.7
6/22/2021 3:45:00 PM 17.53 63.554 0.184 7.51 18.76 8.69
6/22/2021 4:00:00 PM 17.56 63.608 0.184 7.51 18.58 8.72
6/22/2021 4:15:00 PM 17.51 63.518 0.185 7.5 18.84 8.72
6/22/2021 4:30:00 PM 17.51 63.518 0.185 7.51 18.16 8.74
6/22/2021 4:45:00 PM 17.55 63.59 0.185 7.51 18.63 8.77
6/22/2021 5:00:00 PM 17.53 63.554 0.185 7.52 17.99 8.78
6/22/2021 5:15:00 PM 17.54 63.572 0.185 7.5 17.62 8.76
6/22/2021 5:30:00 PM 17.49 63.482 0.185 7.51 18.01 8.77
6/22/2021 5:45:00 PM 17.38 63.284 0.185 7.5 18.44 8.74
6/22/2021 6:00:00 PM 17.31 63.158 0.186 7.48 18.99 8.74
6/22/2021 6:15:00 PM 17.24 63.032 0.186 7.49 17.64 8.74
6/22/2021 6:30:00 PM 17.15 62.87 0.186 7.48 18.5 8.73
6/22/2021 6:45:00 PM 17.05 62.69 0.186 7.45 25.87 8.71
6/22/2021 7:00:00 PM 16.95 62.51 0.186 7.45 19.32 8.68
6/22/2021 7:15:00 PM 16.83 62.294 0.187 7.44 18.28 8.64
6/22/2021 7:30:00 PM 16.72 62.096 0.187 7.43 18.8 8.62
6/22/2021 7:45:00 PM 16.62 61.916 0.187 7.41 18.93 8.6
6/22/2021 8:00:00 PM 16.52 61.736 0.187 7.4 18.85 8.58
6/22/2021 8:15:00 PM 16.43 61.574 0.187 7.39 19.29 8.57
6/22/2021 8:30:00 PM 16.35 61.43 0.187 7.41 18.99 8.55
6/22/2021 8:45:00 PM 16.27 61.286 0.187 7.42 19.38 8.54
6/22/2021 9:00:00 PM 16.19 61.142 0.187 7.41 20.64 8.54
6/22/2021 9:15:00 PM 16.11 60.998 0.187 7.42 19.17 8.53
6/22/2021 9:30:00 PM 16.04 60.872 0.187 7.41 20.38 8.53
6/22/2021 9:45:00 PM 15.98 60.764 0.187 7.42 19.84 8.53
6/22/2021 10:00:00 PM 15.92 60.656 0.187 7.4 21.38 8.53
6/22/2021 10:15:00 PM 15.86 60.548 0.187 7.41 20.52 8.53
6/22/2021 10:30:00 PM 15.81 60.458 0.187 7.41 20.14 8.54
6/22/2021 10:45:00 PM 15.76 60.368 0.187 7.41 20.5 8.54
6/22/2021 11:00:00 PM 15.7 60.26 0.188 7.4 19.98 8.54
6/22/2021 11:15:00 PM 15.64 60.152 0.187 7.41 20.04 8.55
6/22/2021 11:30:00 PM 15.59 60.062 0.188 7.39 19.53 8.56
6/22/2021 11:45:00 PM 15.53 59.954 0.188 7.4 19.81 8.56
6/23/2021 12:00:00 AM 15.46 59.828 0.188 7.41 19.83 8.57
6/23/2021 12:15:00 AM 15.4 59.72 0.188 7.4 20.85 8.58
6/23/2021 12:30:00 AM 15.33 59.594 0.188 7.4 19.28 8.59
6/23/2021 12:45:00 AM 15.27 59.486 0.188 7.4 19.49 8.6
6/23/2021 1:00:00 AM 15.2 59.36 0.188 7.39 19.35 8.61
6/23/2021 1:15:00 AM 15.14 59.252 0.188 7.39 19 8.62
6/23/2021 1:30:00 AM 15.07 59.126 0.188 7.39 18.77 8.63
6/23/2021 1:45:00 AM 15.01 59.018 0.188 7.38 18.98 8.64
6/23/2021 2:00:00 AM 14.94 58.892 0.188 7.39 18.14 8.65
6/23/2021 2:15:00 AM 14.87 58.766 0.188 7.39 18.18 8.67
6/23/2021 2:30:00 AM 14.8 58.64 0.188 7.39 18.33 8.68
6/23/2021 2:45:00 AM 14.73 58.514 0.188 7.38 19.21 8.69
6/23/2021 3:00:00 AM 14.65 58.37 0.189 7.38 18.58 8.7
6/23/2021 3:15:00 AM 14.58 58.244 0.189 7.38 18.34 8.72
6/23/2021 3:30:00 AM 14.51 58.118 0.189 7.38 17.79 8.73
6/23/2021 3:45:00 AM 14.43 57.974 0.189 7.37 17.72 8.75
6/23/2021 4:00:00 AM 14.36 57.848 0.189 7.38 17.74 8.76
6/23/2021 4:15:00 AM 14.28 57.704 0.189 7.37 17.41 8.78
6/23/2021 4:30:00 AM 14.21 57.578 0.189 7.36 17.69 8.79
6/23/2021 4:45:00 AM 14.14 57.452 0.19 7.37 23.11 8.8
6/23/2021 5:00:00 AM 14.06 57.308 0.19 7.35 42.85 8.83
6/23/2021 5:15:00 AM 14.01 57.218 0.19 7.36 16.98 8.82
6/23/2021 5:30:00 AM 13.94 57.092 0.19 7.35 16.82 8.85
6/23/2021 5:45:00 AM 13.87 56.966 0.19 7.36 16.57 8.87
6/23/2021 6:00:00 AM 13.8 56.84 0.19 7.35 16.29 8.88
6/23/2021 6:15:00 AM 13.74 56.732 0.19 7.35 16.09 8.91
6/23/2021 6:30:00 AM 13.69 56.642 0.191 7.35 15.02 8.94
6/23/2021 6:45:00 AM 13.65 56.57 0.191 7.35 15.55 8.97
6/23/2021 7:00:00 AM 13.62 56.516 0.191 7.36 15.47 9.01
6/23/2021 7:15:00 AM 13.59 56.462 0.191 7.35 14.76 9.06
6/23/2021 7:30:00 AM 13.59 56.462 0.191 7.37 14.34 9.11
6/23/2021 7:45:00 AM 13.61 56.498 0.191 7.37 14.78 9.15
6/23/2021 8:00:00 AM 13.61 56.498 0.191 7.38 13.67 9.19
6/23/2021 8:15:00 AM 13.62 56.516 0.191 7.38 13.74 9.23
6/23/2021 8:30:00 AM 13.7 56.66 0.191 7.4 13.2 9.28
6/23/2021 8:45:00 AM 13.77 56.786 0.192 7.41 12.87 9.32
6/23/2021 9:00:00 AM 13.9 57.02 0.192 7.42 12.68 9.38
6/23/2021 9:15:00 AM 13.97 57.146 0.192 7.42 13.18 9.41
6/23/2021 9:30:00 AM 14.08 57.344 0.192 7.43 12.71 9.46
6/23/2021 9:45:00 AM 14.2 57.56 0.192 7.44 12.28 9.5
6/23/2021 10:00:00 AM 14.31 57.758 0.192 7.45 12.39 9.52
6/23/2021 10:15:00 AM 14.48 58.064 0.192 7.45 11.96 9.55
6/23/2021 10:30:00 AM 14.54 58.172 0.192 7.46 11.54 9.56
6/23/2021 10:45:00 AM 14.71 58.478 0.193 7.46 11.55 9.59
6/23/2021 11:00:00 AM 14.87 58.766 0.193 7.48 11.7 9.61
6/23/2021 11:15:00 AM 15.07 59.126 0.193 7.48 11.55 9.63
6/23/2021 11:30:00 AM 15.08 59.144 0.193 7.49 11.11 9.6
6/23/2021 11:45:00 AM 15.23 59.414 0.194 7.49 10.89 9.61
6/23/2021 12:00:00 PM 15.49 59.882 0.194 7.51 11.23 9.64
6/23/2021 12:15:00 PM 15.69 60.242 0.194 7.51 10.91 9.66
6/23/2021 12:30:00 PM 15.87 60.566 0.194 7.52 11.25 9.68
6/23/2021 12:45:00 PM 16 60.8 0.194 7.52 10.86 9.68
6/23/2021 1:00:00 PM 16.17 61.106 0.194 7.53 11.1 9.69
6/23/2021 1:15:00 PM 16.17 61.106 0.194 7.53 10.29 9.67
6/23/2021 1:30:00 PM 16.32 61.376 0.194 7.53 10.4 9.69
6/23/2021 1:45:00 PM 16.46 61.628 0.195 7.54 10.82 9.71
6/23/2021 2:00:00 PM 16.57 61.826 0.195 7.54 10.67 9.7
6/23/2021 2:15:00 PM 16.75 62.15 0.195 7.55 10.05 9.71
6/23/2021 2:30:00 PM 16.95 62.51 0.195 7.56 10.23 9.72
6/23/2021 2:45:00 PM 17.07 62.726 0.195 7.57 10.23 9.71
6/23/2021 3:00:00 PM 17.11 62.798 0.195 7.56 10.25 9.69
6/23/2021 3:15:00 PM 17.24 63.032 0.195 7.56 11.08 9.68
6/23/2021 3:30:00 PM 17.38 63.284 0.196 7.55 9.9 9.69
6/23/2021 3:45:00 PM 17.4 63.32 0.196 7.56 9.97 9.68
6/23/2021 4:00:00 PM 17.33 63.194 0.196 7.54 9.98 9.63
6/23/2021 4:15:00 PM 17.32 63.176 0.196 7.55 9.22 9.63
6/23/2021 4:30:00 PM 17.33 63.194 0.196 7.54 11.65 9.62
6/23/2021 4:45:00 PM 17.36 63.248 0.196 7.54 9.54 9.6
6/23/2021 5:00:00 PM 17.39 63.302 0.196 7.54 9.68 9.57
6/23/2021 5:15:00 PM 17.39 63.302 0.197 7.52 10.43 9.55
6/23/2021 5:30:00 PM 17.36 63.248 0.197 7.53 9.95 9.53
6/23/2021 5:45:00 PM 17.3 63.14 0.197 7.52 9.66 9.49
6/23/2021 6:00:00 PM 17.28 63.104 0.197 7.5 9.72 9.47
6/23/2021 6:15:00 PM 17.25 63.05 0.197 7.5 9.75 9.46
6/23/2021 6:30:00 PM 17.12 62.816 0.197 7.49 9.64 9.42
6/23/2021 6:45:00 PM 16.91 62.438 0.198 7.47 9.53 9.34
6/23/2021 7:00:00 PM 16.75 62.15 0.198 7.45 9.72 9.3
6/23/2021 7:15:00 PM 16.6 61.88 0.198 7.45 9.69 9.26
6/23/2021 7:30:00 PM 16.45 61.61 0.198 7.41 9.57 9.19
6/23/2021 7:45:00 PM 16.3 61.34 0.198 7.41 9.69 9.14
6/23/2021 8:00:00 PM 16.17 61.106 0.198 7.37 9.68 9.11
6/23/2021 8:15:00 PM 16.05 60.89 0.198 7.37 9.61 9.07
6/23/2021 8:30:00 PM 15.92 60.656 0.199 7.36 9.46 9.04
6/23/2021 8:45:00 PM 15.8 60.44 0.199 7.34 9.66 9
6/23/2021 9:00:00 PM 15.69 60.242 0.199 7.34 9.72 8.97
6/23/2021 9:15:00 PM 15.6 60.08 0.199 7.34 10.17 8.94
6/23/2021 9:30:00 PM 15.52 59.936 0.199 7.32 9.91 8.92
6/23/2021 9:45:00 PM 15.46 59.828 0.199 7.33 10.25 8.9
6/23/2021 10:00:00 PM 15.4 59.72 0.199 7.31 10.3 8.89
6/23/2021 10:15:00 PM 15.35 59.63 0.199 7.31 9.93 8.88
6/23/2021 10:30:00 PM 15.3 59.54 0.199 7.31 10.13 8.86
6/23/2021 10:45:00 PM 15.26 59.468 0.2 7.3 10.99 8.86
6/23/2021 11:00:00 PM 15.21 59.378 0.2 7.32 10.74 8.85
6/23/2021 11:15:00 PM 15.18 59.324 0.2 7.31 10.13 8.85
6/23/2021 11:30:00 PM 15.14 59.252 0.2 7.32 11.33 8.85
6/23/2021 11:45:00 PM 15.11 59.198 0.2 7.31 10.13 8.84
6/24/2021 12:00:00 AM 15.07 59.126 0.2 7.32 10.42 8.84
6/24/2021 12:15:00 AM 15.04 59.072 0.2 7.31 10.1 8.83
6/24/2021 12:30:00 AM 15.01 59.018 0.201 7.31 10.11 8.83
6/24/2021 12:45:00 AM 14.98 58.964 0.201 7.3 10.23 8.83
6/24/2021 1:00:00 AM 14.94 58.892 0.201 7.31 10.64 8.83
6/24/2021 1:15:00 AM 14.91 58.838 0.201 7.3 10.24 8.83
6/24/2021 1:30:00 AM 14.88 58.784 0.201 7.31 10.43 8.83
6/24/2021 1:45:00 AM 14.84 58.712 0.202 7.32 10.4 8.83
6/24/2021 2:00:00 AM 14.81 58.658 0.202 7.31 10.35 8.84
6/24/2021 2:15:00 AM 14.77 58.586 0.202 7.31 10.76 8.83
6/24/2021 2:30:00 AM 14.73 58.514 0.202 7.3 10.28 8.84
6/24/2021 2:45:00 AM 14.68 58.424 0.202 7.31 10.43 8.84
6/24/2021 3:00:00 AM 14.63 58.334 0.202 7.3 10.36 8.84
6/24/2021 3:15:00 AM 14.58 58.244 0.202 7.3 10.17 8.85
6/24/2021 3:30:00 AM 14.53 58.154 0.202 7.29 10.5 8.85
6/24/2021 3:45:00 AM 14.47 58.046 0.203 7.3 10.02 8.86
6/24/2021 4:00:00 AM 14.41 57.938 0.203 7.29 10.26 8.87
6/24/2021 4:15:00 AM 14.36 57.848 0.203 7.29 10.31 8.87
6/24/2021 4:30:00 AM 14.3 57.74 0.203 7.29 10.82 8.88
6/24/2021 4:45:00 AM 14.24 57.632 0.203 7.28 9.67 8.89
6/24/2021 5:00:00 AM 14.19 57.542 0.203 7.27 10.39 8.89
6/24/2021 5:15:00 AM 14.13 57.434 0.203 7.29 11.1 8.91
6/24/2021 5:30:00 AM 14.07 57.326 0.204 7.27 10.13 8.92
6/24/2021 5:45:00 AM 14.01 57.218 0.204 7.28 10.45 8.93
6/24/2021 6:00:00 AM 13.96 57.128 0.204 7.28 11.16 8.94
6/24/2021 6:15:00 AM 13.9 57.02 0.204 7.29 10.05 8.97
6/24/2021 6:30:00 AM 13.86 56.948 0.204 7.28 10.4 8.99
6/24/2021 6:45:00 AM 13.83 56.894 0.204 7.3 10.11 9.03
6/24/2021 7:00:00 AM 13.8 56.84 0.204 7.28 9.97 9.08
6/24/2021 7:15:00 AM 13.8 56.84 0.205 7.31 10.01 9.14
6/24/2021 7:30:00 AM 13.8 56.84 0.205 7.3 9.43 9.19
6/24/2021 7:45:00 AM 13.83 56.894 0.205 7.31 9.25 9.24
6/24/2021 8:00:00 AM 13.87 56.966 0.205 7.33 9.06 9.29
6/24/2021 8:15:00 AM 13.94 57.092 0.205 7.33 8.93 9.34
6/24/2021 8:30:00 AM 14.02 57.236 0.205 7.35 8.88 9.39
6/24/2021 8:45:00 AM 14.12 57.416 0.205 7.36 8.49 9.42
6/24/2021 9:00:00 AM 14.23 57.614 0.205 7.37 8.37 9.47
6/24/2021 9:15:00 AM 14.36 57.848 0.205 7.39 8.83 9.5
6/24/2021 9:30:00 AM 14.5 58.1 0.205 7.39 7.89 9.53
6/24/2021 9:45:00 AM 14.65 58.37 0.205 7.4 8.15 9.55
6/24/2021 10:00:00 AM 14.82 58.676 0.205 7.41 7.98 9.59
6/24/2021 10:15:00 AM 14.99 58.982 0.205 7.42 7.82 9.61
6/24/2021 10:30:00 AM 15.17 59.306 0.205 7.44 8.01 9.63
6/24/2021 10:45:00 AM 15.36 59.648 0.206 7.45 7.98 9.66
6/24/2021 11:00:00 AM 15.54 59.972 0.206 7.46 7.96 9.68
6/24/2021 11:15:00 AM 15.72 60.296 0.206 7.46 7.98 9.69
6/24/2021 11:30:00 AM 15.91 60.638 0.206 7.48 7.71 9.7
6/24/2021 11:45:00 AM 16.09 60.962 0.206 7.48 7.82 9.71
6/24/2021 12:00:00 PM 16.27 61.286 0.206 7.5 7.53 9.72
6/24/2021 12:15:00 PM 16.68 62.024 0 7.49 3.39 9.45
6/24/2021 12:30:00 PM 16.65 61.97 0.215 7.41 9.26 10.27
6/24/2021 12:45:00 PM 16.86 62.348 0.215 7.41 8.34 10.28
6/24/2021 1:00:00 PM 17.06 62.708 0.215 7.41 8.15 10.28
6/24/2021 1:15:00 PM 17.25 63.05 0.215 7.42 8.31 10.29
6/24/2021 1:30:00 PM 17.42 63.356 0.215 7.43 8.23 10.29
6/24/2021 1:45:00 PM 17.59 63.662 0.215 7.42 8.34 10.29
6/24/2021 2:00:00 PM 17.76 63.968 0.215 7.43 15.63 10.28
6/24/2021 2:15:00 PM 17.91 64.238 0.215 7.44 9.41 10.26
6/24/2021 2:30:00 PM 18.07 64.526 0.215 7.44 9.21 10.24
6/24/2021 2:45:00 PM 18.19 64.742 0.132 7.45 8.34 10.25
6/24/2021 3:00:00 PM 18.32 64.976 0.189 7.45 8.6 10.23
6/24/2021 3:15:00 PM 18.43 65.174 0.215 7.46 8.02 10.21
6/24/2021 3:30:00 PM 18.53 65.354 0.215 7.46 7.96 10.2
6/24/2021 3:45:00 PM 18.62 65.516 0.215 7.46 8.15 10.16
6/24/2021 4:00:00 PM 18.69 65.642 0.216 7.46 9.42 10.14
6/24/2021 4:15:00 PM 18.74 65.732 0.215 7.16 11.55 10.12
6/24/2021 4:30:00 PM 18.76 65.768 0.215 7.46 7.98 10.09
6/24/2021 4:45:00 PM 18.76 65.768 0.216 7.46 8.71 10.04
6/24/2021 5:00:00 PM 18.74 65.732 0.216 7.46 8.18 10.01
6/24/2021 5:15:00 PM 18.71 65.67799 0.214 7.45 9.93 9.97
6/24/2021 5:30:00 PM 18.66 65.588 0.216 7.45 10.11 9.93
6/24/2021 5:45:00 PM 18.59 65.462 0.216 7.45 10.41 9.9
6/24/2021 6:00:00 PM 18.49 65.282 0.216 7.44 9.6 9.85
6/24/2021 6:15:00 PM 18.39 65.102 0.215 7.44 11.82 9.82
6/24/2021 6:30:00 PM 18.26 64.868 0.162 7.43 10.33 9.77
6/24/2021 6:45:00 PM 18.1 64.58 0.216 7.42 10.39 9.71
6/24/2021 7:00:00 PM 17.94 64.292 0.216 7.41 10.26 9.64
6/24/2021 7:15:00 PM 17.78 64.004 0.216 7.4 9.7 9.59
6/24/2021 7:30:00 PM 17.64 63.752 0.217 7.39 10.7 9.51
6/24/2021 7:45:00 PM 17.51 63.518 0.217 7.37 9.94 9.45
6/24/2021 8:00:00 PM 17.39 63.302 0.217 7.36 9.91 9.39
6/24/2021 8:15:00 PM 17.26 63.068 0.217 7.36 10.24 9.33
6/24/2021 8:30:00 PM 17.13 62.834 0.217 7.35 11.71 9.28
6/24/2021 8:45:00 PM 17 62.6 0.217 7.33 10.88 9.23
6/24/2021 9:00:00 PM 16.88 62.384 0.217 7.32 10.44 9.18
6/24/2021 9:15:00 PM 16.76 62.168 0.218 7.31 10.95 9.14
6/24/2021 9:30:00 PM 16.65 61.97 0.218 7.3 10.88 9.12
6/24/2021 9:45:00 PM 16.55 61.79 0.218 7.3 11.91 9.1
6/24/2021 10:00:00 PM 16.47 61.646 0.218 7.29 12.11 9.09
6/24/2021 10:15:00 PM 16.4 61.52 0.218 7.28 12.25 9.07
6/24/2021 10:30:00 PM 16.34 61.412 0.218 7.28 11.99 9.06
6/24/2021 10:45:00 PM 16.29 61.322 0.218 7.27 12.42 9.06
6/24/2021 11:00:00 PM 16.24 61.232 0.218 7.27 12.89 9.06
6/24/2021 11:15:00 PM 16.19 61.142 0.218 7.27 11.38 9.04
6/24/2021 11:30:00 PM 16.16 61.088 0.219 7.27 9.65 9.04
6/24/2021 11:45:00 PM 16.13 61.034 0.219 7.27 13.75 9.03
6/25/2021 12:00:00 AM 16.1 60.98 0.219 7.26 11.9 9.02
6/25/2021 12:15:00 AM 16.07 60.926 0.219 7.27 13.02 9.01
6/25/2021 12:30:00 AM 16.05 60.89 0.219 7.26 11.71 9
6/25/2021 12:45:00 AM 16.03 60.854 0.219 7.26 11.82 9
6/25/2021 1:00:00 AM 16 60.8 0.219 7.26 13.61 8.99
6/25/2021 1:15:00 AM 15.98 60.764 0.219 7.25 12.47 8.99
6/25/2021 1:30:00 AM 15.96 60.728 0.22 7.26 13.62 8.98
6/25/2021 1:45:00 AM 15.93 60.674 0.22 7.26 13.95 8.98
6/25/2021 2:00:00 AM 15.89 60.602 0.22 7.25 12.99 8.98
6/25/2021 2:15:00 AM 15.85 60.53 0.221 7.25 12.6 8.99
6/25/2021 2:30:00 AM 15.81 60.458 0.222 7.25 12.32 8.99
6/25/2021 2:45:00 AM 15.77 60.386 0.222 7.25 11.76 8.99
6/25/2021 3:00:00 AM 15.73 60.314 0.222 7.26 13.26 8.99
6/25/2021 3:15:00 AM 15.69 60.242 0.222 7.25 12.73 8.99
6/25/2021 3:30:00 AM 15.65 60.17 0.222 7.25 13.12 9
6/25/2021 3:45:00 AM 15.61 60.098 0.222 7.25 13.05 9
6/25/2021 4:00:00 AM 15.58 60.044 0.222 7.25 13.07 9
6/25/2021 4:15:00 AM 15.54 59.972 0.222 7.25 13.07 9
6/25/2021 4:30:00 AM 15.5 59.9 0.222 7.25 14.27 9.01
6/25/2021 4:45:00 AM 15.46 59.828 0.222 7.24 13.11 9.01
6/25/2021 5:00:00 AM 15.41 59.738 0.222 7.25 14.77 9.01
6/25/2021 5:15:00 AM 15.37 59.666 0.222 7.25 16.7 9.02
6/25/2021 5:30:00 AM 15.33 59.594 0.223 7.24 12.78 9.02
6/25/2021 5:45:00 AM 15.29 59.522 0.223 7.24 13.73 9.03
6/25/2021 6:00:00 AM 15.25 59.45 0.223 7.24 12.64 9.06
6/25/2021 6:15:00 AM 15.22 59.396 0.223 7.25 12.95 9.1
6/25/2021 6:30:00 AM 15.21 59.378 0.223 7.25 12.94 9.15
6/25/2021 6:45:00 AM 15.2 59.36 0.223 7.26 11.63 9.2
6/25/2021 7:00:00 AM 15.18 59.324 0.223 7.26 11.9 9.25
6/25/2021 7:15:00 AM 15.19 59.342 0.224 7.27 11.9 9.32
6/25/2021 7:30:00 AM 15.22 59.396 0.224 7.27 12.25 9.39
6/25/2021 7:45:00 AM 15.26 59.468 0.224 7.29 10.94 9.47
6/25/2021 8:00:00 AM 15.33 59.594 0.224 7.29 11.93 9.54
6/25/2021 8:15:00 AM 15.41 59.738 0.224 7.3 12.39 9.61
6/25/2021 8:30:00 AM 15.5 59.9 0.224 7.31 11.38 9.67
6/25/2021 8:45:00 AM 15.6 60.08 0.224 7.32 11.13 9.72
6/25/2021 9:00:00 AM 15.71 60.278 0.224 7.33 11.89 9.76
6/25/2021 9:15:00 AM 15.82 60.476 0.223 7.33 10.75 9.8
6/25/2021 9:30:00 AM 15.93 60.674 0.224 7.34 10.54 9.84
6/25/2021 9:45:00 AM 16.08 60.944 0.224 7.35 10.17 9.88
6/25/2021 10:00:00 AM 16.22 61.196 0.224 7.35 10.4 9.91
6/25/2021 10:15:00 AM 16.39 61.502 0.224 7.36 11.15 9.94
6/25/2021 10:30:00 AM 16.57 61.826 0.224 7.37 10.16 9.98
6/25/2021 10:45:00 AM 16.77 62.186 0.224 7.38 10.2 10.01
6/25/2021 11:00:00 AM 16.99 62.582 0.224 7.39 10 10.04
6/25/2021 11:15:00 AM 17.2 62.96 0.224 7.4 10.04 10.07
6/25/2021 11:30:00 AM 17.43 63.374 0.224 7.41 10.09 10.08
6/25/2021 11:45:00 AM 17.65 63.77 0.224 7.42 9.9 10.1
6/25/2021 12:00:00 PM 17.86 64.148 0.224 7.42 11.04 10.12
6/25/2021 12:15:00 PM 18.07 64.526 0.224 7.44 10.14 10.12
6/25/2021 12:30:00 PM 18.26 64.868 0.224 7.44 10.13 10.13
6/25/2021 12:45:00 PM 18.46 65.228 0.224 7.45 9.97 10.13
6/25/2021 1:00:00 PM 18.63 65.534 0.224 7.45 9.86 10.13
6/25/2021 1:15:00 PM 18.8 65.84 0.224 7.47 9.34 10.13
6/25/2021 1:30:00 PM 18.97 66.146 0.224 7.47 10.51 10.13
6/25/2021 1:45:00 PM 19.13 66.434 0.224 7.47 9.79 10.13
6/25/2021 2:00:00 PM 19.28 66.704 0.224 7.48 9.63 10.12
6/25/2021 2:15:00 PM 19.44 66.992 0.224 7.47 10.21 10.12
6/25/2021 2:30:00 PM 19.58 67.244 0.224 7.48 10.75 10.11
6/25/2021 2:45:00 PM 19.64 67.352 0.224 7.48 11.73 10.1
6/25/2021 3:00:00 PM 19.73 67.514 0.224 7.48 9.66 10.07
6/25/2021 3:15:00 PM 19.79 67.622 0.224 7.49 10.26 10.06
6/25/2021 3:30:00 PM 19.84 67.712 0.224 7.49 9.89 10.04
6/25/2021 3:45:00 PM 19.96 67.92799 0.224 7.49 9.45 10.04
6/25/2021 4:00:00 PM 20.09 68.162 0.224 7.49 9.56 10.04
6/25/2021 4:15:00 PM 20.11 68.198 0.224 7.49 9.9 9.99
6/25/2021 4:30:00 PM 20.05 68.09 0.224 7.49 9.85 9.93
6/25/2021 4:45:00 PM 19.98 67.964 0.224 7.48 10.1 9.87
6/25/2021 5:00:00 PM 19.95 67.91 0.224 7.48 12.78 9.85
6/25/2021 5:15:00 PM 19.85 67.73 0.224 7.48 9.95 9.81
6/25/2021 5:30:00 PM 19.75 67.55 0.224 7.47 11.31 9.77
6/25/2021 5:45:00 PM 19.6 67.28 0.224 7.47 10.04 9.7
6/25/2021 6:00:00 PM 19.51 67.118 0.224 7.46 9.96 9.69
6/25/2021 6:15:00 PM 19.4 66.92 0.224 7.46 10.19 9.63
6/25/2021 6:30:00 PM 19.29 66.722 0.224 7.45 10.42 9.57
6/25/2021 6:45:00 PM 19.18 66.524 0.224 7.44 9.86 9.52
6/25/2021 7:00:00 PM 19.09 66.362 0.224 7.42 10.71 9.48
6/25/2021 7:15:00 PM 19 66.2 0.224 7.41 10.82 9.42
6/25/2021 7:30:00 PM 18.92 66.056 0.225 7.41 10.87 9.36
6/25/2021 7:45:00 PM 18.86 65.948 0.224 7.39 10.84 9.32
6/25/2021 8:00:00 PM 18.79 65.82201 0.225 7.39 12.04 9.26
6/25/2021 8:15:00 PM 18.68 65.624 0.225 7.38 8.94 9.17
6/25/2021 8:30:00 PM 18.58 65.444 0.225 7.37 10.4 9.09
6/25/2021 8:45:00 PM 18.48 65.264 0.225 7.35 10.9 9.01
6/25/2021 9:00:00 PM 18.37 65.066 0.225 7.34 10.38 8.94
6/25/2021 9:15:00 PM 18.26 64.868 0.225 7.32 11.17 8.86
6/25/2021 9:30:00 PM 18.15 64.67 0.226 7.31 12.64 8.8
6/25/2021 9:45:00 PM 18.05 64.49 0.226 7.3 11.51 8.76
6/25/2021 10:00:00 PM 17.97 64.346 0.226 7.29 12.13 8.73
6/25/2021 10:15:00 PM 17.9 64.22 0.226 7.29 11.49 8.71
6/25/2021 10:30:00 PM 17.84 64.112 0.226 7.29 11.38 8.7
6/25/2021 10:45:00 PM 17.78 64.004 0.226 7.28 11.48 8.69
6/25/2021 11:00:00 PM 17.72 63.896 0.226 7.28 11.39 8.69
6/25/2021 11:15:00 PM 17.66 63.788 0.226 7.28 11.18 8.67
6/25/2021 11:30:00 PM 17.6 63.68 0.226 7.28 11.96 8.67
6/25/2021 11:45:00 PM 17.54 63.572 0.226 7.27 12.29 8.66
6/26/2021 12:00:00 AM 17.49 63.482 0.227 7.27 11.61 8.65
6/26/2021 12:15:00 AM 17.44 63.392 0.227 7.27 11.23 8.65
6/26/2021 12:30:00 AM 17.41 63.338 0.227 7.26 11.5 8.65
6/26/2021 12:45:00 AM 17.37 63.266 0.227 7.26 11.93 8.65
6/26/2021 1:00:00 AM 17.33 63.194 0.227 7.26 12.4 8.64
6/26/2021 1:15:00 AM 17.29 63.122 0.228 7.25 12.56 8.64
6/26/2021 1:30:00 AM 17.26 63.068 0.228 7.25 11.79 8.63
6/26/2021 1:45:00 AM 17.24 63.032 0.228 7.25 12.52 8.63
6/26/2021 2:00:00 AM 17.22 62.996 0.228 7.25 12.77 8.62
6/26/2021 2:15:00 AM 17.18 62.924 0.228 7.24 12.56 8.62
6/26/2021 2:30:00 AM 17.16 62.888 0.228 7.24 13.18 8.62
6/26/2021 2:45:00 AM 17.15 62.87 0.228 7.24 12.43 8.61
6/26/2021 3:00:00 AM 17.14 62.852 0.228 7.24 13.49 8.61
6/26/2021 3:15:00 AM 17.12 62.816 0.228 7.24 14.29 8.6
6/26/2021 3:30:00 AM 17.09 62.762 0.229 7.24 12.54 8.6
6/26/2021 3:45:00 AM 17.06 62.708 0.229 7.23 12.81 8.6
6/26/2021 4:00:00 AM 17.05 62.69 0.229 7.23 12.04 8.6
6/26/2021 4:15:00 AM 17.02 62.636 0.229 7.24 13.48 8.6
6/26/2021 4:30:00 AM 17 62.6 0.229 7.23 17.36 8.6
6/26/2021 4:45:00 AM 16.97 62.546 0.229 7.23 13.35 8.6
6/26/2021 5:00:00 AM 16.95 62.51 0.23 7.23 14.81 8.61
6/26/2021 5:15:00 AM 16.93 62.474 0.23 7.23 54.86 8.6
6/26/2021 5:30:00 AM 16.92 62.456 0.229 7.23 29.02 8.6
6/26/2021 5:45:00 AM 16.9 62.42 0.23 7.23 12.86 8.61
6/26/2021 6:00:00 AM 16.88 62.384 0.23 7.23 14.23 8.62
6/26/2021 6:15:00 AM 16.87 62.366 0.23 7.23 12.38 8.64
6/26/2021 6:30:00 AM 16.86 62.348 0.23 7.24 12.18 8.67
6/26/2021 6:45:00 AM 16.85 62.33 0.23 7.24 11.67 8.72
6/26/2021 7:00:00 AM 16.84 62.312 0.23 7.25 12.32 8.77
6/26/2021 7:15:00 AM 16.86 62.348 0.23 7.26 11.84 8.86
6/26/2021 7:30:00 AM 16.9 62.42 0.231 7.26 12.38 8.95
6/26/2021 7:45:00 AM 16.95 62.51 0.231 7.27 11.72 9.04
6/26/2021 8:00:00 AM 17.02 62.636 0.231 7.28 11.98 9.12
6/26/2021 8:15:00 AM 17.1 62.78 0.23 7.29 11.31 9.2
6/26/2021 8:30:00 AM 17.19 62.942 0.231 7.3 11.99 9.27
6/26/2021 8:45:00 AM 17.31 63.158 0.231 7.31 11.48 9.34
6/26/2021 9:00:00 AM 17.5 63.5 0.231 7.32 10.61 9.41
6/26/2021 9:15:00 AM 17.66 63.788 0.231 7.33 11.93 9.48
6/26/2021 9:30:00 AM 17.83 64.094 0.231 7.34 10.95 9.53
6/26/2021 9:45:00 AM 18.05 64.49 0.231 7.35 10.98 9.6
6/26/2021 10:00:00 AM 18.17 64.706 0.231 7.37 10.85 9.62
6/26/2021 10:15:00 AM 18.2 64.76 0.231 7.37 11.26 9.62
6/26/2021 10:30:00 AM 18.48 65.264 0.231 7.39 11.25 9.7
6/26/2021 10:45:00 AM 18.56 65.408 0.231 7.39 10.71 9.71
6/26/2021 11:00:00 AM 18.76 65.768 0.231 7.4 10.6 9.75
6/26/2021 11:15:00 AM 19.01 66.218 0.231 7.41 11.95 9.81
6/26/2021 11:30:00 AM 19.21 66.578 0.231 7.42 10.18 9.84
6/26/2021 11:45:00 AM 19.45 67.01 0.231 7.43 10.9 9.86
6/26/2021 12:00:00 PM 19.66 67.388 0.231 7.44 10.49 9.87
6/26/2021 12:15:00 PM 19.91 67.838 0.231 7.45 11.6 9.89
6/26/2021 12:30:00 PM 20.17 68.306 0.231 7.46 10.81 9.91
6/26/2021 12:45:00 PM 20.37 68.666 0.231 7.46 9.93 9.91
6/26/2021 1:00:00 PM 20.54 68.972 0.231 7.48 10.14 9.89
6/26/2021 1:15:00 PM 20.58 69.044 0.231 7.47 12.75 9.83
6/26/2021 1:30:00 PM 20.85 69.53 0.231 7.48 13.91 9.9
6/26/2021 1:45:00 PM 20.92 69.656 0.231 7.48 9.64 9.86
6/26/2021 2:00:00 PM 21.05 69.89 0.231 7.49 10.97 9.85
6/26/2021 2:15:00 PM 21.12 70.016 0.231 7.49 12.06 9.82
6/26/2021 2:30:00 PM 21.27 70.286 0.231 7.49 10.41 9.84
6/26/2021 2:45:00 PM 21.47 70.646 0.231 7.5 14.73 9.88
6/26/2021 3:00:00 PM 21.55 70.79 0.231 7.51 10.78 9.86
6/26/2021 3:15:00 PM 21.56 70.808 0.231 7.51 9.46 9.81
6/26/2021 3:30:00 PM 21.68 71.024 0.231 7.51 12.06 9.81
6/26/2021 3:45:00 PM 21.76 71.168 0.231 7.51 12.75 9.8
6/26/2021 4:00:00 PM 21.72 71.096 0.231 7.51 9.6 9.75
6/26/2021 4:15:00 PM 21.71 71.078 0.231 7.51 9.47 9.73
6/26/2021 4:30:00 PM 21.6 70.88 0.232 7.5 9.85 9.66
6/26/2021 4:45:00 PM 21.42 70.556 0.231 7.49 10.47 9.54
6/26/2021 5:00:00 PM 21.39 70.502 0.232 7.49 9.94 9.54
6/26/2021 5:15:00 PM 21.32 70.376 0.231 7.48 10.3 9.51
6/26/2021 5:30:00 PM 21.21 70.17799 0.231 7.47 11.4 9.43
6/26/2021 5:45:00 PM 21.18 70.124 0.231 7.47 10.19 9.44
6/26/2021 6:00:00 PM 21.13 70.034 0.231 7.46 9.76 9.4
6/26/2021 6:15:00 PM 21.09 69.962 0.231 7.46 10.61 9.37
6/26/2021 6:30:00 PM 21.01 69.818 0.231 7.46 10.95 9.33
6/26/2021 6:45:00 PM 20.85 69.53 0.232 7.44 15.93 9.22
6/26/2021 7:00:00 PM 20.69 69.242 0.232 7.43 10.51 9.11
6/26/2021 7:15:00 PM 20.54 68.972 0.232 7.41 13.43 9.04
6/26/2021 7:30:00 PM 20.42 68.756 0.232 7.4 10.43 8.98
6/26/2021 7:45:00 PM 20.31 68.558 0.232 7.39 11.68 8.92
6/26/2021 8:00:00 PM 20.23 68.414 0.232 7.38 11.33 8.86
6/26/2021 8:15:00 PM 20.14 68.252 0.232 7.36 11.27 8.78
6/26/2021 8:30:00 PM 20.06 68.108 0.232 7.35 10.57 8.69
6/26/2021 8:45:00 PM 19.98 67.964 0.233 7.34 10.67 8.61
6/26/2021 9:00:00 PM 19.88 67.784 0.233 7.32 11.03 8.53
6/26/2021 9:15:00 PM 19.79 67.622 0.233 7.31 11.86 8.47
6/26/2021 9:30:00 PM 19.69 67.442 0.233 7.29 11.66 8.41
6/26/2021 9:45:00 PM 19.59 67.262 0.233 7.28 11.55 8.37
6/26/2021 10:00:00 PM 19.5 67.1 0.233 7.27 11.33 8.34
6/26/2021 10:15:00 PM 19.41 66.938 0.233 7.26 11.88 8.31
6/26/2021 10:30:00 PM 19.33 66.794 0.233 7.26 11.85 8.3
6/26/2021 10:45:00 PM 19.26 66.668 0.233 7.25 12.26 8.28
6/26/2021 11:00:00 PM 19.19 66.542 0.234 7.25 12 8.27
6/26/2021 11:15:00 PM 19.13 66.434 0.234 7.25 12.16 8.27
6/26/2021 11:30:00 PM 19.06 66.308 0.234 7.25 12.3 8.27
6/26/2021 11:45:00 PM 19 66.2 0.234 7.24 13.25 8.26
6/27/2021 12:00:00 AM 18.95 66.11 0.234 7.24 12.65 8.26
6/27/2021 12:15:00 AM 18.89 66.002 0.234 7.24 12.06 8.26
6/27/2021 12:30:00 AM 18.83 65.894 0.234 7.23 13 8.26
6/27/2021 12:45:00 AM 18.78 65.804 0.234 7.23 13.31 8.26
6/27/2021 1:00:00 AM 18.74 65.732 0.234 7.23 13.08 8.25
6/27/2021 1:15:00 AM 18.69 65.642 0.234 7.23 13.64 8.25
6/27/2021 1:30:00 AM 18.65 65.57 0.235 7.23 13.04 8.25
6/27/2021 1:45:00 AM 18.6 65.48 0.235 7.23 16.07 8.25
6/27/2021 2:00:00 AM 18.57 65.426 0.234 7.22 13.24 8.25
6/27/2021 2:15:00 AM 18.52 65.336 0.235 7.22 14.04 8.25
6/27/2021 2:30:00 AM 18.49 65.282 0.235 7.22 15.49 8.25
6/27/2021 2:45:00 AM 18.45 65.21 0.235 7.21 14.36 8.25
6/27/2021 3:00:00 AM 18.42 65.156 0.235 7.22 14.49 8.25
6/27/2021 3:15:00 AM 18.39 65.102 0.235 7.22 14.34 8.25
6/27/2021 3:30:00 AM 18.35 65.03 0.235 7.21 13.59 8.25
6/27/2021 3:45:00 AM 18.32 64.976 0.236 7.21 14.15 8.25
6/27/2021 4:00:00 AM 18.29 64.922 0.236 7.21 13.65 8.25
6/27/2021 4:15:00 AM 18.26 64.868 0.236 7.21 15.63 8.25
6/27/2021 4:30:00 AM 18.23 64.814 0.236 7.21 13.88 8.25
6/27/2021 4:45:00 AM 18.19 64.742 0.236 7.21 15.47 8.26
6/27/2021 5:00:00 AM 18.16 64.688 0.236 7.21 15.19 8.25
6/27/2021 5:15:00 AM 18.12 64.616 0.236 7.2 14.53 8.26
6/27/2021 5:30:00 AM 18.08 64.544 0.236 7.2 14.18 8.26
6/27/2021 5:45:00 AM 18.04 64.472 0.237 7.21 13.78 8.27
6/27/2021 6:00:00 AM 18 64.4 0.237 7.21 13.98 8.28
6/27/2021 6:15:00 AM 17.97 64.346 0.237 7.21 13.99 8.32
6/27/2021 6:30:00 AM 17.95 64.31 0.237 7.21 12.95 8.37
6/27/2021 6:45:00 AM 17.95 64.31 0.237 7.22 13.45 8.44
6/27/2021 7:00:00 AM 17.96 64.328 0.237 7.23 13.44 8.51
6/27/2021 7:15:00 AM 17.99 64.382 0.237 7.24 13.49 8.59
6/27/2021 7:30:00 AM 18.03 64.454 0.237 7.24 11.99 8.68
6/27/2021 7:45:00 AM 18.07 64.526 0.237 7.26 12.42 8.76
6/27/2021 8:00:00 AM 18.13 64.634 0.238 7.26 11.85 8.84
6/27/2021 8:15:00 AM 18.2 64.76 0.237 7.27 11.49 8.92
6/27/2021 8:30:00 AM 18.31 64.958 0.237 7.28 12.69 9
6/27/2021 8:45:00 AM 18.46 65.228 0.238 7.29 10.79 9.08
6/27/2021 9:00:00 AM 18.62 65.516 0.238 7.31 12.36 9.15
6/27/2021 9:15:00 AM 18.8 65.84 0.238 7.32 11.12 9.21
6/27/2021 9:30:00 AM 19 66.2 0.238 7.33 10.38 9.29
6/27/2021 9:45:00 AM 19.2 66.56 0.238 7.34 10.58 9.33
6/27/2021 10:00:00 AM 19.42 66.956 0.238 7.35 10.69 9.4
6/27/2021 10:15:00 AM 19.65 67.37 0.238 7.37 11.57 9.46
6/27/2021 10:30:00 AM 19.89 67.802 0.238 7.38 10 9.51
6/27/2021 10:45:00 AM 20.13 68.234 0.238 7.39 11.63 9.56
6/27/2021 11:00:00 AM 20.36 68.648 0.239 7.4 10.54 9.6
6/27/2021 11:15:00 AM 20.6 69.08 0.238 7.42 11.68 9.63
6/27/2021 11:30:00 AM 20.71 69.278 0.238 7.42 10.51 9.62
6/27/2021 11:45:00 AM 20.78 69.404 0.239 7.43 10.24 9.6
6/27/2021 12:00:00 PM 20.88 69.584 0.239 7.43 10.11 9.58
6/27/2021 12:15:00 PM 21.05 69.89 0.238 7.44 9.92 9.62
6/27/2021 12:30:00 PM 21.32 70.376 0.239 7.45 10.02 9.69
6/27/2021 12:45:00 PM 21.45 70.61 0.239 7.46 9.52 9.68
6/27/2021 1:00:00 PM 21.49 70.682 0.239 7.46 10.72 9.63
6/27/2021 1:15:00 PM 21.85 71.33 0.239 7.47 9.76 9.73
6/27/2021 1:30:00 PM 21.97 71.546 0.239 7.48 10.45 9.72
6/27/2021 1:45:00 PM 22.22 71.996 0.239 7.49 10.52 9.78
6/27/2021 2:00:00 PM 22.44 72.392 0.239 7.5 10.14 9.78
6/27/2021 2:15:00 PM 22.62 72.716 0.239 7.51 9.95 9.78
6/27/2021 2:30:00 PM 22.81 73.058 0.239 7.52 10.46 9.79
6/27/2021 2:45:00 PM 22.87 73.166 0.239 7.52 10.24 9.77
6/27/2021 3:00:00 PM 22.84 73.112 0.239 7.52 9.72 9.65
6/27/2021 3:15:00 PM 22.88 73.184 0.239 7.51 9.69 9.62
6/27/2021 3:30:00 PM 23.03 73.454 0.239 7.52 9.92 9.65
6/27/2021 3:45:00 PM 23.1 73.58 0.239 7.52 15.93 9.64
6/27/2021 4:00:00 PM 23.16 73.688 0.239 7.53 10.58 9.65
6/27/2021 4:15:00 PM 23.26 73.868 0.239 7.53 9.97 9.64
6/27/2021 4:30:00 PM 23.25 73.85 0.239 7.52 9.87 9.6
6/27/2021 4:45:00 PM 23.24 73.832 0.239 7.52 10.65 9.55
6/27/2021 5:00:00 PM 23.21 73.778 0.239 7.51 10.92 9.5
6/27/2021 5:15:00 PM 23.16 73.688 0.239 7.5 10.06 9.45
6/27/2021 5:30:00 PM 23.11 73.598 0.239 7.5 10.86 9.39
6/27/2021 5:45:00 PM 23.04 73.472 0.239 7.49 10.51 9.36
6/27/2021 6:00:00 PM 22.97 73.346 0.239 7.48 10.06 9.3
6/27/2021 6:15:00 PM 22.85 73.13 0.24 7.47 10.8 9.23
6/27/2021 6:30:00 PM 22.72 72.896 0.239 7.47 10.97 9.17
6/27/2021 6:45:00 PM 22.56 72.608 0.239 7.45 12.32 9.06
6/27/2021 7:00:00 PM 22.36 72.248 0.239 7.43 10.51 8.95
6/27/2021 7:15:00 PM 22.16 71.888 0.239 7.41 11.04 8.84
6/27/2021 7:30:00 PM 21.97 71.546 0.239 7.4 10.98 8.72
6/27/2021 7:45:00 PM 21.81 71.258 0.24 7.37 10.79 8.6
6/27/2021 8:00:00 PM 21.67 71.006 0.24 7.36 11.15 8.52
6/27/2021 8:15:00 PM 21.55 70.79 0.24 7.34 11.14 8.44
6/27/2021 8:30:00 PM 21.45 70.61 0.24 7.32 10.47 8.35
6/27/2021 8:45:00 PM 21.33 70.394 0.24 7.31 10.55 8.28
6/27/2021 9:00:00 PM 21.22 70.196 0.24 7.29 11.96 8.21
6/27/2021 9:15:00 PM 21.12 70.016 0.24 7.28 11.42 8.14
6/27/2021 9:30:00 PM 21.01 69.818 0.24 7.27 12.22 8.09
6/27/2021 9:45:00 PM 20.91 69.638 0.241 7.26 12.25 8.05
6/27/2021 10:00:00 PM 20.8 69.44 0.241 7.25 12.35 8.01
6/27/2021 10:15:00 PM 20.71 69.278 0.241 7.25 11.6 7.99
6/27/2021 10:30:00 PM 20.62 69.116 0.241 7.24 12.77 7.97
6/27/2021 10:45:00 PM 20.54 68.972 0.241 7.23 12.03 7.95
6/27/2021 11:00:00 PM 20.46 68.828 0.241 7.23 12.14 7.94
6/27/2021 11:15:00 PM 20.38 68.684 0.241 7.23 13.52 7.92
6/27/2021 11:30:00 PM 20.31 68.558 0.242 7.22 12.43 7.94
6/27/2021 11:45:00 PM 20.24 68.432 0.241 7.22 12.65 7.93
6/28/2021 12:00:00 AM 20.18 68.324 0.241 7.22 13.15 7.94
6/28/2021 12:15:00 AM 20.11 68.198 0.242 7.21 15.11 7.94
6/28/2021 12:30:00 AM 20.05 68.09 0.242 7.22 13.84 7.94
6/28/2021 12:45:00 AM 19.99 67.982 0.242 7.21 13.36 7.93
6/28/2021 1:00:00 AM 19.94 67.892 0.242 7.21 14.24 7.94
6/28/2021 1:15:00 AM 19.88 67.784 0.242 7.21 14.07 7.93
6/28/2021 1:30:00 AM 19.83 67.694 0.242 7.21 13.3 7.95
6/28/2021 1:45:00 AM 19.79 67.622 0.242 7.2 15.32 7.94
6/28/2021 2:00:00 AM 19.74 67.532 0.242 7.2 14.6 7.95
6/28/2021 2:15:00 AM 19.7 67.46 0.242 7.2 14.35 7.93
6/28/2021 2:30:00 AM 19.65 67.37 0.242 7.2 13.04 7.94
6/28/2021 2:45:00 AM 19.61 67.298 0.243 7.19 13.93 7.93
6/28/2021 3:00:00 AM 19.58 67.244 0.243 7.19 13.92 7.94
6/28/2021 3:15:00 AM 19.54 67.172 0.243 7.19 13.62 7.95
6/28/2021 3:30:00 AM 19.5 67.1 0.243 7.19 13.41 7.95
6/28/2021 3:45:00 AM 19.47 67.046 0.243 7.19 13.68 7.95
6/28/2021 4:00:00 AM 19.43 66.974 0.243 7.19 12.96 7.95
6/28/2021 4:15:00 AM 19.39 66.902 0.244 7.19 13.72 7.97
6/28/2021 4:30:00 AM 19.36 66.848 0.244 7.19 13.95 7.97
6/28/2021 4:45:00 AM 19.33 66.794 0.244 7.19 12.78 7.97
6/28/2021 5:00:00 AM 19.29 66.722 0.244 7.19 13.85 7.97
6/28/2021 5:15:00 AM 19.26 66.668 0.244 7.19 14.37 7.97
6/28/2021 5:30:00 AM 19.22 66.596 0.244 7.19 14.19 7.98
6/28/2021 5:45:00 AM 19.18 66.524 0.244 7.18 14.11 7.98
6/28/2021 6:00:00 AM 19.14 66.452 0.244 7.19 12.87 8.01
6/28/2021 6:15:00 AM 19.11 66.398 0.245 7.19 12.81 8.04
6/28/2021 6:30:00 AM 19.09 66.362 0.245 7.19 13.5 8.09
6/28/2021 6:45:00 AM 19.08 66.344 0.245 7.19 12.28 8.14
6/28/2021 7:00:00 AM 19.07 66.326 0.245 7.2 13.51 8.22
6/28/2021 7:15:00 AM 19.09 66.362 0.245 7.21 12.06 8.3
6/28/2021 7:30:00 AM 19.13 66.434 0.245 7.22 12.34 8.4
6/28/2021 7:45:00 AM 19.18 66.524 0.245 7.23 12.62 8.49
6/28/2021 8:00:00 AM 19.25 66.65 0.246 7.24 11.47 8.6
6/28/2021 8:15:00 AM 19.34 66.812 0.246 7.25 12.76 8.7
6/28/2021 8:30:00 AM 19.46 67.028 0.246 7.26 11.68 8.79
6/28/2021 8:45:00 AM 19.6 67.28 0.246 7.28 11.14 8.87
6/28/2021 9:00:00 AM 19.79 67.622 0.246 7.29 11.3 8.98
6/28/2021 9:15:00 AM 20.02 68.036 0.246 7.31 11.46 9.07
6/28/2021 9:30:00 AM 20.17 68.306 0.246 7.32 11.23 9.13
6/28/2021 9:45:00 AM 20.35 68.63 0.246 7.33 11.89 9.2
6/28/2021 10:00:00 AM 20.55 68.99 0.246 7.34 10.56 9.27
6/28/2021 10:15:00 AM 20.8 69.44 0.247 7.36 10.74 9.35
6/28/2021 10:30:00 AM 21.04 69.872 0.247 7.37 11.05 9.41
6/28/2021 10:45:00 AM 21.29 70.32201 0.246 7.38 12.4 9.48
6/28/2021 11:00:00 AM 21.39 70.502 0.247 7.39 10.8 9.41
6/28/2021 11:15:00 AM 21.65 70.97 0.247 7.4 11.13 9.47
6/28/2021 11:30:00 AM 21.89 71.402 0.247 7.41 14.65 9.52
6/28/2021 11:45:00 AM 22.11 71.798 0.247 7.42 15.47 9.56
6/28/2021 12:00:00 PM 22.35 72.23 0.247 7.43 10.92 9.6
6/28/2021 12:15:00 PM 22.35 72.23 0.248 7.43 12.24 9.55
6/28/2021 12:30:00 PM 22.32 72.176 0.247 7.42 10.51 9.44
6/28/2021 12:45:00 PM 22.43 72.374 0.248 7.43 11.69 9.46
6/28/2021 1:00:00 PM 22.58 72.644 0.247 7.44 11.15 9.53
6/28/2021 1:15:00 PM 22.89 73.202 0.248 7.45 9.74 9.63
6/28/2021 1:30:00 PM 23.19 73.742 0.248 7.47 10.01 9.67
6/28/2021 1:45:00 PM 23.44 74.192 0.248 7.49 10 9.71
6/28/2021 2:00:00 PM 23.65 74.57 0.248 7.49 38.99 9.7
6/28/2021 2:15:00 PM 23.86 74.948 0.248 7.49 8.73 9.69
6/28/2021 2:30:00 PM 23.91 75.038 0.248 7.5 12.17 9.59
6/28/2021 2:45:00 PM 23.95 75.11 0.248 7.5 11.5 9.54
6/28/2021 3:00:00 PM 24.06 75.308 0.248 7.5 9.99 9.57
6/28/2021 3:15:00 PM 24.19 75.542 0.248 7.51 14.35 9.63
6/28/2021 3:30:00 PM 24.24 75.632 0.247 7.52 12.86 9.63
6/28/2021 3:45:00 PM 24.27 75.686 0.248 7.51 10.91 9.6
6/28/2021 4:00:00 PM 24.36 75.848 0.248 7.52 12.73 9.58
6/28/2021 4:15:00 PM 24.52 76.136 0.247 7.52 11.68 9.6
6/28/2021 4:30:00 PM 24.64 76.352 0.248 7.52 10.3 9.59
6/28/2021 4:45:00 PM 24.65 76.37 0.248 7.51 15.12 9.52
6/28/2021 5:00:00 PM 24.65 76.37 0.248 7.5 12.61 9.46
6/28/2021 5:15:00 PM 24.68 76.424 0.248 7.51 10.64 9.44
6/28/2021 5:30:00 PM 24.61 76.298 0.248 7.49 10.57 9.36
6/28/2021 5:45:00 PM 24.52 76.136 0.247 7.5 9.95 9.27
6/28/2021 6:00:00 PM 24.39 75.902 0.248 7.48 10.98 9.21
6/28/2021 6:15:00 PM 24.24 75.632 0.248 7.47 11.25 9.13
6/28/2021 6:30:00 PM 24.08 75.344 0.248 7.45 10.62 9.05
6/28/2021 6:45:00 PM 23.87 74.966 0.248 7.44 10.82 8.94
6/28/2021 7:00:00 PM 23.64 74.552 0.248 7.42 11.14 8.83
6/28/2021 7:15:00 PM 23.38 74.084 0.249 7.41 12.02 8.69
6/28/2021 7:30:00 PM 23.17 73.706 0.249 7.39 12.05 8.54
6/28/2021 7:45:00 PM 22.94 73.292 0.249 7.36 10.83 8.41
6/28/2021 8:00:00 PM 22.79 73.022 0.25 7.35 12.98 8.3
6/28/2021 8:15:00 PM 22.62 72.716 0.249 7.33 11.03 8.23
6/28/2021 8:30:00 PM 22.48 72.464 0.25 7.32 11.75 8.14
6/28/2021 8:45:00 PM 22.35 72.23 0.249 7.31 11.63 8.07
6/28/2021 9:00:00 PM 22.23 72.014 0.25 7.29 11.15 8
6/28/2021 9:15:00 PM 22.12 71.816 0.249 7.27 12.04 7.93
6/28/2021 9:30:00 PM 22.01 71.618 0.25 7.26 11.75 7.87
6/28/2021 9:45:00 PM 21.91 71.438 0.25 7.26 14.64 7.81
6/28/2021 10:00:00 PM 21.81 71.258 0.25 7.25 12.1 7.78
6/28/2021 10:15:00 PM 21.72 71.096 0.25 7.24 13.07 7.75
6/28/2021 10:30:00 PM 21.63 70.934 0.25 7.23 13.92 7.73
6/28/2021 10:45:00 PM 21.55 70.79 0.25 7.22 16.58 7.7
6/28/2021 11:00:00 PM 21.48 70.664 0.25 7.22 13.77 7.68
6/28/2021 11:15:00 PM 21.41 70.538 0.25 7.22 12.78 7.69
6/28/2021 11:30:00 PM 21.33 70.394 0.25 7.21 13.97 7.69
6/28/2021 11:45:00 PM 21.26 70.268 0.25 7.21 13.49 7.69
6/29/2021 12:00:00 AM 21.21 70.17799 0.25 7.21 13.25 7.69
6/29/2021 12:15:00 AM 21.16 70.088 0.25 7.21 13.24 7.67
6/29/2021 12:30:00 AM 21.09 69.962 0.25 7.21 12.27 7.7
6/29/2021 12:45:00 AM 21.03 69.854 0.25 7.21 12.1 7.7
6/29/2021 1:00:00 AM 20.97 69.746 0.25 7.2 12.75 7.7
6/29/2021 1:15:00 AM 20.91 69.638 0.25 7.2 12.82 7.71
6/29/2021 1:30:00 AM 20.85 69.53 0.25 7.2 12.02 7.71
6/29/2021 1:45:00 AM 20.8 69.44 0.251 7.19 12.41 7.7
6/29/2021 2:00:00 AM 20.75 69.35 0.25 7.19 12.46 7.7
6/29/2021 2:15:00 AM 20.7 69.26 0.251 7.19 12.04 7.71
6/29/2021 2:30:00 AM 20.66 69.188 0.251 7.19 12.64 7.7
6/29/2021 2:45:00 AM 20.62 69.116 0.251 7.19 12.92 7.71
6/29/2021 3:00:00 AM 20.58 69.044 0.251 7.18 13.16 7.71
6/29/2021 3:15:00 AM 20.54 68.972 0.251 7.19 12.86 7.71
6/29/2021 3:30:00 AM 20.51 68.918 0.251 7.19 12.96 7.72
6/29/2021 3:45:00 AM 20.48 68.864 0.251 7.19 15.12 7.72
6/29/2021 4:00:00 AM 20.45 68.81 0.251 7.18 13.11 7.72
6/29/2021 4:15:00 AM 20.41 68.738 0.251 7.18 14.7 7.71
6/29/2021 4:30:00 AM 20.38 68.684 0.252 7.18 12.56 7.73
6/29/2021 4:45:00 AM 20.35 68.63 0.252 7.18 13.04 7.72
6/29/2021 5:00:00 AM 20.32 68.576 0.252 7.16 25.42 7.6
6/29/2021 5:15:00 AM 20.29 68.522 0.252 7.18 14.23 7.72
6/29/2021 5:30:00 AM 20.26 68.468 0.252 7.18 13.25 7.73
6/29/2021 5:45:00 AM 20.22 68.396 0.252 7.18 13.58 7.73
6/29/2021 6:00:00 AM 20.19 68.342 0.253 7.18 12.73 7.75
6/29/2021 6:15:00 AM 20.16 68.288 0.253 7.18 13.12 7.78
6/29/2021 6:30:00 AM 20.15 68.27 0.253 7.19 12.82 7.81
6/29/2021 6:45:00 AM 20.14 68.252 0.253 7.19 12.17 7.89
6/29/2021 7:00:00 AM 20.15 68.27 0.253 7.2 12.58 7.98
6/29/2021 7:15:00 AM 20.17 68.306 0.253 7.2 11.94 8.08
6/29/2021 7:30:00 AM 20.21 68.378 0.253 7.21 12.27 8.18
6/29/2021 7:45:00 AM 20.26 68.468 0.253 7.22 11.88 8.28
6/29/2021 8:00:00 AM 20.34 68.612 0.253 7.23 11.54 8.4
6/29/2021 8:15:00 AM 20.44 68.792 0.253 7.25 11.82 8.52
6/29/2021 8:30:00 AM 20.55 68.99 0.253 7.26 12.42 8.61
6/29/2021 8:45:00 AM 20.69 69.242 0.254 7.27 12.15 8.71
6/29/2021 9:00:00 AM 20.85 69.53 0.254 7.29 11.16 8.82
6/29/2021 9:15:00 AM 21.04 69.872 0.254 7.3 12.06 8.9
6/29/2021 9:30:00 AM 21.22 70.196 0.254 7.31 11.24 8.99
6/29/2021 9:45:00 AM 21.42 70.556 0.254 7.33 10.87 9.07
6/29/2021 10:00:00 AM 21.62 70.916 0.254 7.34 11.27 9.15
6/29/2021 10:15:00 AM 21.87 71.366 0.254 7.36 11.59 9.22
6/29/2021 10:30:00 AM 22.13 71.834 0.254 7.37 11.22 9.29
6/29/2021 10:45:00 AM 22.33 72.194 0.255 7.38 10.81 9.33
6/29/2021 11:00:00 AM 22.57 72.626 0.255 7.39 12.44 9.38
6/29/2021 11:15:00 AM 22.94 73.292 0.255 7.41 11.16 9.47
6/29/2021 11:30:00 AM 23.09 73.562 0.255 7.42 11.71 9.44
6/29/2021 11:45:00 AM 23.32 73.976 0.255 7.43 10.64 9.48
6/29/2021 12:00:00 PM 23.32 73.976 0.255 7.43 10.82 9.36
6/29/2021 12:15:00 PM 23.3 73.94 0.255 7.43 11.3 9.34
6/29/2021 12:30:00 PM 23.66 74.588 0.256 7.45 10.8 9.5
6/29/2021 12:45:00 PM 24 75.2 0.255 7.47 10.22 9.57
6/29/2021 1:00:00 PM 24.11 75.398 0.255 7.47 11.13 9.5
6/29/2021 1:15:00 PM 24.28 75.704 0.256 7.47 11.58 9.49
6/29/2021 1:30:00 PM 24.7 76.46 0.256 7.49 10.65 9.57
6/29/2021 1:45:00 PM 25 77 0.256 7.51 10.93 9.63
6/29/2021 2:00:00 PM 25.32 77.576 0.256 7.53 11.03 9.68
6/29/2021 2:15:00 PM 25.54 77.972 0.256 7.54 13.81 9.64
6/29/2021 2:30:00 PM 25.78 78.404 0.256 7.54 10.42 9.68
6/29/2021 2:45:00 PM 25.95 78.71 0.256 7.55 10.8 9.68
6/29/2021 3:00:00 PM 25.73 78.314 0.256 7.53 10.19 9.47
6/29/2021 3:15:00 PM 25.86 78.548 0.256 7.53 9.9 9.5
6/29/2021 3:30:00 PM 25.9 78.62 0.256 7.54 10.48 9.5
6/29/2021 3:45:00 PM 25.97 78.746 0.256 7.55 11.03 9.51
6/29/2021 4:00:00 PM 26.08 78.944 0.256 7.54 10.82 9.56
6/29/2021 4:15:00 PM 25.91 78.638 0.256 7.52 9.92 9.33
6/29/2021 4:30:00 PM 25.79 78.422 0.256 7.51 10.23 9.21
6/29/2021 4:45:00 PM 25.8 78.44 0.256 7.5 10.09 9.22
6/29/2021 5:00:00 PM 25.64 78.152 0.256 7.49 10.26 9.16
6/29/2021 5:15:00 PM 25.52 77.936 0.256 7.48 10.56 9.14
6/29/2021 5:30:00 PM 25.43 77.774 0.256 7.48 10.13 9.14
6/29/2021 5:45:00 PM 25.25 77.45 0.256 7.47 11.33 9.07
6/29/2021 6:00:00 PM 25.05 77.09 0.256 7.45 10.61 8.97
6/29/2021 6:15:00 PM 24.88 76.784 0.256 7.44 10.94 8.9
6/29/2021 6:30:00 PM 24.77 76.586 0.256 7.44 11.36 8.88
6/29/2021 6:45:00 PM 24.59 76.262 0.256 7.42 11.24 8.75
6/29/2021 7:00:00 PM 24.4 75.92 0.257 7.4 11.01 8.59
6/29/2021 7:15:00 PM 24.22 75.596 0.257 7.38 10.17 8.46
6/29/2021 7:30:00 PM 24.11 75.398 0.256 7.37 11.58 8.41
6/29/2021 7:45:00 PM 24 75.2 0.256 7.37 10.7 8.43
6/29/2021 8:00:00 PM 23.84 74.912 0.257 7.35 10.86 8.3
6/29/2021 8:15:00 PM 23.71 74.67799 0.257 7.33 9.72 8.19
6/29/2021 8:30:00 PM 23.54 74.372 0.257 7.33 12.12 8.08
6/29/2021 8:45:00 PM 23.38 74.084 0.258 7.31 11.07 7.95
6/29/2021 9:00:00 PM 23.23 73.814 0.258 7.29 11.28 7.84
6/29/2021 9:15:00 PM 23.1 73.58 0.258 7.27 11.79 7.76
6/29/2021 9:30:00 PM 22.96 73.328 0.257 7.27 12.23 7.69
6/29/2021 9:45:00 PM 22.83 73.094 0.257 7.26 13.32 7.63
6/29/2021 10:00:00 PM 22.72 72.896 0.257 7.25 11.94 7.59
6/29/2021 10:15:00 PM 22.61 72.698 0.257 7.24 13 7.55
6/29/2021 10:30:00 PM 22.51 72.518 0.257 7.23 12.41 7.52
6/29/2021 10:45:00 PM 22.41 72.338 0.258 7.23 12.02 7.5
6/29/2021 11:00:00 PM 22.32 72.176 0.257 7.22 12.95 7.49
6/29/2021 11:15:00 PM 22.24 72.032 0.257 7.22 12.89 7.47
6/29/2021 11:30:00 PM 22.16 71.888 0.258 7.22 14.45 7.47
6/29/2021 11:45:00 PM 22.07 71.726 0.258 7.21 13.32 7.46
6/30/2021 12:00:00 AM 21.99 71.582 0.257 7.21 12.38 7.46
6/30/2021 12:15:00 AM 21.92 71.456 0.257 7.21 13.24 7.46
6/30/2021 12:30:00 AM 21.84 71.312 0.258 7.21 12.71 7.46
6/30/2021 12:45:00 AM 21.78 71.204 0.258 7.2 13.01 7.46
6/30/2021 1:00:00 AM 21.71 71.078 0.258 7.2 14.02 7.46
6/30/2021 1:15:00 AM 21.64 70.952 0.258 7.2 12.68 7.47
6/30/2021 1:30:00 AM 21.58 70.844 0.258 7.2 18.04 7.45
6/30/2021 1:45:00 AM 21.52 70.736 0.258 7.19 13.29 7.47
6/30/2021 2:00:00 AM 21.45 70.61 0.258 7.19 12.35 7.48
6/30/2021 2:15:00 AM 21.39 70.502 0.258 7.19 13.25 7.48
6/30/2021 2:30:00 AM 21.32 70.376 0.258 7.19 13.5 7.49
6/30/2021 2:45:00 AM 21.26 70.268 0.258 7.19 12.15 7.49
6/30/2021 3:00:00 AM 21.19 70.142 0.258 7.19 13.73 7.49
6/30/2021 3:15:00 AM 21.13 70.034 0.258 7.19 12.29 7.49
6/30/2021 3:30:00 AM 21.06 69.908 0.258 7.19 13.35 7.49
6/30/2021 3:45:00 AM 21 69.8 0.259 7.19 13.34 7.5
6/30/2021 4:00:00 AM 20.94 69.692 0.258 7.18 15.94 7.52
6/30/2021 4:15:00 AM 20.88 69.584 0.259 7.18 14.22 7.51
6/30/2021 4:30:00 AM 20.81 69.458 0.259 7.18 14.14 7.53
6/30/2021 4:45:00 AM 20.75 69.35 0.259 7.18 13.43 7.54
6/30/2021 5:00:00 AM 20.7 69.26 0.259 7.18 15.35 7.55
6/30/2021 5:15:00 AM 20.64 69.152 0.259 7.18 16.31 7.55
6/30/2021 5:30:00 AM 20.59 69.062 0.259 7.18 16.63 7.55
6/30/2021 5:45:00 AM 20.53 68.954 0.259 7.17 14.05 7.56
6/30/2021 6:00:00 AM 20.49 68.882 0.259 7.18 15.19 7.59
6/30/2021 6:15:00 AM 20.44 68.792 0.259 7.17 16.81 7.62
6/30/2021 6:30:00 AM 20.41 68.738 0.259 7.19 14.93 7.68
6/30/2021 6:45:00 AM 20.4 68.72 0.258 7.19 14.4 7.75
6/30/2021 7:00:00 AM 20.4 68.72 0.258 7.2 15.12 7.85
6/30/2021 7:15:00 AM 20.41 68.738 0.258 7.21 16.05 7.94
6/30/2021 7:30:00 AM 20.44 68.792 0.258 7.22 13.44 8.05
6/30/2021 7:45:00 AM 20.49 68.882 0.258 7.23 14.15 8.17
6/30/2021 8:00:00 AM 20.58 69.044 0.258 7.24 13.59 8.29
6/30/2021 8:15:00 AM 20.69 69.242 0.258 7.25 12.18 8.4
6/30/2021 8:30:00 AM 20.8 69.44 0.258 7.27 12.56 8.5
6/30/2021 8:45:00 AM 20.93 69.674 0.258 7.28 11.92 8.62
6/30/2021 9:00:00 AM 21.09 69.962 0.258 7.3 13.03 8.72
6/30/2021 9:15:00 AM 21.27 70.286 0.258 7.31 12.94 8.82
6/30/2021 9:30:00 AM 21.45 70.61 0.258 7.33 13.31 8.9
6/30/2021 9:45:00 AM 21.66 70.988 0.258 7.34 16.4 8.99
6/30/2021 10:00:00 AM 21.88 71.384 0.258 7.36 12.32 9.06
6/30/2021 10:15:00 AM 22.14 71.852 0.258 7.37 11.79 9.17
6/30/2021 10:30:00 AM 22.31 72.158 0.258 7.38 12.64 9.2
6/30/2021 10:45:00 AM 22.59 72.662 0.258 7.4 10.91 9.25
6/30/2021 11:00:00 AM 22.85 73.13 0.258 7.41 10.47 9.34
6/30/2021 11:15:00 AM 23.14 73.652 0.259 7.43 11.13 9.39
6/30/2021 11:30:00 AM 23.43 74.174 0.259 7.44 10.88 9.45
6/30/2021 11:45:00 AM 23.68 74.624 0.259 7.46 11.78 9.48
6/30/2021 12:00:00 PM 23.82 74.876 0.259 7.47 11.38 9.43
6/30/2021 12:15:00 PM 23.98 75.164 0.259 7.47 11.77 9.43
6/30/2021 12:30:00 PM 24.21 75.578 0.259 7.48 10.77 9.46
6/30/2021 12:45:00 PM 24.31 75.758 0.259 7.48 10.74 9.47
6/30/2021 1:00:00 PM 24.6 76.28 0.259 7.51 11.2 9.54
6/30/2021 1:15:00 PM 24.81 76.658 0.259 7.52 10.59 9.55
6/30/2021 1:30:00 PM 24.9 76.82 0.259 7.53 10.67 9.53
6/30/2021 1:45:00 PM 24.89 76.802 0.258 7.51 10.62 9.4
6/30/2021 2:00:00 PM 24.81 76.658 0.258 7.5 10.97 9.28
6/30/2021 2:15:00 PM 24.62 76.316 0.258 7.49 10.99 9.11
6/30/2021 2:30:00 PM 24.42 75.956 0.259 7.46 11.35 8.89
6/30/2021 2:45:00 PM 24.14 75.452 0.257 7.44 11.37 8.63
6/30/2021 3:00:00 PM 23.97 75.146 0.257 7.4 13.67 8.5
6/30/2021 3:15:00 PM 23.88 74.984 0.26 7.39 16.54 8.29
6/30/2021 3:30:00 PM 23.51 74.318 0.258 7.38 15.16 8.17
6/30/2021 3:45:00 PM 23.11 73.598 0.259 7.36 17.81 8.08
6/30/2021 4:00:00 PM 23.04 73.472 0.251 7.36 22.81 7.94
6/30/2021 4:15:00 PM 22.78 73.004 0.255 7.32 19.17 7.84
6/30/2021 4:30:00 PM 22.44 72.392 0.263 7.31 25.18 7.8
6/30/2021 4:45:00 PM 22.29 72.122 0.26 7.28 20.61 7.74
6/30/2021 5:00:00 PM 22.25 72.05 0.252 7.28 20.09 7.74
6/30/2021 5:15:00 PM 22.23 72.014 0.249 7.27 17.83 7.81
6/30/2021 5:30:00 PM 22.22 71.996 0.247 7.27 18.54 7.86
6/30/2021 5:45:00 PM 22.2 71.96 0.189 7.28 58.38 7.99
6/30/2021 6:00:00 PM 22.15 71.87 0.249 7.28 20.45 8.03
6/30/2021 6:15:00 PM 22.08 71.744 0.25 7.28 17.86 7.99
6/30/2021 6:30:00 PM 22.03 71.654 0.251 7.28 19.86 8
6/30/2021 6:45:00 PM 21.97 71.546 0.253 7.28 19.47 7.99
6/30/2021 7:00:00 PM 21.91 71.438 0.255 7.27 18.98 7.96
6/30/2021 7:15:00 PM 21.85 71.33 0.256 7.27 19.34 7.98
6/30/2021 7:30:00 PM 21.77 71.186 0.257 7.28 15.91 7.97
6/30/2021 7:45:00 PM 21.7 71.06 0.258 7.27 17.08 7.97
6/30/2021 8:00:00 PM 21.62 70.916 0.259 7.27 15.39 7.95
6/30/2021 8:15:00 PM 21.52 70.736 0.26 7.25 14.3 7.9
6/30/2021 8:30:00 PM 21.42 70.556 0.261 7.25 15.01 7.85
6/30/2021 8:45:00 PM 21.33 70.394 0.261 7.25 15.19 7.8
6/30/2021 9:00:00 PM 21.25 70.25 0.261 7.24 15.11 7.77
6/30/2021 9:15:00 PM 21.17 70.106 0.261 7.24 15.69 7.73
6/30/2021 9:30:00 PM 21.1 69.98 0.261 7.23 16.04 7.69
6/30/2021 9:45:00 PM 21.04 69.872 0.26 7.23 15.56 7.65
6/30/2021 10:00:00 PM 20.99 69.782 0.26 7.22 16.23 7.63
6/30/2021 10:15:00 PM 20.91 69.638 0.262 7.22 15.71 7.63
6/30/2021 10:30:00 PM 20.78 69.404 0.266 7.22 16.81 7.63
6/30/2021 10:45:00 PM 20.69 69.242 0.268 7.21 13.05 7.64
6/30/2021 11:00:00 PM 20.65 69.17 0.268 7.21 15.48 7.63
6/30/2021 11:15:00 PM 20.63 69.134 0.267 7.21 16.33 7.61
6/30/2021 11:30:00 PM 20.63 69.134 0.266 7.21 14.67 7.6
6/30/2021 11:45:00 PM 20.63 69.134 0.265 7.21 15.92 7.6
7/1/2021 12:00:00 AM 20.64 69.152 0.264 7.21 16.22 7.6
7/1/2021 12:15:00 AM 20.64 69.152 0.263 7.21 16.99 7.6
7/1/2021 12:30:00 AM 20.65 69.17 0.262 7.21 16.36 7.59
7/1/2021 12:45:00 AM 20.65 69.17 0.261 7.21 16.05 7.58
7/1/2021 1:00:00 AM 20.64 69.152 0.261 7.22 15.81 7.59
7/1/2021 1:15:00 AM 20.62 69.116 0.26 7.21 15.31 7.58
7/1/2021 1:30:00 AM 20.59 69.062 0.26 7.22 13.24 7.58
7/1/2021 1:45:00 AM 20.58 69.044 0.26 7.22 15.98 7.59
7/1/2021 2:00:00 AM 20.55 68.99 0.26 7.21 14.89 7.59
7/1/2021 2:15:00 AM 20.54 68.972 0.26 7.21 18.84 7.58
7/1/2021 2:30:00 AM 20.53 68.954 0.259 7.21 18.62 7.57
7/1/2021 2:45:00 AM 20.51 68.918 0.26 7.21 15.24 7.58
7/1/2021 3:00:00 AM 20.5 68.9 0.26 7.21 15.46 7.58
7/1/2021 3:15:00 AM 20.48 68.864 0.259 7.21 14.85 7.57
7/1/2021 3:30:00 AM 20.46 68.828 0.259 7.21 14.57 7.58
7/1/2021 3:45:00 AM 20.45 68.81 0.259 7.21 17.42 7.58
7/1/2021 4:00:00 AM 20.43 68.774 0.259 7.21 14.71 7.58
7/1/2021 4:15:00 AM 20.41 68.738 0.259 7.21 15.96 7.58
7/1/2021 4:30:00 AM 20.39 68.702 0.258 7.21 15.76 7.57
7/1/2021 4:45:00 AM 20.37 68.666 0.256 7.21 17.51 7.61
7/1/2021 5:00:00 AM 20.42 68.756 0.247 7.21 18.51 7.61
7/1/2021 5:15:00 AM 20.35 68.63 0.254 7.21 18.27 7.61
7/1/2021 5:30:00 AM 20.19 68.342 0.262 7.21 14.25 7.65
7/1/2021 5:45:00 AM 20.12 68.216 0.262 7.2 18.56 7.63
7/1/2021 6:00:00 AM 20.15 68.27 0.256 7.19 17.15 7.64
7/1/2021 6:15:00 AM 20.23 68.414 0.246 7.19 19.36 7.64
7/1/2021 6:30:00 AM 20.24 68.432 0.245 7.19 18 7.65
7/1/2021 6:45:00 AM 20.14 68.252 0.25 7.2 16.31 7.67
7/1/2021 7:00:00 AM 20.07 68.126 0.252 7.2 15.37 7.73
7/1/2021 7:15:00 AM 20.06 68.108 0.249 7.19 17.15 7.75
7/1/2021 7:30:00 AM 20.07 68.126 0.248 7.19 18.49 7.75
7/1/2021 7:45:00 AM 20.07 68.126 0.247 7.2 18.29 7.79
7/1/2021 8:00:00 AM 20.08 68.144 0.246 7.21 15.93 7.79
7/1/2021 8:15:00 AM 20.07 68.126 0.246 7.21 17.88 7.81
7/1/2021 8:30:00 AM 20.04 68.07201 0.248 7.21 19.66 7.87
7/1/2021 8:45:00 AM 20.02 68.036 0.25 7.22 18.51 7.93
7/1/2021 9:00:00 AM 20.03 68.054 0.251 7.23 23.27 7.99
7/1/2021 9:15:00 AM 20.05 68.09 0.25 7.23 18.39 8.05
7/1/2021 9:30:00 AM 20.11 68.198 0.251 7.25 14.57 8.21
7/1/2021 9:45:00 AM 20.09 68.162 0.253 7.25 18.51 8.22
7/1/2021 10:00:00 AM 20.06 68.108 0.254 7.26 16.06 8.21
7/1/2021 10:15:00 AM 20.06 68.108 0.255 7.27 15.08 8.26
7/1/2021 10:30:00 AM 20.12 68.216 0.255 7.28 16.43 8.42
7/1/2021 10:45:00 AM 20.15 68.27 0.256 7.3 27.08 8.48
7/1/2021 11:00:00 AM 20.18 68.324 0.256 7.31 19.52 8.53
7/1/2021 11:15:00 AM 20.2 68.36 0.259 7.32 14.48 8.61
7/1/2021 11:30:00 AM 20.19 68.342 0.262 7.33 19.01 8.69
7/1/2021 11:45:00 AM 20.18 68.324 0.264 7.34 17.18 8.74
7/1/2021 12:00:00 PM 20.19 68.342 0.264 7.35 19.04 8.75
7/1/2021 12:15:00 PM 20.19 68.342 0.262 7.36 18.38 8.71
7/1/2021 12:30:00 PM 20.28 68.504 0.259 7.37 17.51 8.8
7/1/2021 12:45:00 PM 20.37 68.666 0.257 7.38 17.89 8.84
7/1/2021 1:00:00 PM 20.36 68.648 0.254 7.37 106.67 8.73
7/1/2021 1:15:00 PM 20.36 68.648 0.252 7.37 17.08 8.69
7/1/2021 1:30:00 PM 20.38 68.684 0.248 7.38 18.87 8.64
7/1/2021 1:45:00 PM 20.41 68.738 0.247 7.39 18.24 8.72
7/1/2021 2:00:00 PM 20.48 68.864 0.249 7.39 15.89 8.84
7/1/2021 2:15:00 PM 20.51 68.918 0.249 7.4 16.61 8.85
7/1/2021 2:30:00 PM 20.59 69.062 0.247 7.4 17.91 8.87
7/1/2021 2:45:00 PM 20.67 69.206 0.245 7.41 16.38 8.88
7/1/2021 3:00:00 PM 20.71 69.278 0.245 7.42 16.55 8.9
7/1/2021 3:15:00 PM 20.71 69.278 0.245 7.42 17.96 8.89
7/1/2021 3:30:00 PM 20.73 69.314 0.245 7.43 16.71 8.91
7/1/2021 3:45:00 PM 20.78 69.404 0.245 7.44 12.45 8.97
7/1/2021 4:00:00 PM 20.75 69.35 0.245 7.44 17.32 8.92
7/1/2021 4:15:00 PM 20.75 69.35 0.245 7.44 16 8.91
7/1/2021 4:30:00 PM 20.74 69.332 0.245 7.44 16.63 8.89
7/1/2021 4:45:00 PM 20.72 69.296 0.244 7.45 15.52 8.86
7/1/2021 5:00:00 PM 20.65 69.17 0.244 7.44 16.67 8.79
7/1/2021 5:15:00 PM 20.6 69.08 0.244 7.43 15.54 8.74
7/1/2021 5:30:00 PM 20.54 68.972 0.244 7.42 16.62 8.66
7/1/2021 5:45:00 PM 20.46 68.828 0.244 7.41 18.03 8.59
7/1/2021 6:00:00 PM 20.41 68.738 0.243 7.41 16.75 8.55
7/1/2021 6:15:00 PM 20.29 68.522 0.243 7.39 17.91 8.42
7/1/2021 6:30:00 PM 20.19 68.342 0.242 7.38 16.94 8.36
7/1/2021 6:45:00 PM 20.11 68.198 0.241 7.37 17.57 8.31
7/1/2021 7:00:00 PM 20.03 68.054 0.239 7.37 18.64 8.27
7/1/2021 7:15:00 PM 19.95 67.91 0.239 7.36 17.98 8.24
7/1/2021 7:30:00 PM 19.86 67.748 0.24 7.35 16.8 8.21
7/1/2021 7:45:00 PM 19.8 67.64 0.239 7.34 17.07 8.2
7/1/2021 8:00:00 PM 19.76 67.568 0.238 7.33 15.74 8.17
7/1/2021 8:15:00 PM 19.71 67.478 0.237 7.33 18.06 8.15
7/1/2021 8:30:00 PM 19.68 67.424 0.235 7.32 19.27 8.13
7/1/2021 8:45:00 PM 19.63 67.334 0.235 7.32 16.52 8.11
7/1/2021 9:00:00 PM 19.57 67.226 0.234 7.32 18.45 8.09
7/1/2021 9:15:00 PM 19.53 67.154 0.234 7.31 19.3 8.08
7/1/2021 9:30:00 PM 19.48 67.064 0.234 7.31 17.35 8.06
7/1/2021 9:45:00 PM 19.43 66.974 0.234 7.31 21.05 8.05
7/1/2021 10:00:00 PM 19.38 66.884 0.234 7.31 22.01 8.04
7/1/2021 10:15:00 PM 19.33 66.794 0.234 7.31 18.25 8.04
7/1/2021 10:30:00 PM 19.3 66.74 0.233 7.3 17.41 8.04
7/1/2021 10:45:00 PM 19.25 66.65 0.233 7.3 20.86 8.02
7/1/2021 11:00:00 PM 19.2 66.56 0.233 7.3 18.13 8.04
7/1/2021 11:15:00 PM 19.17 66.506 0.233 7.3 22.24 8.03
7/1/2021 11:30:00 PM 19.14 66.452 0.233 7.3 19.5 8.05
7/1/2021 11:45:00 PM 19.11 66.398 0.232 7.3 19.23 8.05
7/2/2021 12:00:00 AM 19.09 66.362 0.232 7.3 18.8 8.05
7/2/2021 12:15:00 AM 19.05 66.29 0.232 7.29 19.87 8.05
7/2/2021 12:30:00 AM 19.02 66.236 0.232 7.3 19.35 8.06
7/2/2021 12:45:00 AM 18.98 66.164 0.232 7.29 18.96 8.06
7/2/2021 1:00:00 AM 18.96 66.128 0.231 7.29 21.06 8.06
7/2/2021 1:15:00 AM 18.93 66.074 0.232 7.29 18.54 8.05
7/2/2021 1:30:00 AM 18.9 66.02 0.231 7.29 17.68 8.04
7/2/2021 1:45:00 AM 18.86 65.948 0.232 7.29 21.77 8.06
7/2/2021 2:00:00 AM 18.8 65.84 0.233 7.29 20.56 8.07
7/2/2021 2:15:00 AM 18.75 65.75 0.234 7.29 19.97 8.08
7/2/2021 2:30:00 AM 18.7 65.66 0.234 7.29 19.92 8.08
7/2/2021 2:45:00 AM 18.66 65.588 0.234 7.29 19.28 8.09
7/2/2021 3:00:00 AM 18.61 65.498 0.234 7.29 19.54 8.09
7/2/2021 3:15:00 AM 18.56 65.408 0.234 7.29 20 8.11
7/2/2021 3:30:00 AM 18.51 65.318 0.234 7.29 20.11 8.12
7/2/2021 3:45:00 AM 18.49 65.282 0.233 7.29 24.13 8.11
7/2/2021 4:00:00 AM 18.47 65.246 0.233 7.29 19.8 8.12
7/2/2021 4:15:00 AM 18.45 65.21 0.233 7.29 17.36 8.13
7/2/2021 4:30:00 AM 18.42 65.156 0.233 7.29 18.96 8.13
7/2/2021 4:45:00 AM 18.41 65.138 0.233 7.29 17.45 8.13
7/2/2021 5:00:00 AM 18.39 65.102 0.233 7.29 18.59 8.14
7/2/2021 5:15:00 AM 18.37 65.066 0.234 7.29 19.01 8.14
7/2/2021 5:30:00 AM 18.34 65.012 0.234 7.29 16.54 8.14
7/2/2021 5:45:00 AM 18.32 64.976 0.234 7.29 19.29 8.14
7/2/2021 6:00:00 AM 18.29 64.922 0.235 7.29 18.07 8.15
7/2/2021 6:15:00 AM 18.27 64.886 0.235 7.28 19.5 8.16
7/2/2021 6:30:00 AM 18.23 64.814 0.236 7.29 17.94 8.17
7/2/2021 6:45:00 AM 18.2 64.76 0.237 7.28 18.34 8.19
7/2/2021 7:00:00 AM 18.17 64.706 0.237 7.29 18.75 8.22
7/2/2021 7:15:00 AM 18.14 64.652 0.237 7.29 19.25 8.24
7/2/2021 7:30:00 AM 18.11 64.598 0.238 7.29 17.98 8.28
7/2/2021 7:45:00 AM 18.09 64.562 0.238 7.3 16.82 8.35
7/2/2021 8:00:00 AM 18.11 64.598 0.239 7.31 16.58 8.46
7/2/2021 8:15:00 AM 18.14 64.652 0.239 7.32 15.87 8.56
7/2/2021 8:30:00 AM 18.18 64.724 0.239 7.32 16.46 8.62
7/2/2021 8:45:00 AM 18.17 64.706 0.239 7.33 17.39 8.64
7/2/2021 9:00:00 AM 18.37 65.066 0.239 7.35 16.02 8.82
7/2/2021 9:15:00 AM 18.43 65.174 0.24 7.36 15.37 8.89
7/2/2021 9:30:00 AM 18.67 65.606 0.24 7.38 16.37 9.05
7/2/2021 9:45:00 AM 18.66 65.588 0.241 7.38 13.79 9.03
7/2/2021 10:00:00 AM 18.71 65.67799 0.241 7.4 14.93 9.06
7/2/2021 10:15:00 AM 18.94 66.092 0.241 7.41 14.33 9.17
7/2/2021 10:30:00 AM 19.14 66.452 0.241 7.42 13.12 9.26
7/2/2021 10:45:00 AM 19.41 66.938 0.241 7.44 10.44 9.35
7/2/2021 11:00:00 AM 19.61 67.298 0.242 7.45 13.85 9.4
7/2/2021 11:15:00 AM 19.79 67.622 0.242 7.47 14.28 9.41
7/2/2021 11:30:00 AM 19.81 67.658 0.243 7.46 13.96 9.38
7/2/2021 11:45:00 AM 19.91 67.838 0.242 7.48 12.98 9.44
7/2/2021 12:00:00 PM 20.08 68.144 0.242 7.49 14.82 9.49
7/2/2021 12:15:00 PM 20.09 68.162 0.243 7.49 14.09 9.48
7/2/2021 12:30:00 PM 20.05 68.09 0.244 7.49 14.44 9.43
7/2/2021 12:45:00 PM 20.38 68.684 0.243 7.5 14.16 9.52
7/2/2021 1:00:00 PM 20.36 68.648 0.243 7.5 16.29 9.53
7/2/2021 1:15:00 PM 20.58 69.044 0.244 7.51 15.68 9.59
7/2/2021 1:30:00 PM 20.61 69.098 0.244 7.52 12.7 9.57
7/2/2021 1:45:00 PM 20.41 68.738 0.244 7.5 14.23 9.47
7/2/2021 2:00:00 PM 20.6 69.08 0.244 7.52 15.05 9.55
7/2/2021 2:15:00 PM 20.72 69.296 0.245 7.53 13.71 9.6
7/2/2021 2:30:00 PM 20.83 69.494 0.245 7.54 18.8 9.61
7/2/2021 2:45:00 PM 21.06 69.908 0.245 7.55 14.51 9.65
7/2/2021 3:00:00 PM 20.98 69.764 0.245 7.54 13.18 9.6
7/2/2021 3:15:00 PM 20.53 68.954 0.243 7.53 16.27 9.36
7/2/2021 3:30:00 PM 20.42 68.756 0.24 7.5 20.18 9.17
7/2/2021 3:45:00 PM 20.39 68.702 0.241 7.49 17.69 9.09
7/2/2021 4:00:00 PM 20.61 69.098 0.246 7.49 12.85 9.28
7/2/2021 4:15:00 PM 20.68 69.224 0.249 7.5 15.19 9.35
7/2/2021 4:30:00 PM 20.53 68.954 0.248 7.48 16.82 9.23
7/2/2021 4:45:00 PM 20.53 68.954 0.246 7.47 16.04 9.2
7/2/2021 5:00:00 PM 20.37 68.666 0.243 7.46 17.02 9.05
7/2/2021 5:15:00 PM 20.37 68.666 0.231 7.47 32 8.94
7/2/2021 5:30:00 PM 20.24 68.432 0.237 7.46 20.91 8.94
7/2/2021 5:45:00 PM 19.96 67.92799 0.248 7.45 18.33 8.98
7/2/2021 6:00:00 PM 19.85 67.73 0.246 7.44 21.07 8.94
7/2/2021 6:15:00 PM 19.84 67.712 0.241 7.43 16.15 8.96
7/2/2021 6:30:00 PM 19.74 67.532 0.24 7.41 18.34 8.84
7/2/2021 6:45:00 PM 19.65 67.37 0.24 7.41 19.85 8.85
7/2/2021 7:00:00 PM 19.52 67.136 0.242 7.39 19.14 8.79
7/2/2021 7:15:00 PM 19.42 66.956 0.243 7.39 16.52 8.75
7/2/2021 7:30:00 PM 19.33 66.794 0.246 7.38 19.48 8.72
7/2/2021 7:45:00 PM 19.19 66.542 0.25 7.38 18.38 8.7
7/2/2021 8:00:00 PM 19.02 66.236 0.253 7.38 16.39 8.66
7/2/2021 8:15:00 PM 18.86 65.948 0.254 7.38 19.05 8.62
7/2/2021 8:30:00 PM 18.73 65.714 0.253 7.37 20.24 8.58
7/2/2021 8:45:00 PM 18.68 65.624 0.244 7.36 18.92 8.53
7/2/2021 9:00:00 PM 18.6 65.48 0.235 7.36 22.41 8.48
7/2/2021 9:15:00 PM 18.37 65.066 0.239 7.34 19.96 8.5
7/2/2021 9:30:00 PM 18.17 64.706 0.245 7.33 25.81 8.48
7/2/2021 9:45:00 PM 18.03 64.454 0.239 7.32 30.35 8.48
7/2/2021 10:00:00 PM 17.94 64.292 0.233 7.32 55.3 8.48
7/2/2021 10:15:00 PM 17.83 64.094 0.233 7.32 97.51 8.48
7/2/2021 10:30:00 PM 17.75 63.95 0.237 7.32 64.66 8.47
7/2/2021 10:45:00 PM 17.69 63.842 0.24 7.31 53.37 8.46
7/2/2021 11:00:00 PM 17.65 63.77 0.239 7.32 46.74 8.44
7/2/2021 11:15:00 PM 17.61 63.698 0.237 7.31 49.45 8.41
7/2/2021 11:30:00 PM 17.56 63.608 0.235 7.31 53.39 8.4
7/2/2021 11:45:00 PM 17.52 63.536 0.235 7.3 41.62 8.39
7/3/2021 12:00:00 AM 17.45 63.41 0.235 7.3 40.51 8.4
7/3/2021 12:15:00 AM 17.38 63.284 0.235 7.3 37.54 8.4
7/3/2021 12:30:00 AM 17.31 63.158 0.236 7.3 26.05 8.39
7/3/2021 12:45:00 AM 17.25 63.05 0.236 7.3 26.6 8.4
7/3/2021 1:00:00 AM 17.17 62.906 0.237 7.3 25.61 8.42
7/3/2021 1:15:00 AM 17.12 62.816 0.237 7.3 25.83 8.41
7/3/2021 1:30:00 AM 17.07 62.726 0.238 7.3 23.9 8.42
7/3/2021 1:45:00 AM 17.03 62.654 0.238 7.3 26.97 8.43
7/3/2021 2:00:00 AM 17 62.6 0.237 7.3 23.28 8.43
7/3/2021 2:15:00 AM 16.97 62.546 0.237 7.29 23.07 8.44
7/3/2021 2:30:00 AM 16.94 62.492 0.237 7.29 22.56 8.44
7/3/2021 2:45:00 AM 16.9 62.42 0.237 7.3 24.71 8.44
7/3/2021 3:00:00 AM 16.89 62.402 0.237 7.3 18.75 8.44
7/3/2021 3:15:00 AM 16.88 62.384 0.238 7.29 20.65 8.44
7/3/2021 3:30:00 AM 16.89 62.402 0.238 7.29 23.25 8.42
7/3/2021 3:45:00 AM 16.88 62.384 0.238 7.29 22.48 8.43
7/3/2021 4:00:00 AM 16.86 62.348 0.238 7.29 19.82 8.43
7/3/2021 4:15:00 AM 16.84 62.312 0.238 7.29 21.94 8.43
7/3/2021 4:30:00 AM 16.82 62.276 0.238 7.29 29.82 8.43
7/3/2021 4:45:00 AM 16.8 62.24 0.238 7.29 20.71 8.43
7/3/2021 5:00:00 AM 16.77 62.186 0.239 7.29 21.57 8.44
7/3/2021 5:15:00 AM 16.75 62.15 0.239 7.29 26.75 8.42
7/3/2021 5:30:00 AM 16.73 62.114 0.239 7.28 79.29 8.44
7/3/2021 5:45:00 AM 16.7 62.06 0.24 7.28 19.88 8.44
7/3/2021 6:00:00 AM 16.67 62.006 0.24 7.29 21.49 8.46
7/3/2021 6:15:00 AM 16.63 61.934 0.241 7.28 20.61 8.47
7/3/2021 6:30:00 AM 16.6 61.88 0.242 7.29 17.45 8.48
7/3/2021 6:45:00 AM 16.58 61.844 0.242 7.29 19 8.52
7/3/2021 7:00:00 AM 16.55 61.79 0.243 7.29 18.23 8.54
7/3/2021 7:15:00 AM 16.53 61.754 0.243 7.29 19.08 8.58
7/3/2021 7:30:00 AM 16.5 61.7 0.244 7.3 18.42 8.62
7/3/2021 7:45:00 AM 16.48 61.664 0.244 7.3 16.48 8.66
7/3/2021 8:00:00 AM 16.48 61.664 0.244 7.3 19.31 8.76
7/3/2021 8:15:00 AM 16.49 61.682 0.244 7.31 18.79 8.82
7/3/2021 8:30:00 AM 16.51 61.718 0.245 7.32 17.49 8.88
7/3/2021 8:45:00 AM 16.55 61.79 0.245 7.33 19.54 8.98
7/3/2021 9:00:00 AM 16.65 61.97 0.245 7.34 12.83 9.11
7/3/2021 9:15:00 AM 16.74 62.132 0.245 7.35 18.56 9.21
7/3/2021 9:30:00 AM 16.81 62.258 0.245 7.36 18.26 9.28
7/3/2021 9:45:00 AM 16.87 62.366 0.245 7.36 134.07 9.34
7/3/2021 10:00:00 AM 16.93 62.474 0.245 7.37 49.06 9.38
7/3/2021 10:15:00 AM 17.06 62.708 0.244 7.38 12.85 9.49
7/3/2021 10:30:00 AM 17.36 63.248 0.244 7.4 14.99 9.56
7/3/2021 10:45:00 AM 17.38 63.284 0.245 7.4 17.87 9.55
7/3/2021 11:00:00 AM 17.54 63.572 0.245 7.41 15.7 9.62
7/3/2021 11:15:00 AM 17.75 63.95 0.245 7.42 12.74 9.7
7/3/2021 11:30:00 AM 17.88 64.184 0.245 7.43 17.2 9.74
7/3/2021 11:45:00 AM 18.08 64.544 0.245 7.44 11.83 9.78
7/3/2021 12:00:00 PM 18.17 64.706 0.245 7.45 18.34 9.81
7/3/2021 12:15:00 PM 18.51 65.318 0.245 7.46 17.96 9.87
7/3/2021 12:30:00 PM 18.59 65.462 0.245 7.46 17.99 9.82
7/3/2021 12:45:00 PM 18.73 65.714 0.245 7.46 17.5 9.83
7/3/2021 1:00:00 PM 18.77 65.786 0.245 7.47 15.49 9.83
7/3/2021 1:15:00 PM 18.85 65.93 0.245 7.48 16.36 9.84
7/3/2021 1:30:00 PM 18.95 66.11 0.245 7.48 15.82 9.84
7/3/2021 1:45:00 PM 19.19 66.542 0.245 7.49 14.59 9.9
7/3/2021 2:00:00 PM 19.41 66.938 0.245 7.51 17.44 9.94
7/3/2021 2:15:00 PM 19.57 67.226 0.245 7.51 17.8 9.95
7/3/2021 2:30:00 PM 19.72 67.496 0.245 7.52 14.45 9.91
7/3/2021 2:45:00 PM 19.73 67.514 0.245 7.52 15.42 9.89
7/3/2021 3:00:00 PM 19.82 67.676 0.245 7.52 13.74 9.89
7/3/2021 3:15:00 PM 19.97 67.946 0.245 7.53 15.31 9.86
7/3/2021 3:30:00 PM 19.9 67.82 0.245 7.52 14.37 9.8
7/3/2021 3:45:00 PM 19.89 67.802 0.245 7.52 13.61 9.76
7/3/2021 4:00:00 PM 19.81 67.658 0.245 7.52 18.39 9.74
7/3/2021 4:15:00 PM 19.93 67.874 0.245 7.52 15.42 9.77
7/3/2021 4:30:00 PM 19.94 67.892 0.245 7.53 13.29 9.77
7/3/2021 4:45:00 PM 19.83 67.694 0.245 7.52 14.09 9.67
7/3/2021 5:00:00 PM 19.85 67.73 0.245 7.51 15.47 9.64
7/3/2021 5:15:00 PM 19.8 67.64 0.245 7.5 14.97 9.57
7/3/2021 5:30:00 PM 19.81 67.658 0.246 7.5 14.41 9.59
7/3/2021 5:45:00 PM 19.65 67.37 0.245 7.49 13.42 9.49
7/3/2021 6:00:00 PM 19.59 67.262 0.246 7.49 11.11 9.47
7/3/2021 6:15:00 PM 19.45 67.01 0.246 7.48 15.85 9.4
7/3/2021 6:30:00 PM 19.32 66.776 0.246 7.46 16.59 9.35
7/3/2021 6:45:00 PM 19.21 66.578 0.246 7.46 16.51 9.32
7/3/2021 7:00:00 PM 19.06 66.308 0.246 7.45 16.05 9.26
7/3/2021 7:15:00 PM 18.9 66.02 0.246 7.43 17.58 9.17
7/3/2021 7:30:00 PM 18.71 65.67799 0.247 7.42 14.34 9.06
7/3/2021 7:45:00 PM 18.54 65.372 0.247 7.4 14.42 8.97
7/3/2021 8:00:00 PM 18.4 65.12 0.247 7.38 17.11 8.9
7/3/2021 8:15:00 PM 18.28 64.904 0.247 7.36 17.59 8.83
7/3/2021 8:30:00 PM 18.15 64.67 0.247 7.35 19.43 8.77
7/3/2021 8:45:00 PM 18.04 64.472 0.248 7.34 17.33 8.7
7/3/2021 9:00:00 PM 17.92 64.256 0.248 7.33 17.02 8.64
7/3/2021 9:15:00 PM 17.82 64.076 0.248 7.32 16.3 8.59
7/3/2021 9:30:00 PM 17.72 63.896 0.248 7.31 17.93 8.55
7/3/2021 9:45:00 PM 17.63 63.734 0.248 7.3 26.68 8.51
7/3/2021 10:00:00 PM 17.54 63.572 0.248 7.29 18.59 8.5
7/3/2021 10:15:00 PM 17.45 63.41 0.248 7.29 17.26 8.48
7/3/2021 10:30:00 PM 17.38 63.284 0.249 7.28 17.97 8.47
7/3/2021 10:45:00 PM 17.31 63.158 0.249 7.28 18.84 8.45
7/3/2021 11:00:00 PM 17.22 62.996 0.249 7.27 17.86 8.46
7/3/2021 11:15:00 PM 17.14 62.852 0.249 7.27 17 8.45
7/3/2021 11:30:00 PM 17.07 62.726 0.249 7.26 16.86 8.45
7/3/2021 11:45:00 PM 16.98 62.564 0.249 7.26 18.17 8.46
7/4/2021 12:00:00 AM 16.89 62.402 0.25 7.26 17.89 8.47
7/4/2021 12:15:00 AM 16.81 62.258 0.25 7.26 16.07 8.47
7/4/2021 12:30:00 AM 16.73 62.114 0.251 7.25 16.42 8.47
7/4/2021 12:45:00 AM 16.65 61.97 0.251 7.25 16.62 8.49
7/4/2021 1:00:00 AM 16.59 61.862 0.251 7.25 18.05 8.49
7/4/2021 1:15:00 AM 16.52 61.736 0.251 7.25 15.42 8.5
7/4/2021 1:30:00 AM 16.45 61.61 0.252 7.25 15.61 8.51
7/4/2021 1:45:00 AM 16.39 61.502 0.252 7.25 17.82 8.51
7/4/2021 2:00:00 AM 16.34 61.412 0.252 7.24 16.68 8.53
7/4/2021 2:15:00 AM 16.29 61.322 0.253 7.24 15.81 8.52
7/4/2021 2:30:00 AM 16.26 61.268 0.253 7.24 16.32 8.52
7/4/2021 2:45:00 AM 16.23 61.214 0.253 7.24 14.9 8.52
7/4/2021 3:00:00 AM 16.2 61.16 0.253 7.24 15.22 8.54
7/4/2021 3:15:00 AM 16.17 61.106 0.254 7.24 15.59 8.54
7/4/2021 3:30:00 AM 16.14 61.052 0.254 7.24 14.73 8.54
7/4/2021 3:45:00 AM 16.1 60.98 0.254 7.24 16.33 8.55
7/4/2021 4:00:00 AM 16.05 60.89 0.254 7.23 15.86 8.55
7/4/2021 4:15:00 AM 16.03 60.854 0.255 7.23 15.99 8.55
7/4/2021 4:30:00 AM 15.99 60.782 0.255 7.23 15.14 8.56
7/4/2021 4:45:00 AM 15.93 60.674 0.255 7.23 17.87 8.55
7/4/2021 5:00:00 AM 15.89 60.602 0.255 7.23 16.49 8.56
7/4/2021 5:15:00 AM 15.84 60.512 0.256 7.23 17.71 8.56
7/4/2021 5:30:00 AM 15.81 60.458 0.256 7.23 14.4 8.58
7/4/2021 5:45:00 AM 15.79 60.422 0.256 7.23 15.44 8.59
7/4/2021 6:00:00 AM 15.78 60.404 0.256 7.23 15.2 8.61
7/4/2021 6:15:00 AM 15.75 60.35 0.257 7.23 15.25 8.64
7/4/2021 6:30:00 AM 15.74 60.332 0.257 7.23 15.82 8.68
7/4/2021 6:45:00 AM 15.75 60.35 0.257 7.24 14.5 8.75
7/4/2021 7:00:00 AM 15.74 60.332 0.257 7.24 12.6 8.81
7/4/2021 7:15:00 AM 15.79 60.422 0.258 7.25 12.69 8.9
7/4/2021 7:30:00 AM 15.83 60.494 0.257 7.26 12.08 9.02
7/4/2021 7:45:00 AM 15.9 60.62 0.257 7.27 12.42 9.13
7/4/2021 8:00:00 AM 16 60.8 0.258 7.28 12.51 9.23
7/4/2021 8:15:00 AM 16.11 60.998 0.258 7.3 11.93 9.32
7/4/2021 8:30:00 AM 16.23 61.214 0.258 7.31 11.21 9.4
7/4/2021 8:45:00 AM 16.37 61.466 0.258 7.32 11.87 9.49
7/4/2021 9:00:00 AM 16.55 61.79 0.258 7.33 11.95 9.56
7/4/2021 9:15:00 AM 16.76 62.168 0.258 7.35 13.19 9.63
7/4/2021 9:30:00 AM 16.98 62.564 0.258 7.36 11.59 9.7
7/4/2021 9:45:00 AM 17.2 62.96 0.258 7.37 10.93 9.75
7/4/2021 10:00:00 AM 17.45 63.41 0.258 7.38 12.15 9.78
7/4/2021 10:15:00 AM 17.72 63.896 0.258 7.39 13.36 9.85
7/4/2021 10:30:00 AM 17.98 64.364 0.258 7.41 11.42 9.89
7/4/2021 10:45:00 AM 18.25 64.85 0.258 7.42 11.74 9.93
7/4/2021 11:00:00 AM 18.53 65.354 0.258 7.43 12.23 9.97
7/4/2021 11:15:00 AM 18.8 65.84 0.259 7.43 11.04 10.01
7/4/2021 11:30:00 AM 18.97 66.146 0.259 7.44 10.91 9.97
7/4/2021 11:45:00 AM 19.18 66.524 0.259 7.45 10.89 9.98
7/4/2021 12:00:00 PM 19.27 66.686 0.259 7.45 10.92 9.92
7/4/2021 12:15:00 PM 19.64 67.352 0.26 7.46 11.89 10
7/4/2021 12:30:00 PM 19.96 67.92799 0.26 7.48 10.81 10.05
7/4/2021 12:45:00 PM 20.19 68.342 0.26 7.49 10.28 10.06
7/4/2021 1:00:00 PM 20.39 68.702 0.261 7.49 9.93 10.06
7/4/2021 1:15:00 PM 20.51 68.918 0.261 7.5 16.21 10.04
7/4/2021 1:30:00 PM 20.57 69.026 0.261 7.51 10.6 9.98
7/4/2021 1:45:00 PM 20.34 68.612 0.261 7.49 10.83 9.84
7/4/2021 2:00:00 PM 20.58 69.044 0.261 7.5 11.53 9.93
7/4/2021 2:15:00 PM 20.76 69.368 0.261 7.51 11.75 9.97
7/4/2021 2:30:00 PM 20.73 69.314 0.262 7.51 10.44 9.96
7/4/2021 2:45:00 PM 21.12 70.016 0.262 7.53 10.02 10.06
7/4/2021 3:00:00 PM 21.24 70.232 0.262 7.53 11.79 10.04
7/4/2021 3:15:00 PM 21.24 70.232 0.262 7.53 12.84 9.96
7/4/2021 3:30:00 PM 21.43 70.574 0.262 7.54 12.67 10
7/4/2021 3:45:00 PM 21.33 70.394 0.262 7.53 25.46 9.91
7/4/2021 4:00:00 PM 21.15 70.07 0.263 7.52 13.77 9.7
7/4/2021 4:15:00 PM 21.07 69.926 0.263 7.5 12.61 9.67
7/4/2021 4:30:00 PM 21.1 69.98 0.263 7.51 15.02 9.72
7/4/2021 4:45:00 PM 21.19 70.142 0.263 7.52 14.72 9.78
7/4/2021 5:00:00 PM 21.2 70.16 0.263 7.52 11.55 9.76
7/4/2021 5:15:00 PM 21.05 69.89 0.264 7.51 12.04 9.66
7/4/2021 5:30:00 PM 21.1 69.98 0.264 7.5 13.03 9.68
7/4/2021 5:45:00 PM 21.11 69.998 0.264 7.51 12.1 9.69
7/4/2021 6:00:00 PM 20.91 69.638 0.264 7.49 13.31 9.5
7/4/2021 6:15:00 PM 20.79 69.422 0.264 7.48 14.73 9.45
7/4/2021 6:30:00 PM 20.72 69.296 0.264 7.47 10.11 9.43
7/4/2021 6:45:00 PM 20.61 69.098 0.265 7.47 10.01 9.37
7/4/2021 7:00:00 PM 20.48 68.864 0.265 7.45 9.37 9.29
7/4/2021 7:15:00 PM 20.31 68.558 0.265 7.44 9.64 9.21
7/4/2021 7:30:00 PM 20.14 68.252 0.265 7.42 11.07 9.08
7/4/2021 7:45:00 PM 19.96 67.92799 0.265 7.41 13.74 8.96
7/4/2021 8:00:00 PM 19.82 67.676 0.265 7.39 12.75 8.85
7/4/2021 8:15:00 PM 19.7 67.46 0.266 7.37 11.25 8.75
7/4/2021 8:30:00 PM 19.58 67.244 0.266 7.36 10.77 8.67
7/4/2021 8:45:00 PM 19.45 67.01 0.266 7.34 16.18 8.57
7/4/2021 9:00:00 PM 19.33 66.794 0.266 7.33 10.44 8.49
7/4/2021 9:15:00 PM 19.2 66.56 0.267 7.31 10.53 8.42
7/4/2021 9:30:00 PM 19.09 66.362 0.267 7.3 11.24 8.36
7/4/2021 9:45:00 PM 18.97 66.146 0.267 7.29 12.32 8.31
7/4/2021 10:00:00 PM 18.87 65.966 0.267 7.29 11.83 8.28
7/4/2021 10:15:00 PM 18.78 65.804 0.267 7.28 15.9 8.23
7/4/2021 10:30:00 PM 18.68 65.624 0.267 7.27 15.72 8.22
7/4/2021 10:45:00 PM 18.6 65.48 0.267 7.27 11.73 8.19
7/4/2021 11:00:00 PM 18.52 65.336 0.267 7.26 11.87 8.19
7/4/2021 11:15:00 PM 18.43 65.174 0.267 7.26 12.89 8.18
7/4/2021 11:30:00 PM 18.35 65.03 0.267 7.26 12.49 8.2
7/4/2021 11:45:00 PM 18.27 64.886 0.267 7.25 13.18 8.19
7/5/2021 12:00:00 AM 18.19 64.742 0.268 7.25 13.04 8.18
7/5/2021 12:15:00 AM 18.11 64.598 0.268 7.25 11.83 8.19
7/5/2021 12:30:00 AM 18.04 64.472 0.268 7.24 12.92 8.19
7/5/2021 12:45:00 AM 17.96 64.328 0.268 7.24 11.83 8.18
7/5/2021 1:00:00 AM 17.9 64.22 0.268 7.23 12.26 8.18
7/5/2021 1:15:00 AM 17.83 64.094 0.268 7.23 12.02 8.19
7/5/2021 1:30:00 AM 17.76 63.968 0.268 7.22 11.87 8.18
7/5/2021 1:45:00 AM 17.7 63.86 0.268 7.22 15.61 8.2
7/5/2021 2:00:00 AM 17.64 63.752 0.268 7.22 13.79 8.2
7/5/2021 2:15:00 AM 17.58 63.644 0.268 7.22 13.25 8.21
7/5/2021 2:30:00 AM 17.52 63.536 0.269 7.23 12.49 8.23
7/5/2021 2:45:00 AM 17.47 63.446 0.269 7.22 11.86 8.23
7/5/2021 3:00:00 AM 17.41 63.338 0.269 7.22 13.72 8.23
7/5/2021 3:15:00 AM 17.35 63.23 0.269 7.23 11.95 8.24
7/5/2021 3:30:00 AM 17.3 63.14 0.269 7.22 13.5 8.25
7/5/2021 3:45:00 AM 17.24 63.032 0.269 7.22 12.73 8.26
7/5/2021 4:00:00 AM 17.19 62.942 0.269 7.22 12.97 8.25
7/5/2021 4:15:00 AM 17.13 62.834 0.269 7.21 11.93 8.27
7/5/2021 4:30:00 AM 17.08 62.744 0.27 7.22 13.75 8.28
7/5/2021 4:45:00 AM 17.03 62.654 0.27 7.22 9.87 8.28
7/5/2021 5:00:00 AM 16.97 62.546 0.27 7.22 17.67 8.3
7/5/2021 5:15:00 AM 16.92 62.456 0.27 7.22 14.94 8.31
7/5/2021 5:30:00 AM 16.86 62.348 0.27 7.22 18.11 8.32
7/5/2021 5:45:00 AM 16.81 62.258 0.271 7.22 16 8.33
7/5/2021 6:00:00 AM 16.76 62.168 0.27 7.22 15.78 8.34
7/5/2021 6:15:00 AM 16.72 62.096 0.271 7.22 18.74 8.38
7/5/2021 6:30:00 AM 16.68 62.024 0.271 7.22 14.45 8.44
7/5/2021 6:45:00 AM 16.68 62.024 0.271 7.23 11.85 8.51
7/5/2021 7:00:00 AM 16.68 62.024 0.271 7.23 11.43 8.58
7/5/2021 7:15:00 AM 16.69 62.042 0.271 7.24 15.55 8.71
7/5/2021 7:30:00 AM 16.73 62.114 0.271 7.25 11.86 8.82
7/5/2021 7:45:00 AM 16.8 62.24 0.271 7.26 11.16 8.94
7/5/2021 8:00:00 AM 16.89 62.402 0.271 7.27 11.02 9.06
7/5/2021 8:15:00 AM 17.02 62.636 0.271 7.28 11.72 9.18
7/5/2021 8:30:00 AM 17.16 62.888 0.271 7.29 193.39 9.3
7/5/2021 8:45:00 AM 17.31 63.158 0.271 7.3 11.18 9.4
7/5/2021 9:00:00 AM 17.49 63.482 0.271 7.32 11.09 9.49
7/5/2021 9:15:00 AM 17.7 63.86 0.271 7.34 11.92 9.57
7/5/2021 9:30:00 AM 17.91 64.238 0.271 7.35 11.31 9.64
7/5/2021 9:45:00 AM 18.15 64.67 0.271 7.36 10.32 9.74
7/5/2021 10:00:00 AM 18.4 65.12 0.271 7.38 11.09 9.8
7/5/2021 10:15:00 AM 18.66 65.588 0.271 7.39 11.41 9.87
7/5/2021 10:30:00 AM 18.91 66.038 0.272 7.41 10.34 9.94
7/5/2021 10:45:00 AM 19.19 66.542 0.272 7.42 10.91 9.99
7/5/2021 11:00:00 AM 19.47 67.046 0.272 7.43 11.67 10.05
7/5/2021 11:15:00 AM 19.78 67.604 0.272 7.45 12.22 10.12
7/5/2021 11:30:00 AM 20.05 68.09 0.272 7.47 11.05 10.15
7/5/2021 11:45:00 AM 20.1 68.18 0.272 7.47 11 10.11
7/5/2021 12:00:00 PM 20.36 68.648 0.272 7.49 10.31 10.18
7/5/2021 12:15:00 PM 20.69 69.242 0.272 7.5 11.77 10.25
7/5/2021 12:30:00 PM 20.82 69.476 0.273 7.51 13.26 10.23
7/5/2021 12:45:00 PM 21.04 69.872 0.273 7.52 11.01 10.25
7/5/2021 1:00:00 PM 21.2 70.16 0.273 7.53 10.58 10.28
7/5/2021 1:15:00 PM 21.45 70.61 0.273 7.54 10.33 10.32
7/5/2021 1:30:00 PM 21.67 71.006 0.273 7.56 11.12 10.32
7/5/2021 1:45:00 PM 21.63 70.934 0.273 7.56 10.08 10.25
7/5/2021 2:00:00 PM 21.8 71.24 0.273 7.56 11.5 10.24
7/5/2021 2:15:00 PM 22.05 71.69 0.274 7.57 9.83 10.28
7/5/2021 2:30:00 PM 22.27 72.086 0.274 7.57 15.08 10.29
7/5/2021 2:45:00 PM 22.46 72.42799 0.274 7.57 11 10.28
7/5/2021 3:00:00 PM 22.71 72.878 0.274 7.58 10.48 10.28
7/5/2021 3:15:00 PM 22.96 73.328 0.274 7.58 14.39 10.26
7/5/2021 3:30:00 PM 23.14 73.652 0.274 7.58 11.43 10.21
7/5/2021 3:45:00 PM 23.12 73.616 0.274 7.58 12.52 10.13
7/5/2021 4:00:00 PM 23.26 73.868 0.274 7.58 24.67 10.12
7/5/2021 4:15:00 PM 23.29 73.922 0.274 7.58 10.76 10.06
7/5/2021 4:30:00 PM 23.3 73.94 0.274 7.58 11.08 9.99
7/5/2021 4:45:00 PM 23.29 73.922 0.275 7.57 13.72 9.95
7/5/2021 5:00:00 PM 23.23 73.814 0.275 7.55 12.17 9.85
7/5/2021 5:15:00 PM 23.22 73.796 0.274 7.55 12.42 9.8
7/5/2021 5:30:00 PM 23.13 73.634 0.274 7.54 10.98 9.73
7/5/2021 5:45:00 PM 23.01 73.418 0.275 7.53 10.07 9.65
7/5/2021 6:00:00 PM 22.89 73.202 0.275 7.52 11.54 9.55
7/5/2021 6:15:00 PM 22.77 72.986 0.275 7.51 10.61 9.51
7/5/2021 6:30:00 PM 22.62 72.716 0.275 7.5 11.15 9.41
7/5/2021 6:45:00 PM 22.5 72.5 0.275 7.49 14.76 9.34
7/5/2021 7:00:00 PM 22.32 72.176 0.275 7.48 12.97 9.23
7/5/2021 7:15:00 PM 22.16 71.888 0.279 7.47 12.08 9.1
7/5/2021 7:30:00 PM 21.99 71.582 0.278 7.45 12.64 8.94
7/5/2021 7:45:00 PM 21.78 71.204 0.276 7.43 11.51 8.84
7/5/2021 8:00:00 PM 21.62 70.916 0.277 7.41 13.5 8.71
7/5/2021 8:15:00 PM 21.45 70.61 0.277 7.39 15.19 8.59
7/5/2021 8:30:00 PM 21.27 70.286 0.277 7.38 15.06 8.48
7/5/2021 8:45:00 PM 21.13 70.034 0.278 7.36 16.28 8.33
7/5/2021 9:00:00 PM 20.96 69.728 0.278 7.34 13.67 8.25
7/5/2021 9:15:00 PM 20.81 69.458 0.279 7.33 15.89 8.16
7/5/2021 9:30:00 PM 20.67 69.206 0.278 7.31 14.81 8.09
7/5/2021 9:45:00 PM 20.54 68.972 0.278 7.29 17.03 8.03
7/5/2021 10:00:00 PM 20.42 68.756 0.278 7.28 13.26 7.99
7/5/2021 10:15:00 PM 20.31 68.558 0.278 7.27 12.95 7.95
7/5/2021 10:30:00 PM 20.21 68.378 0.278 7.26 13.18 7.92
7/5/2021 10:45:00 PM 20.11 68.198 0.278 7.26 13.1 7.9
7/5/2021 11:00:00 PM 20.01 68.018 0.278 7.25 13.46 7.88
7/5/2021 11:15:00 PM 19.92 67.856 0.278 7.24 16.34 7.85
7/5/2021 11:30:00 PM 19.84 67.712 0.279 7.24 12.36 7.86
7/5/2021 11:45:00 PM 19.76 67.568 0.278 7.24 14.2 7.84
7/6/2021 12:00:00 AM 19.68 67.424 0.278 7.24 13.95 7.86
7/6/2021 12:15:00 AM 19.6 67.28 0.278 7.23 13.52 7.85
7/6/2021 12:30:00 AM 19.52 67.136 0.278 7.23 13.21 7.85
7/6/2021 12:45:00 AM 19.46 67.028 0.278 7.22 14.92 7.85
7/6/2021 1:00:00 AM 19.42 66.956 0.278 7.22 14.19 7.83
7/6/2021 1:15:00 AM 19.39 66.902 0.278 7.23 15.15 7.82
7/6/2021 1:30:00 AM 19.34 66.812 0.278 7.23 14.64 7.85
7/6/2021 1:45:00 AM 19.3 66.74 0.278 7.23 14.49 7.84
7/6/2021 2:00:00 AM 19.26 66.668 0.278 7.23 13.21 7.85
7/6/2021 2:15:00 AM 19.22 66.596 0.278 7.22 14.36 7.85
7/6/2021 2:30:00 AM 19.19 66.542 0.278 7.22 14.57 7.86
7/6/2021 2:45:00 AM 19.15 66.47 0.278 7.21 15.56 7.86
7/6/2021 3:00:00 AM 19.12 66.416 0.278 7.22 14.52 7.86
7/6/2021 3:15:00 AM 19.1 66.38 0.278 7.22 15.26 7.85
7/6/2021 3:30:00 AM 19.08 66.344 0.278 7.22 14.58 7.84
7/6/2021 3:45:00 AM 19.06 66.308 0.278 7.22 14.08 7.87
7/6/2021 4:00:00 AM 19.04 66.272 0.278 7.22 17.5 7.85
7/6/2021 4:15:00 AM 19.02 66.236 0.278 7.22 16.61 7.86
7/6/2021 4:30:00 AM 19.01 66.218 0.279 7.22 15.53 7.86
7/6/2021 4:45:00 AM 18.99 66.182 0.279 7.22 13.82 7.85
7/6/2021 5:00:00 AM 18.97 66.146 0.279 7.21 15.53 7.86
7/6/2021 5:15:00 AM 18.95 66.11 0.279 7.22 15.23 7.86
7/6/2021 5:30:00 AM 18.94 66.092 0.279 7.22 15.26 7.84
7/6/2021 5:45:00 AM 18.93 66.074 0.279 7.22 15.01 7.84
7/6/2021 6:00:00 AM 18.91 66.038 0.279 7.21 14.96 7.86
7/6/2021 6:15:00 AM 18.9 66.02 0.279 7.22 16.06 7.89
7/6/2021 6:30:00 AM 18.9 66.02 0.279 7.22 13.9 7.92
7/6/2021 6:45:00 AM 18.91 66.038 0.28 7.22 17.88 7.95
7/6/2021 7:00:00 AM 18.94 66.092 0.279 7.23 12.47 8.07
7/6/2021 7:15:00 AM 18.98 66.164 0.279 7.23 12.84 8.13
7/6/2021 7:30:00 AM 19.03 66.254 0.279 7.24 23.37 8.27
7/6/2021 7:45:00 AM 19.1 66.38 0.28 7.25 11.44 8.42
7/6/2021 8:00:00 AM 19.2 66.56 0.279 7.27 12.91 8.54
7/6/2021 8:15:00 AM 19.31 66.758 0.279 7.29 11.35 8.71
7/6/2021 8:30:00 AM 19.44 66.992 0.279 7.3 12.56 8.85
7/6/2021 8:45:00 AM 19.59 67.262 0.28 7.32 10.67 8.96
7/6/2021 9:00:00 AM 19.74 67.532 0.28 7.33 11.55 9.07
7/6/2021 9:15:00 AM 19.93 67.874 0.279 7.35 11.82 9.18
7/6/2021 9:30:00 AM 20.14 68.252 0.28 7.36 16.9 9.33
7/6/2021 9:45:00 AM 20.35 68.63 0.28 7.38 10.34 9.4
7/6/2021 10:00:00 AM 20.56 69.008 0.28 7.4 10.29 9.48
7/6/2021 10:15:00 AM 20.82 69.476 0.28 7.41 11.5 9.59
7/6/2021 10:30:00 AM 21.09 69.962 0.281 7.43 10.91 9.68
7/6/2021 10:45:00 AM 21.35 70.43 0.281 7.45 16.2 9.73
7/6/2021 11:00:00 AM 21.61 70.898 0.281 7.45 13.71 9.77
7/6/2021 11:15:00 AM 21.86 71.348 0.281 7.47 11.74 9.85
7/6/2021 11:30:00 AM 22.15 71.87 0.281 7.48 12.5 9.87
7/6/2021 11:45:00 AM 22.43 72.374 0.281 7.5 11.63 9.94
7/6/2021 12:00:00 PM 22.75 72.95 0.281 7.51 10.01 10.01
7/6/2021 12:15:00 PM 23.06 73.508 0.281 7.53 10.45 10.05
7/6/2021 12:30:00 PM 23.33 73.994 0.282 7.54 15.75 10.05
7/6/2021 12:45:00 PM 23.59 74.462 0.282 7.55 11.27 10.06
7/6/2021 1:00:00 PM 23.87 74.966 0.282 7.56 15.34 10.09
7/6/2021 1:15:00 PM 24.11 75.398 0.282 7.58 10.34 10.09
7/6/2021 1:30:00 PM 24.37 75.866 0.281 7.59 10.39 10.1
7/6/2021 1:45:00 PM 24.47 76.046 0.282 7.6 10.61 10.04
7/6/2021 2:00:00 PM 24.44 75.992 0.282 7.59 10.4 9.98
7/6/2021 2:15:00 PM 24.55 76.19 0.282 7.6 15.86 9.99
7/6/2021 2:30:00 PM 24.62 76.316 0.282 7.6 13.39 9.96
7/6/2021 2:45:00 PM 24.63 76.334 0.282 7.61 10.75 9.93
7/6/2021 3:00:00 PM 24.71 76.478 0.282 7.61 14.16 9.91
7/6/2021 3:15:00 PM 24.66 76.388 0.282 7.6 11.1 9.79
7/6/2021 3:30:00 PM 24.53 76.154 0.283 7.49 17.18 9.56
7/6/2021 3:45:00 PM 24.47 76.046 0.282 7.58 14.18 9.7
7/6/2021 4:00:00 PM 24.66 76.388 0.282 7.59 10.29 9.8
7/6/2021 4:15:00 PM 24.65 76.37 0.282 7.59 10.5 9.75
7/6/2021 4:30:00 PM 24.56 76.208 0.283 7.58 10.8 9.76
7/6/2021 4:45:00 PM 24.54 76.172 0.283 7.58 12.09 9.71
7/6/2021 5:00:00 PM 24.52 76.136 0.283 7.57 10.55 9.65
7/6/2021 5:15:00 PM 24.53 76.154 0.283 7.57 13.08 9.6
7/6/2021 5:30:00 PM 24.45 76.01 0.283 7.56 11.55 9.5
7/6/2021 5:45:00 PM 24.4 75.92 0.284 7.55 10.89 9.44
7/6/2021 6:00:00 PM 24.35 75.83 0.284 7.54 10.11 9.34
7/6/2021 6:15:00 PM 24.24 75.632 0.283 7.52 9.84 9.23
7/6/2021 6:30:00 PM 24.15 75.47 0.284 7.51 11.03 9.17
7/6/2021 6:45:00 PM 24.02 75.236 0.284 7.5 10.68 9.07
7/6/2021 7:00:00 PM 23.84 74.912 0.284 7.47 12.13 8.95
7/6/2021 7:15:00 PM 23.64 74.552 0.284 7.46 12.79 8.8
7/6/2021 7:30:00 PM 23.41 74.138 0.284 7.43 11.8 8.68
7/6/2021 7:45:00 PM 23.17 73.706 0.285 7.41 11.57 8.53
7/6/2021 8:00:00 PM 22.97 73.346 0.285 7.39 12.49 8.4
7/6/2021 8:15:00 PM 22.77 72.986 0.285 7.37 11.69 8.27
7/6/2021 8:30:00 PM 22.6 72.68 0.285 7.35 11.66 8.14
7/6/2021 8:45:00 PM 22.42 72.356 0.285 7.34 11.52 8.02
7/6/2021 9:00:00 PM 22.26 72.068 0.285 7.32 12.73 7.92
7/6/2021 9:15:00 PM 22.12 71.816 0.286 7.3 12.06 7.82
7/6/2021 9:30:00 PM 21.97 71.546 0.286 7.28 13.93 7.76
7/6/2021 9:45:00 PM 21.83 71.294 0.286 7.27 15.8 7.7
7/6/2021 10:00:00 PM 21.7 71.06 0.286 7.26 13.6 7.65
7/6/2021 10:15:00 PM 21.57 70.826 0.286 7.26 13.42 7.6
7/6/2021 10:30:00 PM 21.45 70.61 0.286 7.25 12.71 7.59
7/6/2021 10:45:00 PM 21.34 70.412 0.286 7.24 11.95 7.55
7/6/2021 11:00:00 PM 21.23 70.214 0.286 7.23 13.81 7.55
7/6/2021 11:15:00 PM 21.14 70.052 0.286 7.22 13.72 7.52
7/6/2021 11:30:00 PM 21.06 69.908 0.286 7.22 12.73 7.5
7/6/2021 11:45:00 PM 20.96 69.728 0.286 7.21 13.64 7.49
7/7/2021 12:00:00 AM 20.87 69.566 0.286 7.21 13.53 7.49
7/7/2021 12:15:00 AM 20.78 69.404 0.286 7.2 12.36 7.49
7/7/2021 12:30:00 AM 20.69 69.242 0.286 7.2 14.57 7.49
7/7/2021 12:45:00 AM 20.6 69.08 0.286 7.2 13.2 7.5
7/7/2021 1:00:00 AM 20.52 68.936 0.286 7.2 17.44 7.5
7/7/2021 1:15:00 AM 20.44 68.792 0.286 7.2 12.94 7.51
7/7/2021 1:30:00 AM 20.36 68.648 0.286 7.19 13.26 7.53
7/7/2021 1:45:00 AM 20.29 68.522 0.286 7.19 14.88 7.53
7/7/2021 2:00:00 AM 20.22 68.396 0.286 7.19 13.05 7.5
7/7/2021 2:15:00 AM 20.16 68.288 0.286 7.19 13.1 7.52
7/7/2021 2:30:00 AM 20.1 68.18 0.286 7.19 12.64 7.56
7/7/2021 2:45:00 AM 20.05 68.09 0.286 7.19 17.36 7.55
7/7/2021 3:00:00 AM 20 68 0.286 7.19 14.09 7.57
7/7/2021 3:15:00 AM 19.95 67.91 0.286 7.19 15.96 7.57
7/7/2021 3:30:00 AM 19.9 67.82 0.286 7.19 14.58 7.56
7/7/2021 3:45:00 AM 19.86 67.748 0.286 7.19 13.68 7.57
7/7/2021 4:00:00 AM 19.81 67.658 0.286 7.18 15.25 7.58
7/7/2021 4:15:00 AM 19.77 67.586 0.286 7.18 14.97 7.59
7/7/2021 4:30:00 AM 19.73 67.514 0.286 7.18 14.67 7.59
7/7/2021 4:45:00 AM 19.69 67.442 0.286 7.18 14.34 7.59
7/7/2021 5:00:00 AM 19.65 67.37 0.287 7.18 14.1 7.6
7/7/2021 5:15:00 AM 19.62 67.316 0.287 7.18 14.68 7.58
7/7/2021 5:30:00 AM 19.6 67.28 0.286 7.18 14.08 7.57
7/7/2021 5:45:00 AM 19.57 67.226 0.287 7.18 14.52 7.6
7/7/2021 6:00:00 AM 19.53 67.154 0.287 7.18 13.09 7.6
7/7/2021 6:15:00 AM 19.51 67.118 0.287 7.18 13.04 7.63
7/7/2021 6:30:00 AM 19.49 67.082 0.287 7.18 13.28 7.66
7/7/2021 6:45:00 AM 19.48 67.064 0.287 7.19 12.72 7.7
7/7/2021 7:00:00 AM 19.48 67.064 0.287 7.19 12.56 7.82
7/7/2021 7:15:00 AM 19.49 67.082 0.287 7.2 12.35 7.92
7/7/2021 7:30:00 AM 19.52 67.136 0.287 7.21 12.82 8.04
7/7/2021 7:45:00 AM 19.61 67.298 0.287 7.22 13.93 8.22
7/7/2021 8:00:00 AM 19.7 67.46 0.287 7.24 11.16 8.37
7/7/2021 8:15:00 AM 19.83 67.694 0.287 7.25 10.51 8.54
7/7/2021 8:30:00 AM 19.97 67.946 0.287 7.27 13.19 8.68
7/7/2021 8:45:00 AM 20.13 68.234 0.287 7.28 11.3 8.81
7/7/2021 9:00:00 AM 20.3 68.54 0.287 7.3 10.87 8.96
7/7/2021 9:15:00 AM 20.49 68.882 0.287 7.32 11.7 9.08
7/7/2021 9:30:00 AM 20.7 69.26 0.287 7.34 14.49 9.21
7/7/2021 9:45:00 AM 20.92 69.656 0.288 7.35 13.54 9.34
7/7/2021 10:00:00 AM 21.14 70.052 0.288 7.37 11.24 9.42
7/7/2021 10:15:00 AM 21.33 70.394 0.288 7.39 11.01 9.49
7/7/2021 10:30:00 AM 21.45 70.61 0.288 7.39 12.26 9.49
7/7/2021 10:45:00 AM 21.61 70.898 0.288 7.41 11.21 9.53
7/7/2021 11:00:00 AM 21.7 71.06 0.288 7.41 11.5 9.51
7/7/2021 11:15:00 AM 21.82 71.276 0.289 7.42 12.41 9.52
7/7/2021 11:30:00 AM 22.26 72.068 0.289 7.44 12.26 9.7
7/7/2021 11:45:00 AM 22.53 72.554 0.289 7.46 12 9.81
7/7/2021 12:00:00 PM 22.76 72.968 0.289 7.48 10.5 9.75
7/7/2021 12:15:00 PM 23 73.4 0.289 7.5 11.69 9.87
7/7/2021 12:30:00 PM 23.34 74.012 0.289 7.52 11.74 9.96
7/7/2021 12:45:00 PM 23.35 74.03 0.289 7.51 12.53 9.8
7/7/2021 1:00:00 PM 23.72 74.696 0.29 7.53 11.55 9.92
7/7/2021 1:15:00 PM 23.97 75.146 0.29 7.54 10.53 9.98
7/7/2021 1:30:00 PM 24.31 75.758 0.29 7.56 11.23 10.06
7/7/2021 1:45:00 PM 24.61 76.298 0.29 7.57 10.78 10.09
7/7/2021 2:00:00 PM 24.81 76.658 0.29 7.59 12.42 10.09
7/7/2021 2:15:00 PM 24.92 76.856 0.29 7.59 10.83 9.99
7/7/2021 2:30:00 PM 25.08 77.144 0.29 7.59 10.97 9.99
7/7/2021 2:45:00 PM 25.13 77.234 0.29 7.57 12.59 9.85
7/7/2021 3:00:00 PM 25.22 77.396 0.29 7.57 11.62 9.8
7/7/2021 3:15:00 PM 25.29 77.522 0.29 7.57 12 9.78
7/7/2021 3:30:00 PM 25.55 77.99 0.29 7.58 12.07 9.87
7/7/2021 3:45:00 PM 25.66 78.188 0.29 7.6 12.99 9.91
7/7/2021 4:00:00 PM 25.74 78.332 0.29 7.6 10.24 9.87
7/7/2021 4:15:00 PM 25.76 78.368 0.29 7.61 10.8 9.83
7/7/2021 4:30:00 PM 25.63 78.134 0.29 7.59 11.6 9.68
7/7/2021 4:45:00 PM 25.58 78.044 0.29 7.57 10.65 9.62
7/7/2021 5:00:00 PM 25.46 77.828 0.29 7.56 10.84 9.46
7/7/2021 5:15:00 PM 25.2 77.36 0.29 7.53 10.27 9.24
7/7/2021 5:30:00 PM 24.79 76.622 0.291 7.49 10.77 8.86
7/7/2021 5:45:00 PM 24.44 75.992 0.291 7.45 10.9 8.57
7/7/2021 6:00:00 PM 24.2 75.56 0.291 7.43 13.53 8.38
7/7/2021 6:15:00 PM 23.9 75.02 0.291 7.41 13.95 8.26
7/7/2021 6:30:00 PM 23.63 74.534 0.291 7.38 14.17 8.17
7/7/2021 6:45:00 PM 23.4 74.12 0.291 7.38 13.36 8.17
7/7/2021 7:00:00 PM 23.18 73.724 0.291 7.36 12.05 8.11
7/7/2021 7:15:00 PM 22.98 73.364 0.291 7.35 11.77 8.06
7/7/2021 7:30:00 PM 22.78 73.004 0.292 7.34 13.33 8.02
7/7/2021 7:45:00 PM 22.59 72.662 0.292 7.33 14.52 7.94
7/7/2021 8:00:00 PM 22.42 72.356 0.292 7.31 13.8 7.89
7/7/2021 8:15:00 PM 22.27 72.086 0.292 7.31 13.44 7.83
7/7/2021 8:30:00 PM 22.14 71.852 0.292 7.29 12.03 7.76
7/7/2021 8:45:00 PM 22.01 71.618 0.292 7.28 13.21 7.71
7/7/2021 9:00:00 PM 21.9 71.42 0.292 7.27 13.59 7.65
7/7/2021 9:15:00 PM 21.79 71.222 0.292 7.26 12.51 7.6
7/7/2021 9:30:00 PM 21.68 71.024 0.292 7.26 11.57 7.56
7/7/2021 9:45:00 PM 21.52 70.736 0.291 7.27 15.19 7.61
7/7/2021 10:00:00 PM 21.43 70.574 0.29 7.26 14.57 7.56
7/7/2021 10:15:00 PM 21.45 70.61 0.289 7.25 17.12 7.46
7/7/2021 10:30:00 PM 21.31 70.358 0.29 7.24 15.59 7.46
7/7/2021 10:45:00 PM 21.19 70.142 0.291 7.25 15.8 7.44
7/7/2021 11:00:00 PM 21.07 69.926 0.293 7.24 13.31 7.43
7/7/2021 11:15:00 PM 20.97 69.746 0.295 7.22 15.08 7.43
7/7/2021 11:30:00 PM 20.91 69.638 0.293 7.2 15.59 7.37
7/7/2021 11:45:00 PM 20.87 69.566 0.291 7.2 15.7 7.33
7/8/2021 12:00:00 AM 20.81 69.458 0.29 7.18 16.92 7.33
7/8/2021 12:15:00 AM 20.75 69.35 0.289 7.17 19.88 7.3
7/8/2021 12:30:00 AM 20.68 69.224 0.289 7.18 13.69 7.3
7/8/2021 12:45:00 AM 20.61 69.098 0.288 7.18 14.99 7.28
7/8/2021 1:00:00 AM 20.55 68.99 0.288 7.18 15.2 7.3
7/8/2021 1:15:00 AM 20.49 68.882 0.287 7.18 14.9 7.32
7/8/2021 1:30:00 AM 20.42 68.756 0.288 7.18 13.39 7.34
7/8/2021 1:45:00 AM 20.35 68.63 0.288 7.18 14.63 7.37
7/8/2021 2:00:00 AM 20.27 68.486 0.289 7.19 68.83 7.4
7/8/2021 2:15:00 AM 20.2 68.36 0.289 7.19 15.96 7.42
7/8/2021 2:30:00 AM 20.14 68.252 0.289 7.19 15.12 7.44
7/8/2021 2:45:00 AM 20.07 68.126 0.289 7.19 15.36 7.44
7/8/2021 3:00:00 AM 19.99 67.982 0.289 7.19 14.09 7.46
7/8/2021 3:15:00 AM 19.92 67.856 0.289 7.2 14.61 7.48
7/8/2021 3:30:00 AM 19.86 67.748 0.29 7.19 16.79 7.47
7/8/2021 3:45:00 AM 19.81 67.658 0.29 7.19 13.93 7.51
7/8/2021 4:00:00 AM 19.75 67.55 0.29 7.19 33.63 7.52
7/8/2021 4:15:00 AM 19.71 67.478 0.29 7.2 34.8 7.53
7/8/2021 4:30:00 AM 19.67 67.406 0.289 7.2 25.24 7.53
7/8/2021 4:45:00 AM 19.63 67.334 0.289 7.2 14.86 7.53
7/8/2021 5:00:00 AM 19.6 67.28 0.288 7.2 13.4 7.55
7/8/2021 5:15:00 AM 19.58 67.244 0.288 7.2 17.06 7.55
7/8/2021 5:30:00 AM 19.57 67.226 0.287 7.2 16.05 7.56
7/8/2021 5:45:00 AM 19.57 67.226 0.287 7.2 15.81 7.57
7/8/2021 6:00:00 AM 19.57 67.226 0.286 7.19 17.37 7.58
7/8/2021 6:15:00 AM 19.57 67.226 0.286 7.21 24.2 7.59
7/8/2021 6:30:00 AM 19.53 67.154 0.286 7.22 22.8 7.63
7/8/2021 6:45:00 AM 19.51 67.118 0.287 7.23 16.19 7.7
7/8/2021 7:00:00 AM 19.52 67.136 0.286 7.23 23.9 7.7
7/8/2021 7:15:00 AM 19.55 67.19 0.284 7.24 17.73 7.75
7/8/2021 7:30:00 AM 19.57 67.226 0.283 7.25 14.49 7.81
7/8/2021 7:45:00 AM 19.6 67.28 0.283 7.25 16.22 7.88
7/8/2021 8:00:00 AM 19.62 67.316 0.283 7.24 19.24 7.91
7/8/2021 8:15:00 AM 19.67 67.406 0.28 7.25 16.03 7.94
7/8/2021 8:30:00 AM 19.77 67.586 0.277 7.26 18.57 8.04
7/8/2021 8:45:00 AM 19.85 67.73 0.274 7.27 15.43 8.11
7/8/2021 9:00:00 AM 19.93 67.874 0.272 7.28 14.36 8.16
7/8/2021 9:15:00 AM 20.02 68.036 0.271 7.3 16.71 8.26
7/8/2021 9:30:00 AM 20.11 68.198 0.269 7.31 19.59 8.34
7/8/2021 9:45:00 AM 20.21 68.378 0.267 7.33 15.59 8.4
7/8/2021 10:00:00 AM 20.3 68.54 0.265 7.34 19.24 8.44
7/8/2021 10:15:00 AM 20.39 68.702 0.264 7.35 18.61 8.49
7/8/2021 10:30:00 AM 20.48 68.864 0.263 7.37 19.65 8.55
7/8/2021 10:45:00 AM 20.57 69.026 0.262 7.39 11.66 8.62
7/8/2021 11:00:00 AM 20.68 69.224 0.261 7.4 14.95 8.71
7/8/2021 11:15:00 AM 20.82 69.476 0.26 7.42 19.68 8.82
7/8/2021 11:30:00 AM 20.92 69.656 0.259 7.45 18.28 8.85
7/8/2021 11:45:00 AM 20.93 69.674 0.257 7.45 12.57 8.72
7/8/2021 12:00:00 PM 20.96 69.728 0.256 7.44 30.51 8.66
7/8/2021 12:15:00 PM 21.01 69.818 0.253 7.46 15.88 8.71
7/8/2021 12:30:00 PM 21.24 70.232 0.251 7.49 15.35 8.83
7/8/2021 12:45:00 PM 21.36 70.448 0.25 7.5 13.81 8.89
7/8/2021 1:00:00 PM 21.36 70.448 0.249 7.51 15 8.83
7/8/2021 1:15:00 PM 21.45 70.61 0.249 7.52 16.25 8.88
7/8/2021 1:30:00 PM 21.44 70.592 0.248 7.52 13.97 8.82
7/8/2021 1:45:00 PM 21.44 70.592 0.247 7.52 14.82 8.82
7/8/2021 2:00:00 PM 21.44 70.592 0.246 7.52 16.43 8.84
7/8/2021 2:15:00 PM 21.48 70.664 0.246 7.54 17.48 8.9
7/8/2021 2:30:00 PM 21.43 70.574 0.246 7.53 16.17 8.82
7/8/2021 2:45:00 PM 21.5 70.7 0.246 7.54 13.45 8.92
7/8/2021 3:00:00 PM 21.58 70.844 0.247 7.56 13.28 8.99
7/8/2021 3:15:00 PM 21.66 70.988 0.247 7.57 14.15 9.04
7/8/2021 3:30:00 PM 21.65 70.97 0.248 7.57 13.73 9
7/8/2021 3:45:00 PM 21.79 71.222 0.249 7.58 31.94 9.08
7/8/2021 4:00:00 PM 21.79 71.222 0.249 7.58 16.25 9.05
7/8/2021 4:15:00 PM 21.8 71.24 0.25 7.59 15.61 9.05
7/8/2021 4:30:00 PM 21.84 71.312 0.251 7.59 15.25 9.04
7/8/2021 4:45:00 PM 21.81 71.258 0.251 7.58 18.64 8.99
7/8/2021 5:00:00 PM 21.84 71.312 0.252 7.59 16.9 9.03
7/8/2021 5:15:00 PM 21.85 71.33 0.254 7.59 16.27 9.03
7/8/2021 5:30:00 PM 21.85 71.33 0.254 7.59 14.72 9
7/8/2021 5:45:00 PM 21.88 71.384 0.255 7.59 16.38 9.02
7/8/2021 6:00:00 PM 21.86 71.348 0.255 7.58 18.36 8.95
7/8/2021 6:15:00 PM 21.86 71.348 0.256 7.58 17.31 8.94
7/8/2021 6:30:00 PM 21.83 71.294 0.256 7.57 17.27 8.87
7/8/2021 6:45:00 PM 21.86 71.348 0.257 7.57 18 8.89
7/8/2021 7:00:00 PM 21.77 71.186 0.257 7.55 18.02 8.75
7/8/2021 7:15:00 PM 21.65 70.97 0.257 7.53 19.2 8.63
7/8/2021 7:30:00 PM 21.55 70.79 0.258 7.51 16.51 8.54
7/8/2021 7:45:00 PM 21.43 70.574 0.258 7.49 17.37 8.38
7/8/2021 8:00:00 PM 21.34 70.412 0.258 7.46 17.42 8.27
7/8/2021 8:15:00 PM 21.23 70.214 0.258 7.46 17.8 8.19
7/8/2021 8:30:00 PM 21.11 69.998 0.258 7.43 19.34 8.08
7/8/2021 8:45:00 PM 21.01 69.818 0.258 7.42 17.97 8.02
7/8/2021 9:00:00 PM 20.9 69.62 0.258 7.41 16.06 7.97
7/8/2021 9:15:00 PM 20.81 69.458 0.259 7.4 12.94 7.92
7/8/2021 9:30:00 PM 20.72 69.296 0.259 7.39 17.16 7.9
7/8/2021 9:45:00 PM 20.65 69.17 0.259 7.38 15.38 7.87
7/8/2021 10:00:00 PM 20.59 69.062 0.258 7.37 15.64 7.85
7/8/2021 10:15:00 PM 20.53 68.954 0.259 7.37 18.81 7.83
7/8/2021 10:30:00 PM 20.47 68.846 0.258 7.36 15.07 7.82
7/8/2021 10:45:00 PM 20.42 68.756 0.258 7.36 29.32 7.82
7/8/2021 11:00:00 PM 20.37 68.666 0.258 7.35 19.99 7.82
7/8/2021 11:15:00 PM 20.32 68.576 0.258 7.34 18.45 7.81
7/8/2021 11:30:00 PM 20.27 68.486 0.258 7.34 14.22 7.8
7/8/2021 11:45:00 PM 20.21 68.378 0.258 7.33 21.45 7.8
7/9/2021 12:00:00 AM 20.14 68.252 0.259 7.34 28.82 7.76
7/9/2021 12:15:00 AM 20.08 68.144 0.259 7.33 39.11 7.79
7/9/2021 12:30:00 AM 20.01 68.018 0.259 7.33 27.15 7.79
7/9/2021 12:45:00 AM 19.94 67.892 0.259 7.33 16.32 7.78
7/9/2021 1:00:00 AM 19.88 67.784 0.259 7.32 18.69 7.78
7/9/2021 1:15:00 AM 19.82 67.676 0.259 7.32 37.82 7.78
7/9/2021 1:30:00 AM 19.76 67.568 0.259 7.32 18.77 7.78
7/9/2021 1:45:00 AM 19.7 67.46 0.259 7.31 17.98 7.78
7/9/2021 2:00:00 AM 19.65 67.37 0.26 7.32 18.69 7.78
7/9/2021 2:15:00 AM 19.61 67.298 0.26 7.32 18.36 7.78
7/9/2021 2:30:00 AM 19.57 67.226 0.26 7.32 20.38 7.78
7/9/2021 2:45:00 AM 19.54 67.172 0.26 7.31 18.57 7.79
7/9/2021 3:00:00 AM 19.5 67.1 0.26 7.31 17.53 7.79
7/9/2021 3:15:00 AM 19.45 67.01 0.261 7.31 19.14 7.79
7/9/2021 3:30:00 AM 19.4 66.92 0.261 7.32 19.33 7.79
7/9/2021 3:45:00 AM 19.36 66.848 0.261 7.31 20.47 7.79
7/9/2021 4:00:00 AM 19.31 66.758 0.262 7.31 16.82 7.79
7/9/2021 4:15:00 AM 19.27 66.686 0.262 7.31 20.19 7.8
7/9/2021 4:30:00 AM 19.25 66.65 0.262 7.3 67.54 7.8
7/9/2021 4:45:00 AM 19.22 66.596 0.262 7.3 16.9 7.81
7/9/2021 5:00:00 AM 19.21 66.578 0.262 7.31 20.4 7.8
7/9/2021 5:15:00 AM 19.19 66.542 0.262 7.31 21.52 7.8
7/9/2021 5:30:00 AM 19.18 66.524 0.263 7.3 20 7.81
7/9/2021 5:45:00 AM 19.16 66.488 0.263 7.31 21.76 7.83
7/9/2021 6:00:00 AM 19.17 66.506 0.263 7.31 56.45 7.8
7/9/2021 6:15:00 AM 19.18 66.524 0.263 7.31 18.41 7.83
7/9/2021 6:30:00 AM 19.18 66.524 0.263 7.31 19.23 7.85
7/9/2021 6:45:00 AM 19.19 66.542 0.263 7.31 31.71 7.88
7/9/2021 7:00:00 AM 19.22 66.596 0.264 7.32 18.25 7.91
7/9/2021 7:15:00 AM 19.23 66.614 0.264 7.32 18.19 7.98
7/9/2021 7:30:00 AM 19.25 66.65 0.264 7.33 15.23 8
7/9/2021 7:45:00 AM 19.29 66.722 0.264 7.34 17.18 8.1
7/9/2021 8:00:00 AM 19.33 66.794 0.265 7.35 14.37 8.15
7/9/2021 8:15:00 AM 19.34 66.812 0.264 7.36 16.67 8.2
7/9/2021 8:30:00 AM 19.38 66.884 0.264 7.36 16.49 8.26
7/9/2021 8:45:00 AM 19.47 67.046 0.263 7.37 18.05 8.39
7/9/2021 9:00:00 AM 19.55 67.19 0.265 7.39 15.06 8.56
7/9/2021 9:15:00 AM 19.66 67.388 0.267 7.4 16.31 8.71
7/9/2021 9:30:00 AM 19.81 67.658 0.268 7.41 15.69 8.84
7/9/2021 9:45:00 AM 19.95 67.91 0.268 7.42 14.57 8.92
7/9/2021 10:00:00 AM 20.16 68.288 0.267 7.43 15.45 9.02
7/9/2021 10:15:00 AM 20.39 68.702 0.266 7.44 15.39 9.13
7/9/2021 10:30:00 AM 20.58 69.044 0.266 7.46 15.12 9.23
7/9/2021 10:45:00 AM 20.67 69.206 0.266 7.47 14.86 9.24
7/9/2021 11:00:00 AM 20.66 69.188 0.266 7.48 15.98 9.2
7/9/2021 11:15:00 AM 20.71 69.278 0.267 7.49 15.27 9.21
7/9/2021 11:30:00 AM 20.96 69.728 0.267 7.5 16.53 9.35
7/9/2021 11:45:00 AM 21.15 70.07 0.267 7.51 14.1 9.41
7/9/2021 12:00:00 PM 21.54 70.772 0.267 7.53 13.89 9.51
7/9/2021 12:15:00 PM 21.7 71.06 0.267 7.54 14.27 9.52
7/9/2021 12:30:00 PM 22.04 71.672 0.267 7.56 14.17 9.57
7/9/2021 12:45:00 PM 22.19 71.942 0.267 7.57 15.87 9.58
7/9/2021 1:00:00 PM 22.49 72.482 0.267 7.58 13.59 9.63
7/9/2021 1:15:00 PM 22.56 72.608 0.267 7.58 16.26 9.6
7/9/2021 1:30:00 PM 22.6 72.68 0.267 7.59 14.83 9.59
7/9/2021 1:45:00 PM 22.86 73.148 0.266 7.6 13.77 9.6
7/9/2021 2:00:00 PM 22.7 72.86 0.266 7.59 13.85 9.52
7/9/2021 2:15:00 PM 22.72 72.896 0.266 7.6 13.79 9.58
7/9/2021 2:30:00 PM 22.81 73.058 0.265 7.6 13.54 9.64
7/9/2021 2:45:00 PM 23.05 73.49 0.265 7.62 14.56 9.67
7/9/2021 3:00:00 PM 22.77 72.986 0.265 7.6 16.03 9.42
7/9/2021 3:15:00 PM 22.71 72.878 0.265 7.58 15.02 9.37
7/9/2021 3:30:00 PM 22.55 72.59 0.264 7.57 15.97 9.19
7/9/2021 3:45:00 PM 22.46 72.42799 0.264 7.56 13.48 9.17
7/9/2021 4:00:00 PM 22.46 72.42799 0.264 7.55 16.59 9.26
7/9/2021 4:15:00 PM 22.46 72.42799 0.264 7.56 14.02 9.29
7/9/2021 4:30:00 PM 22.53 72.554 0.263 7.57 14.47 9.32
7/9/2021 4:45:00 PM 22.57 72.626 0.263 7.56 15.24 9.32
7/9/2021 5:00:00 PM 22.54 72.57201 0.263 7.56 14.18 9.25
7/9/2021 5:15:00 PM 22.58 72.644 0.263 7.56 16.16 9.23
7/9/2021 5:30:00 PM 22.53 72.554 0.263 7.55 14.19 9.19
7/9/2021 5:45:00 PM 22.42 72.356 0.262 7.54 490.29 9.12
7/9/2021 6:00:00 PM 22.3 72.14 0.262 7.53 16.13 9.07
7/9/2021 6:15:00 PM 22.13 71.834 0.262 7.52 15.74 8.98
7/9/2021 6:30:00 PM 21.92 71.456 0.261 7.51 17.05 8.87
7/9/2021 6:45:00 PM 21.8 71.24 0.262 7.49 15.5 8.81
7/9/2021 7:00:00 PM 21.64 70.952 0.261 7.49 19.26 8.78
7/9/2021 7:15:00 PM 21.44 70.592 0.261 7.47 14.72 8.67
7/9/2021 7:30:00 PM 21.3 70.34 0.261 7.46 15.22 8.6
7/9/2021 7:45:00 PM 21.13 70.034 0.26 7.44 13.02 8.52
7/9/2021 8:00:00 PM 20.98 69.764 0.26 7.43 15.38 8.41
7/9/2021 8:15:00 PM 20.85 69.53 0.26 7.42 16.04 8.33
7/9/2021 8:30:00 PM 20.71 69.278 0.26 7.41 15.07 8.26
7/9/2021 8:45:00 PM 20.59 69.062 0.26 7.39 15.99 8.17
7/9/2021 9:00:00 PM 20.48 68.864 0.26 7.38 13.2 8.08
7/9/2021 9:15:00 PM 20.35 68.63 0.259 7.36 17.6 8.02
7/9/2021 9:30:00 PM 20.25 68.45 0.259 7.35 14.89 7.98
7/9/2021 9:45:00 PM 20.17 68.306 0.259 7.34 18.53 7.93
7/9/2021 10:00:00 PM 20.09 68.162 0.258 7.33 15.01 7.9
7/9/2021 10:15:00 PM 20.02 68.036 0.258 7.33 19.25 7.87
7/9/2021 10:30:00 PM 19.92 67.856 0.258 7.32 18.05 7.84
7/9/2021 10:45:00 PM 19.83 67.694 0.257 7.32 18.53 7.84
7/9/2021 11:00:00 PM 19.73 67.514 0.257 7.31 17.77 7.83
7/9/2021 11:15:00 PM 19.63 67.334 0.257 7.31 17.02 7.83
7/9/2021 11:30:00 PM 19.54 67.172 0.256 7.31 17.83 7.83
7/9/2021 11:45:00 PM 19.47 67.046 0.256 7.3 17.77 7.83
7/10/2021 12:00:00 AM 19.43 66.974 0.256 7.3 16.96 7.82
7/10/2021 12:15:00 AM 19.39 66.902 0.256 7.3 17.49 7.82
7/10/2021 12:30:00 AM 19.35 66.83 0.256 7.29 18.68 7.84
7/10/2021 12:45:00 AM 19.31 66.758 0.256 7.29 17.57 7.83
7/10/2021 1:00:00 AM 19.29 66.722 0.256 7.29 17.74 7.82
7/10/2021 1:15:00 AM 19.26 66.668 0.255 7.29 12.93 7.83
7/10/2021 1:30:00 AM 19.21 66.578 0.256 7.28 19.89 7.82
7/10/2021 1:45:00 AM 19.13 66.434 0.256 7.28 63.9 7.84
7/10/2021 2:00:00 AM 19.05 66.29 0.255 7.28 17.32 7.84
7/10/2021 2:15:00 AM 18.99 66.182 0.255 7.27 18.44 7.85
7/10/2021 2:30:00 AM 18.91 66.038 0.256 7.27 17 7.85
7/10/2021 2:45:00 AM 18.84 65.912 0.256 7.27 18.41 7.84
7/10/2021 3:00:00 AM 18.77 65.786 0.256 7.26 18.23 7.84
7/10/2021 3:15:00 AM 18.7 65.66 0.256 7.26 16.67 7.84
7/10/2021 3:30:00 AM 18.62 65.516 0.256 7.26 15.36 7.85
7/10/2021 3:45:00 AM 18.57 65.426 0.256 7.26 17.32 7.86
7/10/2021 4:00:00 AM 18.54 65.372 0.256 7.25 18.01 7.87
7/10/2021 4:15:00 AM 18.5 65.3 0.256 7.26 17.98 7.88
7/10/2021 4:30:00 AM 18.46 65.228 0.257 7.25 18.24 7.88
7/10/2021 4:45:00 AM 18.42 65.156 0.257 7.25 18.69 7.89
7/10/2021 5:00:00 AM 18.39 65.102 0.257 7.25 17.77 7.9
7/10/2021 5:15:00 AM 18.36 65.048 0.257 7.25 14.39 7.9
7/10/2021 5:30:00 AM 18.33 64.994 0.258 7.25 18.85 7.91
7/10/2021 5:45:00 AM 18.3 64.94 0.258 7.25 16.11 7.9
7/10/2021 6:00:00 AM 18.26 64.868 0.258 7.25 18.39 7.92
7/10/2021 6:15:00 AM 18.22 64.796 0.258 7.25 16.75 7.93
7/10/2021 6:30:00 AM 18.18 64.724 0.259 7.25 17.76 7.95
7/10/2021 6:45:00 AM 18.14 64.652 0.259 7.25 16.71 7.98
7/10/2021 7:00:00 AM 18.12 64.616 0.259 7.25 16.19 8.01
7/10/2021 7:15:00 AM 18.08 64.544 0.259 7.25 15.21 8.03
7/10/2021 7:30:00 AM 18.06 64.508 0.259 7.26 15.41 8.1
7/10/2021 7:45:00 AM 18.05 64.49 0.26 7.26 18.01 8.16
7/10/2021 8:00:00 AM 18.04 64.472 0.26 7.26 14.12 8.21
7/10/2021 8:15:00 AM 18.05 64.49 0.26 7.27 14.39 8.3
7/10/2021 8:30:00 AM 18.06 64.508 0.26 7.28 13.39 8.38
7/10/2021 8:45:00 AM 18.08 64.544 0.26 7.29 14.53 8.47
7/10/2021 9:00:00 AM 18.1 64.58 0.26 7.3 14.7 8.57
7/10/2021 9:15:00 AM 18.15 64.67 0.261 7.31 13.83 8.71
7/10/2021 9:30:00 AM 18.2 64.76 0.261 7.32 13.57 8.82
7/10/2021 9:45:00 AM 18.31 64.958 0.261 7.33 12.09 8.99
7/10/2021 10:00:00 AM 18.47 65.246 0.261 7.35 13.62 9.13
7/10/2021 10:15:00 AM 18.54 65.372 0.261 7.36 14.33 9.25
7/10/2021 10:30:00 AM 18.57 65.426 0.262 7.38 15.1 9.28
7/10/2021 10:45:00 AM 18.65 65.57 0.262 7.39 15.91 9.35
7/10/2021 11:00:00 AM 18.75 65.75 0.262 7.4 15.48 9.45
7/10/2021 11:15:00 AM 18.84 65.912 0.262 7.42 15.03 9.54
7/10/2021 11:30:00 AM 18.99 66.182 0.262 7.43 16.82 9.63
7/10/2021 11:45:00 AM 19.11 66.398 0.262 7.44 14.39 9.73
7/10/2021 12:00:00 PM 19.44 66.992 0.263 7.46 13.95 9.84
7/10/2021 12:15:00 PM 19.51 67.118 0.263 7.47 17.1 9.88
7/10/2021 12:30:00 PM 19.7 67.46 0.263 7.46 42.78 9.88
7/10/2021 12:45:00 PM 20.03 68.054 0.263 7.51 15.87 10.05
7/10/2021 1:00:00 PM 20.51 68.918 0.264 7.52 14.49 10.13
7/10/2021 1:15:00 PM 20.66 69.188 0.264 7.53 12.28 10.16
7/10/2021 1:30:00 PM 20.81 69.458 0.264 7.54 14.56 10.16
7/10/2021 1:45:00 PM 20.9 69.62 0.264 7.55 15.27 10.17
7/10/2021 2:00:00 PM 21.27 70.286 0.265 7.56 14.22 10.2
7/10/2021 2:15:00 PM 21.56 70.808 0.265 7.58 13.16 10.22
7/10/2021 2:30:00 PM 21.8 71.24 0.265 7.58 12.51 10.25
7/10/2021 2:45:00 PM 22.01 71.618 0.265 7.6 17.44 10.26
7/10/2021 3:00:00 PM 22.32 72.176 0.266 7.61 12.39 10.26
7/10/2021 3:15:00 PM 22.18 71.924 0.266 7.59 12.72 10.05
7/10/2021 3:30:00 PM 22.01 71.618 0.266 7.56 13.26 9.85
7/10/2021 3:45:00 PM 22.12 71.816 0.266 7.57 15.94 9.88
7/10/2021 4:00:00 PM 22.16 71.888 0.266 7.57 12.33 9.84
7/10/2021 4:15:00 PM 22.04 71.672 0.267 7.56 11 9.76
7/10/2021 4:30:00 PM 22.18 71.924 0.267 7.57 13.49 9.87
7/10/2021 4:45:00 PM 22.16 71.888 0.267 7.57 15.22 9.83
7/10/2021 5:00:00 PM 22.06 71.708 0.267 7.56 12.9 9.79
7/10/2021 5:15:00 PM 22.04 71.672 0.267 7.56 12.97 9.78
7/10/2021 5:30:00 PM 22.01 71.618 0.267 7.56 11.06 9.72
7/10/2021 5:45:00 PM 21.92 71.456 0.268 7.55 11.23 9.67
7/10/2021 6:00:00 PM 21.86 71.348 0.268 7.54 12.59 9.62
7/10/2021 6:15:00 PM 21.78 71.204 0.268 7.53 11.01 9.55
7/10/2021 6:30:00 PM 21.65 70.97 0.268 7.52 11.88 9.47
7/10/2021 6:45:00 PM 21.52 70.736 0.268 7.5 10.78 9.36
7/10/2021 7:00:00 PM 21.37 70.466 0.268 7.48 12.98 9.24
7/10/2021 7:15:00 PM 21.21 70.17799 0.268 7.46 11.86 9.13
7/10/2021 7:30:00 PM 21.04 69.872 0.269 7.45 12.57 9
7/10/2021 7:45:00 PM 20.89 69.602 0.269 7.42 13.18 8.87
7/10/2021 8:00:00 PM 20.74 69.332 0.269 7.4 11.81 8.74
7/10/2021 8:15:00 PM 20.6 69.08 0.269 7.39 11.65 8.61
7/10/2021 8:30:00 PM 20.47 68.846 0.27 7.37 16.1 8.51
7/10/2021 8:45:00 PM 20.33 68.594 0.27 7.35 12.83 8.36
7/10/2021 9:00:00 PM 20.2 68.36 0.27 7.34 13.7 8.3
7/10/2021 9:15:00 PM 20.07 68.126 0.27 7.33 12.46 8.22
7/10/2021 9:30:00 PM 19.96 67.92799 0.271 7.31 17.24 8.15
7/10/2021 9:45:00 PM 19.85 67.73 0.27 7.3 12.86 8.09
7/10/2021 10:00:00 PM 19.76 67.568 0.27 7.29 14.24 8.04
7/10/2021 10:15:00 PM 19.67 67.406 0.271 7.29 13.24 8.02
7/10/2021 10:30:00 PM 19.6 67.28 0.271 7.28 12.34 7.97
7/10/2021 10:45:00 PM 19.52 67.136 0.271 7.27 15.71 7.95
7/10/2021 11:00:00 PM 19.45 67.01 0.271 7.27 13.92 7.93
7/10/2021 11:15:00 PM 19.37 66.866 0.271 7.26 13.31 7.9
7/10/2021 11:30:00 PM 19.29 66.722 0.271 7.26 13.66 7.9
7/10/2021 11:45:00 PM 19.2 66.56 0.271 7.25 13.28 7.91
7/11/2021 12:00:00 AM 19.12 66.416 0.271 7.25 15.56 7.9
7/11/2021 12:15:00 AM 19.04 66.272 0.271 7.25 16.57 7.9
7/11/2021 12:30:00 AM 18.95 66.11 0.271 7.24 12.63 7.9
7/11/2021 12:45:00 AM 18.87 65.966 0.271 7.24 16.49 7.89
7/11/2021 1:00:00 AM 18.78 65.804 0.271 7.24 12.98 7.91
7/11/2021 1:15:00 AM 18.7 65.66 0.271 7.24 13.51 7.93
7/11/2021 1:30:00 AM 18.63 65.534 0.271 7.23 14.69 7.92
7/11/2021 1:45:00 AM 18.56 65.408 0.271 7.23 14.93 7.94
7/11/2021 2:00:00 AM 18.49 65.282 0.272 7.23 15.52 7.96
7/11/2021 2:15:00 AM 18.44 65.192 0.272 7.23 13.48 7.96
7/11/2021 2:30:00 AM 18.4 65.12 0.272 7.23 14.48 7.96
7/11/2021 2:45:00 AM 18.35 65.03 0.272 7.22 13.87 7.96
7/11/2021 3:00:00 AM 18.31 64.958 0.272 7.22 13.52 7.97
7/11/2021 3:15:00 AM 18.27 64.886 0.272 7.22 13.97 7.98
7/11/2021 3:30:00 AM 18.23 64.814 0.272 7.22 14.75 7.95
7/11/2021 3:45:00 AM 18.2 64.76 0.272 7.22 16.5 7.97
7/11/2021 4:00:00 AM 18.17 64.706 0.272 7.22 14.1 7.98
7/11/2021 4:15:00 AM 18.15 64.67 0.272 7.21 14.31 7.96
7/11/2021 4:30:00 AM 18.12 64.616 0.272 7.21 14.81 7.94
7/11/2021 4:45:00 AM 18.1 64.58 0.272 7.21 14.07 7.96
7/11/2021 5:00:00 AM 18.07 64.526 0.272 7.22 16.52 7.97
7/11/2021 5:15:00 AM 18.04 64.472 0.272 7.21 39.12 7.96
7/11/2021 5:30:00 AM 18.01 64.418 0.273 7.21 16.3 7.96
7/11/2021 5:45:00 AM 17.99 64.382 0.273 7.21 14.93 7.96
7/11/2021 6:00:00 AM 17.96 64.328 0.273 7.21 14.8 7.97
7/11/2021 6:15:00 AM 17.93 64.274 0.273 7.2 14.7 7.98
7/11/2021 6:30:00 AM 17.9 64.22 0.273 7.2 15.23 8.01
7/11/2021 6:45:00 AM 17.88 64.184 0.274 7.2 14.96 8.08
7/11/2021 7:00:00 AM 17.9 64.22 0.274 7.21 52.96 8.17
7/11/2021 7:15:00 AM 17.91 64.238 0.273 7.22 11.86 8.28
7/11/2021 7:30:00 AM 17.97 64.346 0.273 7.23 12.01 8.41
7/11/2021 7:45:00 AM 18.02 64.436 0.274 7.23 33.55 8.54
7/11/2021 8:00:00 AM 18.1 64.58 0.274 7.25 14.76 8.66
7/11/2021 8:15:00 AM 18.2 64.76 0.274 7.26 23.09 8.79
7/11/2021 8:30:00 AM 18.33 64.994 0.274 7.27 16.47 8.93
7/11/2021 8:45:00 AM 18.4 65.12 0.274 7.3 13.4 9.01
7/11/2021 9:00:00 AM 18.53 65.354 0.274 7.31 13.7 9.12
7/11/2021 9:15:00 AM 18.74 65.732 0.274 7.32 12.69 9.26
7/11/2021 9:30:00 AM 18.95 66.11 0.274 7.34 11.96 9.38
7/11/2021 9:45:00 AM 19.17 66.506 0.274 7.36 12.04 9.48
7/11/2021 10:00:00 AM 19.44 66.992 0.275 7.38 12.26 9.59
7/11/2021 10:15:00 AM 19.7 67.46 0.275 7.39 11.02 9.56
7/11/2021 10:30:00 AM 19.99 67.982 0.275 7.41 11.6 9.77
7/11/2021 10:45:00 AM 20.21 68.378 0.275 7.43 10.45 9.84
7/11/2021 11:00:00 AM 20.33 68.594 0.276 7.43 25.04 9.88
7/11/2021 11:15:00 AM 20.64 69.152 0.275 7.46 15.01 9.95
7/11/2021 11:30:00 AM 20.99 69.782 0.276 7.48 7.65 10.03
7/11/2021 11:45:00 AM 21.16 70.088 0.276 7.49 12.39 10.04
7/11/2021 12:00:00 PM 21.42 70.556 0.277 7.5 11.26 10.09
7/11/2021 12:15:00 PM 21.73 71.114 0.277 7.52 10.77 10.09
7/11/2021 12:30:00 PM 22.09 71.762 0.277 7.53 13.47 10.13
7/11/2021 12:45:00 PM 22.34 72.212 0.277 7.54 17.43 10.13
7/11/2021 1:00:00 PM 22.63 72.734 0.278 7.56 17.07 10.2
7/11/2021 1:15:00 PM 22.88 73.184 0.278 7.55 1087.68 10.22
7/11/2021 1:30:00 PM 23.17 73.706 0.278 7.58 16.5 10.2
7/11/2021 1:45:00 PM 23.46 74.228 0.278 7.59 227.01 10.23
7/11/2021 2:00:00 PM 23.77 74.786 0.278 7.6 13.69 10.17
7/11/2021 2:15:00 PM 23.99 75.182 0.278 7.62 12.47 10.23
7/11/2021 2:30:00 PM 24.24 75.632 0.279 7.63 11.5 10.22
7/11/2021 2:45:00 PM 24.31 75.758 0.279 7.63 13.66 10.12
7/11/2021 3:00:00 PM 24.39 75.902 0.279 7.64 11.05 10.04
7/11/2021 3:15:00 PM 24.63 76.334 0.28 7.63 11.06 10.08
7/11/2021 3:30:00 PM 24.85 76.73 0.28 7.65 10.75 10.09
7/11/2021 3:45:00 PM 24.88 76.784 0.28 7.65 10.16 10.01
7/11/2021 4:00:00 PM 24.77 76.586 0.28 7.64 22.7 9.85
7/11/2021 4:15:00 PM 24.54 76.172 0.28 7.62 9.74 9.58
7/11/2021 4:30:00 PM 24.35 75.83 0.28 7.58 11.99 9.37
7/11/2021 4:45:00 PM 24.16 75.488 0.28 7.55 9.85 9.17
7/11/2021 5:00:00 PM 23.99 75.182 0.279 7.53 12.11 9.13
7/11/2021 5:15:00 PM 23.8 74.84 0.28 7.52 11.42 9.06
7/11/2021 5:30:00 PM 23.56 74.408 0.281 7.5 10.7 8.94
7/11/2021 5:45:00 PM 23.28 73.904 0.282 7.47 10 8.7
7/11/2021 6:00:00 PM 22.96 73.328 0.262 7.48 46.41 8.4
7/11/2021 6:15:00 PM 23.68 74.624 0.161 7.61 103.86 8.12
7/11/2021 6:30:00 PM 22.52 72.536 0.233 7.49 92.29 8.12
7/11/2021 6:45:00 PM 22.41 72.338 0.211 7.51 159.92 8
7/11/2021 7:00:00 PM 22.4 72.32 0.191 7.52 152.58 7.88
7/11/2021 7:15:00 PM 22.29 72.122 0.187 7.47 211.61 7.78
7/11/2021 7:30:00 PM 22.08 71.744 0.196 7.41 194.68 7.74
7/11/2021 7:45:00 PM 21.78 71.204 0.211 7.37 188.5 7.74
7/11/2021 8:00:00 PM 21.05 69.89 0.245 7.36 181.45 7.93
7/11/2021 8:15:00 PM 20.28 68.504 0.26 7.36 307 8.17
7/11/2021 8:30:00 PM 20.01 68.018 0.253 7.37 333.93 8.25
7/11/2021 8:45:00 PM 20.14 68.252 0.233 7.36 292.11 8.19
7/11/2021 9:00:00 PM 20.23 68.414 0.228 7.34 287.59 8.14
7/11/2021 9:15:00 PM 20.1 68.18 0.226 7.35 314.01 8.21
7/11/2021 9:30:00 PM 20.11 68.198 0.229 7.34 287.29 8.2
7/11/2021 9:45:00 PM 20.12 68.216 0.237 7.34 208.19 8.16
7/11/2021 10:00:00 PM 20.14 68.252 0.242 7.34 246.09 8.09
7/11/2021 10:15:00 PM 20.18 68.324 0.249 7.34 350.44 7.99
7/11/2021 10:30:00 PM 20.22 68.396 0.252 7.33 248.83 7.93
7/11/2021 10:45:00 PM 20.26 68.468 0.253 7.33 142.19 7.94
7/11/2021 11:00:00 PM 20.27 68.486 0.251 7.33 147.14 7.91
7/11/2021 11:15:00 PM 20.27 68.486 0.248 7.33 124.95 7.91
7/11/2021 11:30:00 PM 20.26 68.468 0.243 7.32 108.07 7.89
7/11/2021 11:45:00 PM 20.28 68.504 0.238 7.32 94.6 7.88
7/12/2021 12:00:00 AM 20.33 68.594 0.233 7.32 87.39 7.85
7/12/2021 12:15:00 AM 20.39 68.702 0.23 7.33 87.87 7.83
7/12/2021 12:30:00 AM 20.47 68.846 0.227 7.34 90.67 7.83
7/12/2021 12:45:00 AM 20.53 68.954 0.225 7.35 66.16 7.83
7/12/2021 1:00:00 AM 20.58 69.044 0.225 7.36 54.16 7.83
7/12/2021 1:15:00 AM 20.61 69.098 0.225 7.36 59.07 7.83
7/12/2021 1:30:00 AM 20.63 69.134 0.225 7.36 56.66 7.83
7/12/2021 1:45:00 AM 20.65 69.17 0.226 7.37 55.99 7.83
7/12/2021 2:00:00 AM 20.64 69.152 0.226 7.38 56.12 7.82
7/12/2021 2:15:00 AM 20.62 69.116 0.225 7.38 53.95 7.82
7/12/2021 2:30:00 AM 20.57 69.026 0.222 7.38 67.09 7.81
7/12/2021 2:45:00 AM 20.51 68.918 0.218 7.37 51.07 7.8
7/12/2021 3:00:00 AM 20.43 68.774 0.214 7.35 54.38 7.79
7/12/2021 3:15:00 AM 20.36 68.648 0.21 7.34 55.11 7.8
7/12/2021 3:30:00 AM 20.28 68.504 0.207 7.33 69.04 7.81
7/12/2021 3:45:00 AM 20.23 68.414 0.206 7.33 78.29 7.83
7/12/2021 4:00:00 AM 20.18 68.324 0.206 7.33 68.16 7.86
7/12/2021 4:15:00 AM 20.14 68.252 0.207 7.33 77.59 7.88
7/12/2021 4:30:00 AM 20.09 68.162 0.207 7.33 82.46 7.9
7/12/2021 4:45:00 AM 20.03 68.054 0.204 7.32 106.74 7.9
7/12/2021 5:00:00 AM 19.99 67.982 0.199 7.31 119.68 7.9
7/12/2021 5:15:00 AM 19.95 67.91 0.194 7.29 126.41 7.9
7/12/2021 5:30:00 AM 19.93 67.874 0.19 7.29 121.94 7.9
7/12/2021 5:45:00 AM 19.94 67.892 0.191 7.29 126.63 7.89
7/12/2021 6:00:00 AM 19.96 67.92799 0.194 7.3 138.53 7.88
7/12/2021 6:15:00 AM 20 68 0.197 7.31 145.73 7.88
7/12/2021 6:30:00 AM 20.04 68.07201 0.2 7.32 148.16 7.87
7/12/2021 6:45:00 AM 20.05 68.09 0.2 7.32 153.03 7.87
7/12/2021 7:00:00 AM 20.02 68.036 0.199 7.32 130.02 7.86
7/12/2021 7:15:00 AM 19.99 67.982 0.197 7.32 134.33 7.86
7/12/2021 7:30:00 AM 19.97 67.946 0.197 7.31 110.87 7.87
7/12/2021 7:45:00 AM 19.97 67.946 0.197 7.31 131.14 7.88
7/12/2021 8:00:00 AM 19.95 67.91 0.198 7.32 104.01 7.89
7/12/2021 8:15:00 AM 19.98 67.964 0.199 7.32 108.6 7.9
7/12/2021 8:30:00 AM 20.02 68.036 0.2 7.33 117.24 7.91
7/12/2021 8:45:00 AM 20.03 68.054 0.199 7.33 110.18 7.93
7/12/2021 9:00:00 AM 20.04 68.07201 0.2 7.33 97.55 7.95
7/12/2021 9:15:00 AM 20.08 68.144 0.2 7.34 110.14 7.97
7/12/2021 9:30:00 AM 20.17 68.306 0.2 7.34 106.68 8.01
7/12/2021 9:45:00 AM 20.26 68.468 0.201 7.34 95.65 8.04
7/12/2021 10:00:00 AM 20.38 68.684 0.202 7.36 90.95 8.08
7/12/2021 10:15:00 AM 20.46 68.828 0.203 7.36 92.11 8.11
7/12/2021 10:30:00 AM 20.51 68.918 0.204 7.36 78.57 8.13
7/12/2021 10:45:00 AM 20.59 69.062 0.205 7.37 84.67 8.14
7/12/2021 11:00:00 AM 20.66 69.188 0.205 7.38 76.12 8.16
7/12/2021 11:15:00 AM 20.81 69.458 0.206 7.38 84.56 8.19
7/12/2021 11:30:00 AM 20.86 69.548 0.207 7.39 84.2 8.18
7/12/2021 11:45:00 AM 20.96 69.728 0.208 7.39 119.08 8.2
7/12/2021 12:00:00 PM 21.18 70.124 0.208 7.4 88.26 8.22
7/12/2021 12:15:00 PM 21.2 70.16 0.209 7.41 82.06 8.21
7/12/2021 12:30:00 PM 21.21 70.17799 0.209 7.41 80.2 8.2
7/12/2021 12:45:00 PM 21.41 70.538 0.209 7.4 94.05 8.26
7/12/2021 1:00:00 PM 21.46 70.628 0.209 7.41 91.28 8.23
7/12/2021 1:15:00 PM 21.69 71.042 0.209 7.41 102.61 8.27
7/12/2021 1:30:00 PM 21.86 71.348 0.209 7.41 70.04 8.28
7/12/2021 1:45:00 PM 21.84 71.312 0.209 7.41 82.12 8.22
7/12/2021 2:00:00 PM 22.04 71.672 0.209 7.41 90.69 8.25
7/12/2021 2:15:00 PM 22.07 71.726 0.209 7.41 75.17 8.22
7/12/2021 2:30:00 PM 22.3 72.14 0.209 7.42 82.05 8.28
7/12/2021 2:45:00 PM 22.44 72.392 0.208 7.41 75.59 8.27
7/12/2021 3:00:00 PM 22.61 72.698 0.208 7.42 83.26 8.27
7/12/2021 3:15:00 PM 22.77 72.986 0.208 7.42 73.67 8.29
7/12/2021 3:30:00 PM 22.92 73.256 0.207 7.42 73.38 8.29
7/12/2021 3:45:00 PM 22.81 73.058 0.207 7.41 75.3 8.2
7/12/2021 4:00:00 PM 22.73 72.914 0.207 7.4 90.91 8.15
7/12/2021 4:15:00 PM 22.75 72.95 0.207 7.4 93.08 8.15
7/12/2021 4:30:00 PM 22.81 73.058 0.206 7.39 88.51 8.17
7/12/2021 4:45:00 PM 22.9 73.22 0.205 7.39 60.74 8.17
7/12/2021 5:00:00 PM 22.96 73.328 0.205 7.38 80.89 8.16
7/12/2021 5:15:00 PM 23.04 73.472 0.205 7.38 85.63 8.15
7/12/2021 5:30:00 PM 23.08 73.544 0.204 7.38 73.21 8.14
7/12/2021 5:45:00 PM 23.09 73.562 0.204 7.37 70.95 8.12
7/12/2021 6:00:00 PM 23.01 73.418 0.203 7.37 82.85 8.08
7/12/2021 6:15:00 PM 22.91 73.238 0.203 7.36 66.59 8.05
7/12/2021 6:30:00 PM 22.76 72.968 0.202 7.35 63.76 7.98
7/12/2021 6:45:00 PM 22.65 72.77 0.202 7.34 68.7 7.95
7/12/2021 7:00:00 PM 22.54 72.57201 0.201 7.33 70.96 7.91
7/12/2021 7:15:00 PM 22.42 72.356 0.201 7.32 67.08 7.87
7/12/2021 7:30:00 PM 22.3 72.14 0.2 7.31 71.62 7.84
7/12/2021 7:45:00 PM 22.2 71.96 0.2 7.3 63.75 7.81
7/12/2021 8:00:00 PM 22.1 71.78 0.2 7.29 74.14 7.8
7/12/2021 8:15:00 PM 22.01 71.618 0.199 7.28 60.21 7.76
7/12/2021 8:30:00 PM 21.91 71.438 0.199 7.27 81.89 7.71
7/12/2021 8:45:00 PM 21.8 71.24 0.199 7.26 67.16 7.69
7/12/2021 9:00:00 PM 21.7 71.06 0.198 7.25 77.23 7.66
7/12/2021 9:15:00 PM 21.61 70.898 0.198 7.23 66.3 7.64
7/12/2021 9:30:00 PM 21.52 70.736 0.198 7.22 73.68 7.62
7/12/2021 9:45:00 PM 21.45 70.61 0.197 7.22 71.42 7.6
7/12/2021 10:00:00 PM 21.38 70.484 0.197 7.21 92.88 7.58
7/12/2021 10:15:00 PM 21.32 70.376 0.197 7.21 70.51 7.58
7/12/2021 10:30:00 PM 21.28 70.304 0.197 7.2 88.46 7.58
7/12/2021 10:45:00 PM 21.25 70.25 0.197 7.19 74.63 7.58
7/12/2021 11:00:00 PM 21.21 70.17799 0.197 7.19 77.56 7.57
7/12/2021 11:15:00 PM 21.18 70.124 0.197 7.19 93.01 7.57
7/12/2021 11:30:00 PM 21.15 70.07 0.197 7.17 88.03 7.56
7/12/2021 11:45:00 PM 21.13 70.034 0.198 7.18 80.62 7.56
7/13/2021 12:00:00 AM 21.09 69.962 0.197 7.18 72.59 7.55
7/13/2021 12:15:00 AM 21.06 69.908 0.198 7.17 74.17 7.55
7/13/2021 12:30:00 AM 21.03 69.854 0.198 7.16 72.83 7.54
7/13/2021 12:45:00 AM 21.01 69.818 0.198 7.16 81.78 7.53
7/13/2021 1:00:00 AM 20.98 69.764 0.199 7.16 78.41 7.54
7/13/2021 1:15:00 AM 20.95 69.71 0.199 7.16 74.07 7.53
7/13/2021 1:30:00 AM 20.93 69.674 0.199 7.15 73.08 7.52
7/13/2021 1:45:00 AM 20.91 69.638 0.2 7.15 63.72 7.53
7/13/2021 2:00:00 AM 20.89 69.602 0.2 7.15 83.71 7.53
7/13/2021 2:15:00 AM 20.87 69.566 0.201 7.16 68.56 7.53
7/13/2021 2:30:00 AM 20.85 69.53 0.201 7.15 88.77 7.54
7/13/2021 2:45:00 AM 20.83 69.494 0.202 7.15 77.81 7.53
7/13/2021 3:00:00 AM 20.81 69.458 0.203 7.14 71.42 7.53
7/13/2021 3:15:00 AM 20.78 69.404 0.203 7.15 70.65 7.54
7/13/2021 3:30:00 AM 20.75 69.35 0.204 7.15 63.77 7.54
7/13/2021 3:45:00 AM 20.72 69.296 0.204 7.15 75.81 7.55
7/13/2021 4:00:00 AM 20.69 69.242 0.205 7.14 64.8 7.54
7/13/2021 4:15:00 AM 20.67 69.206 0.205 7.14 63.71 7.54
7/13/2021 4:30:00 AM 20.65 69.17 0.206 7.14 64.62 7.53
7/13/2021 4:45:00 AM 20.63 69.134 0.206 7.13 87.68 7.54
7/13/2021 5:00:00 AM 20.61 69.098 0.207 7.14 69.29 7.55
7/13/2021 5:15:00 AM 20.58 69.044 0.207 7.14 61.13 7.55
7/13/2021 5:30:00 AM 20.55 68.99 0.208 7.13 68.6 7.55
7/13/2021 5:45:00 AM 20.53 68.954 0.208 7.13 65.67 7.55
7/13/2021 6:00:00 AM 20.51 68.918 0.207 7.15 63.52 7.63
7/13/2021 6:15:00 AM 20.62 69.116 0.204 7.16 80.9 7.65
7/13/2021 6:30:00 AM 20.59 69.062 0.207 7.17 58.51 7.62
7/13/2021 6:45:00 AM 20.35 68.63 0.221 7.18 59.83 7.73
7/13/2021 7:00:00 AM 20.21 68.378 0.227 7.18 107.48 7.79
7/13/2021 7:15:00 AM 20.28 68.504 0.219 7.17 92.93 7.74
7/13/2021 7:30:00 AM 20.36 68.648 0.211 7.16 66.91 7.74
7/13/2021 7:45:00 AM 20.45 68.81 0.205 7.17 75.56 7.75
7/13/2021 8:00:00 AM 20.57 69.026 0.205 7.18 94.54 7.8
7/13/2021 8:15:00 AM 20.66 69.188 0.209 7.19 113.36 7.88
7/13/2021 8:30:00 AM 20.71 69.278 0.213 7.2 71.16 7.96
7/13/2021 8:45:00 AM 20.66 69.188 0.222 7.22 63.36 8.09
7/13/2021 9:00:00 AM 20.53 68.954 0.235 7.25 72.44 8.24
7/13/2021 9:15:00 AM 20.57 69.026 0.234 7.26 63.3 8.27
7/13/2021 9:30:00 AM 20.63 69.134 0.236 7.26 66.06 8.31
7/13/2021 9:45:00 AM 20.7 69.26 0.235 7.27 45.8 8.34
7/13/2021 10:00:00 AM 20.92 69.656 0.23 7.27 56.74 8.41
7/13/2021 10:15:00 AM 20.94 69.692 0.233 7.3 81.05 8.5
7/13/2021 10:30:00 AM 21.02 69.836 0.231 7.32 73.11 8.51
7/13/2021 10:45:00 AM 21.12 70.016 0.227 7.32 85.53 8.45
7/13/2021 11:00:00 AM 21.26 70.268 0.229 7.32 79.4 8.43
7/13/2021 11:15:00 AM 21.59 70.862 0.231 7.33 62.71 8.53
7/13/2021 11:30:00 AM 21.81 71.258 0.231 7.35 68.32 8.57
7/13/2021 11:45:00 AM 21.83 71.294 0.231 7.35 76.46 8.46
7/13/2021 12:00:00 PM 22.2 71.96 0.231 7.35 60.32 8.6
7/13/2021 12:15:00 PM 22.41 72.338 0.232 7.37 63.47 8.65
7/13/2021 12:30:00 PM 22.59 72.662 0.231 7.37 40.27 8.66
7/13/2021 12:45:00 PM 22.9 73.22 0.232 7.39 38.37 8.77
7/13/2021 1:00:00 PM 23.08 73.544 0.232 7.4 37.56 8.75
7/13/2021 1:15:00 PM 23.43 74.174 0.232 7.41 35.87 8.83
7/13/2021 1:30:00 PM 23.55 74.39 0.232 7.41 39.66 8.79
7/13/2021 1:45:00 PM 23.75 74.75 0.231 7.42 37.83 8.82
7/13/2021 2:00:00 PM 23.97 75.146 0.232 7.43 35.95 8.86
7/13/2021 2:15:00 PM 24.15 75.47 0.231 7.44 38.69 8.89
7/13/2021 2:30:00 PM 24.1 75.38 0.232 7.43 34.83 8.79
7/13/2021 2:45:00 PM 24.32 75.776 0.232 7.45 45.51 8.85
7/13/2021 3:00:00 PM 24.25 75.65 0.232 7.44 34.57 8.75
7/13/2021 3:15:00 PM 24.31 75.758 0.231 7.44 33.45 8.73
7/13/2021 3:30:00 PM 24.22 75.596 0.231 7.44 33.14 8.67
7/13/2021 3:45:00 PM 24.14 75.452 0.23 7.43 33.04 8.63
7/13/2021 4:00:00 PM 24.14 75.452 0.23 7.43 42.64 8.68
7/13/2021 4:15:00 PM 24.22 75.596 0.229 7.44 27.38 8.72
7/13/2021 4:30:00 PM 24.04 75.272 0.229 7.42 31.65 8.58
7/13/2021 4:45:00 PM 23.94 75.092 0.228 7.41 27.46 8.52
7/13/2021 5:00:00 PM 23.8 74.84 0.228 7.4 29.05 8.4
7/13/2021 5:15:00 PM 23.6 74.48 0.227 7.38 27.64 8.26
7/13/2021 5:30:00 PM 23.43 74.174 0.227 7.36 33.58 8.18
7/13/2021 5:45:00 PM 23.23 73.814 0.226 7.35 24.93 8.06
7/13/2021 6:00:00 PM 23.03 73.454 0.226 7.33 45.49 7.96
7/13/2021 6:15:00 PM 22.84 73.112 0.227 7.32 29.82 7.9
7/13/2021 6:30:00 PM 22.67 72.806 0.226 7.31 34.24 7.83
7/13/2021 6:45:00 PM 22.53 72.554 0.226 7.3 22.98 7.79
7/13/2021 7:00:00 PM 22.42 72.356 0.226 7.3 23.09 7.76
7/13/2021 7:15:00 PM 22.31 72.158 0.226 7.29 39.39 7.75
7/13/2021 7:30:00 PM 22.22 71.996 0.227 7.28 24.24 7.74
7/13/2021 7:45:00 PM 22.14 71.852 0.227 7.28 27.29 7.75
7/13/2021 8:00:00 PM 22.07 71.726 0.227 7.28 25.66 7.74
7/13/2021 8:15:00 PM 21.99 71.582 0.228 7.26 24.45 7.73
7/13/2021 8:30:00 PM 21.91 71.438 0.228 7.27 108.32 7.73
7/13/2021 8:45:00 PM 21.84 71.312 0.228 7.26 24.92 7.72
7/13/2021 9:00:00 PM 21.76 71.168 0.229 7.26 27.43 7.7
7/13/2021 9:15:00 PM 21.69 71.042 0.229 7.26 26.75 7.7
7/13/2021 9:30:00 PM 21.61 70.898 0.229 7.25 26.59 7.68
7/13/2021 9:45:00 PM 21.54 70.772 0.23 7.25 24.59 7.68
7/13/2021 10:00:00 PM 21.46 70.628 0.23 7.25 30.26 7.67
7/13/2021 10:15:00 PM 21.39 70.502 0.231 7.25 31.34 7.66
7/13/2021 10:30:00 PM 21.33 70.394 0.231 7.24 26.87 7.66
7/13/2021 10:45:00 PM 21.27 70.286 0.232 7.24 28.63 7.66
7/13/2021 11:00:00 PM 21.21 70.17799 0.232 7.24 29.09 7.65
7/13/2021 11:15:00 PM 21.16 70.088 0.232 7.23 30.51 7.64
7/13/2021 11:30:00 PM 21.11 69.998 0.233 7.23 23.89 7.64
7/13/2021 11:45:00 PM 21.06 69.908 0.233 7.23 25.19 7.65
7/14/2021 12:00:00 AM 21.02 69.836 0.234 7.23 24.15 7.65
7/14/2021 12:15:00 AM 20.98 69.764 0.234 7.23 22.91 7.66
7/14/2021 12:30:00 AM 20.95 69.71 0.234 7.24 24.13 7.66
7/14/2021 12:45:00 AM 20.91 69.638 0.235 7.24 22.15 7.67
7/14/2021 1:00:00 AM 20.87 69.566 0.235 7.24 22.92 7.67
7/14/2021 1:15:00 AM 20.84 69.512 0.236 7.23 24.28 7.68
7/14/2021 1:30:00 AM 20.79 69.422 0.236 7.23 22.03 7.69
7/14/2021 1:45:00 AM 20.75 69.35 0.237 7.23 26.34 7.68
7/14/2021 2:00:00 AM 20.72 69.296 0.237 7.24 22.82 7.7
7/14/2021 2:15:00 AM 20.69 69.242 0.237 7.23 20.81 7.7
7/14/2021 2:30:00 AM 20.66 69.188 0.238 7.24 21.58 7.69
7/14/2021 2:45:00 AM 20.62 69.116 0.238 7.24 22.08 7.7
7/14/2021 3:00:00 AM 20.59 69.062 0.239 7.24 22.08 7.7
7/14/2021 3:15:00 AM 20.54 68.972 0.239 7.24 23.61 7.7
7/14/2021 3:30:00 AM 20.51 68.918 0.24 7.24 21.74 7.72
7/14/2021 3:45:00 AM 20.47 68.846 0.24 7.24 21.11 7.72
7/14/2021 4:00:00 AM 20.43 68.774 0.24 7.25 20.38 7.72
7/14/2021 4:15:00 AM 20.4 68.72 0.241 7.25 24.19 7.73
7/14/2021 4:30:00 AM 20.37 68.666 0.241 7.24 21.39 7.74
7/14/2021 4:45:00 AM 20.34 68.612 0.242 7.25 23.82 7.74
7/14/2021 5:00:00 AM 20.31 68.558 0.242 7.25 20.63 7.74
7/14/2021 5:15:00 AM 20.3 68.54 0.243 7.25 19.54 7.75
7/14/2021 5:30:00 AM 20.29 68.522 0.243 7.25 20.58 7.74
7/14/2021 5:45:00 AM 20.28 68.504 0.244 7.25 26.32 7.75
7/14/2021 6:00:00 AM 20.27 68.486 0.244 7.25 24.25 7.75
7/14/2021 6:15:00 AM 20.27 68.486 0.244 7.25 24.36 7.76
7/14/2021 6:30:00 AM 20.27 68.486 0.245 7.25 19.66 7.78
7/14/2021 6:45:00 AM 20.27 68.486 0.245 7.26 20.66 7.79
7/14/2021 7:00:00 AM 20.27 68.486 0.246 7.24 19.49 7.8
7/14/2021 7:15:00 AM 20.27 68.486 0.246 7.26 20.29 7.84
7/14/2021 7:30:00 AM 20.28 68.504 0.246 7.26 18.95 7.86
7/14/2021 7:45:00 AM 20.29 68.522 0.247 7.26 17.11 7.91
7/14/2021 8:00:00 AM 20.34 68.612 0.247 7.28 18.37 8.04
7/14/2021 8:15:00 AM 20.4 68.72 0.248 7.29 15.38 8.12
7/14/2021 8:30:00 AM 20.42 68.756 0.248 7.29 19.22 8.16
7/14/2021 8:45:00 AM 20.44 68.792 0.248 7.3 17.75 8.18
7/14/2021 9:00:00 AM 20.51 68.918 0.249 7.31 46.65 8.28
7/14/2021 9:15:00 AM 20.6 69.08 0.249 7.33 14.64 8.42
7/14/2021 9:30:00 AM 20.71 69.278 0.249 7.34 17.83 8.53
7/14/2021 9:45:00 AM 20.72 69.296 0.25 7.35 17.41 8.51
7/14/2021 10:00:00 AM 20.87 69.566 0.25 7.36 18.93 8.65
7/14/2021 10:15:00 AM 20.93 69.674 0.25 7.37 14.71 8.71
7/14/2021 10:30:00 AM 21.04 69.872 0.25 7.39 15.52 8.8
7/14/2021 10:45:00 AM 21.15 70.07 0.251 7.4 14.81 8.87
7/14/2021 11:00:00 AM 21.12 70.016 0.251 7.38 21.07 8.79
7/14/2021 11:15:00 AM 21.56 70.808 0.251 7.42 14.31 9.01
7/14/2021 11:30:00 AM 21.69 71.042 0.252 7.44 45.82 9.06
7/14/2021 11:45:00 AM 21.72 71.096 0.252 7.44 15.08 9.08
7/14/2021 12:00:00 PM 21.93 71.474 0.253 7.46 15.31 9.18
7/14/2021 12:15:00 PM 22.12 71.816 0.253 7.48 21.28 9.24
7/14/2021 12:30:00 PM 22.3 72.14 0.253 7.48 16.93 9.27
7/14/2021 12:45:00 PM 22.44 72.392 0.254 7.5 16.85 9.33
7/14/2021 1:00:00 PM 22.35 72.23 0.253 7.49 15.55 9.14
7/14/2021 1:15:00 PM 22.37 72.266 0.254 7.49 17.47 9.13
7/14/2021 1:30:00 PM 22.56 72.608 0.255 7.5 15.91 9.24
7/14/2021 1:45:00 PM 22.77 72.986 0.255 7.52 15.93 9.32
7/14/2021 2:00:00 PM 22.89 73.202 0.256 7.53 17.14 9.37
7/14/2021 2:15:00 PM 23.23 73.814 0.255 7.54 17.96 9.44
7/14/2021 2:30:00 PM 23.41 74.138 0.256 7.56 15.03 9.46
7/14/2021 2:45:00 PM 23.61 74.498 0.257 7.57 14.71 9.48
7/14/2021 3:00:00 PM 23.81 74.858 0.257 7.57 15.66 9.49
7/14/2021 3:15:00 PM 23.83 74.894 0.257 7.58 10.99 9.44
7/14/2021 3:30:00 PM 23.98 75.164 0.257 7.58 13.31 9.46
7/14/2021 3:45:00 PM 24.06 75.308 0.258 7.58 15.24 9.42
7/14/2021 4:00:00 PM 24.01 75.218 0.258 7.57 18.07 9.35
7/14/2021 4:15:00 PM 24.09 75.362 0.258 7.57 11.09 9.36
7/14/2021 4:30:00 PM 24.13 75.434 0.259 7.58 15.52 9.35
7/14/2021 4:45:00 PM 24.16 75.488 0.259 7.58 15.36 9.32
7/14/2021 5:00:00 PM 24.12 75.416 0.259 7.57 15.71 9.27
7/14/2021 5:15:00 PM 23.97 75.146 0.259 7.56 17.42 9.14
7/14/2021 5:30:00 PM 23.86 74.948 0.259 7.54 16.69 9.01
7/14/2021 5:45:00 PM 23.69 74.642 0.26 7.51 11.73 8.87
7/14/2021 6:00:00 PM 23.51 74.318 0.26 7.5 18.54 8.76
7/14/2021 6:15:00 PM 23.39 74.102 0.261 7.49 18.22 8.75
7/14/2021 6:30:00 PM 23.36 74.048 0.26 7.49 18.14 8.77
7/14/2021 6:45:00 PM 23.22 73.796 0.26 7.48 12.93 8.74
7/14/2021 7:00:00 PM 23.05 73.49 0.26 7.46 14.98 8.63
7/14/2021 7:15:00 PM 22.92 73.256 0.26 7.45 14.97 8.54
7/14/2021 7:30:00 PM 22.8 73.04 0.26 7.44 14.21 8.48
7/14/2021 7:45:00 PM 22.68 72.824 0.26 7.43 17.15 8.41
7/14/2021 8:00:00 PM 22.58 72.644 0.26 7.42 14.54 8.32
7/14/2021 8:15:00 PM 22.46 72.42799 0.261 7.41 14.49 8.24
7/14/2021 8:30:00 PM 22.34 72.212 0.261 7.39 16.3 8.16
7/14/2021 8:45:00 PM 22.21 71.978 0.261 7.38 12.3 8.06
7/14/2021 9:00:00 PM 22.09 71.762 0.261 7.36 18.15 7.98
7/14/2021 9:15:00 PM 21.98 71.564 0.262 7.35 21.18 7.92
7/14/2021 9:30:00 PM 21.86 71.348 0.261 7.34 15.42 7.86
7/14/2021 9:45:00 PM 21.75 71.15 0.262 7.32 14.7 7.82
7/14/2021 10:00:00 PM 21.65 70.97 0.262 7.32 14.06 7.78
7/14/2021 10:15:00 PM 21.56 70.808 0.262 7.31 17.7 7.75
7/14/2021 10:30:00 PM 21.47 70.646 0.262 7.3 15.86 7.74
7/14/2021 10:45:00 PM 21.37 70.466 0.262 7.3 20.62 7.73
7/14/2021 11:00:00 PM 21.28 70.304 0.262 7.3 17.08 7.73
7/14/2021 11:15:00 PM 21.21 70.17799 0.262 7.29 18.53 7.72
7/14/2021 11:30:00 PM 21.15 70.07 0.262 7.29 15.46 7.7
7/14/2021 11:45:00 PM 21.09 69.962 0.262 7.28 17.77 7.72
7/15/2021 12:00:00 AM 21.05 69.89 0.262 7.28 14.4 7.7
7/15/2021 12:15:00 AM 20.99 69.782 0.262 7.28 17.85 7.71
7/15/2021 12:30:00 AM 20.94 69.692 0.262 7.28 20.04 7.71
7/15/2021 12:45:00 AM 20.87 69.566 0.262 7.28 16.99 7.71
7/15/2021 1:00:00 AM 20.82 69.476 0.262 7.28 19.4 7.71
7/15/2021 1:15:00 AM 20.76 69.368 0.262 7.27 15.87 7.72
7/15/2021 1:30:00 AM 20.7 69.26 0.262 7.27 15.49 7.72
7/15/2021 1:45:00 AM 20.64 69.152 0.262 7.27 14.18 7.72
7/15/2021 2:00:00 AM 20.59 69.062 0.262 7.27 13.17 7.7
7/15/2021 2:15:00 AM 20.55 68.99 0.262 7.26 16.27 7.71
7/15/2021 2:30:00 AM 20.52 68.936 0.262 7.27 19.26 7.73
7/15/2021 2:45:00 AM 20.49 68.882 0.262 7.26 14.83 7.73
7/15/2021 3:00:00 AM 20.45 68.81 0.262 7.26 18.24 7.72
7/15/2021 3:15:00 AM 20.41 68.738 0.263 7.26 16.11 7.74
7/15/2021 3:30:00 AM 20.37 68.666 0.263 7.26 17.9 7.74
7/15/2021 3:45:00 AM 20.33 68.594 0.263 7.26 14.08 7.73
7/15/2021 4:00:00 AM 20.29 68.522 0.263 7.26 19.19 7.73
7/15/2021 4:15:00 AM 20.24 68.432 0.263 7.26 15.5 7.74
7/15/2021 4:30:00 AM 20.2 68.36 0.263 7.25 20.22 7.74
7/15/2021 4:45:00 AM 20.15 68.27 0.263 7.25 25.56 7.72
7/15/2021 5:00:00 AM 20.1 68.18 0.263 7.16 19.24 7.75
7/15/2021 5:15:00 AM 20.07 68.126 0.263 7.23 18.6 7.74
7/15/2021 5:30:00 AM 20.02 68.036 0.263 7.23 17.28 7.76
7/15/2021 5:45:00 AM 19.99 67.982 0.264 7.25 16.5 7.76
7/15/2021 6:00:00 AM 19.96 67.92799 0.264 7.25 18.17 7.76
7/15/2021 6:15:00 AM 19.95 67.91 0.264 7.25 85.05 7.78
7/15/2021 6:30:00 AM 19.92 67.856 0.264 7.26 21.92 7.83
7/15/2021 6:45:00 AM 19.9 67.82 0.264 7.27 18.55 7.88
7/15/2021 7:00:00 AM 19.91 67.838 0.264 7.27 50.73 7.94
7/15/2021 7:15:00 AM 19.93 67.874 0.265 7.27 24.28 8.03
7/15/2021 7:30:00 AM 19.96 67.92799 0.265 7.29 30.47 8.15
7/15/2021 7:45:00 AM 19.99 67.982 0.265 7.3 23.73 8.24
7/15/2021 8:00:00 AM 20.07 68.126 0.265 7.31 24.84 8.36
7/15/2021 8:15:00 AM 20.17 68.306 0.265 7.33 23.81 8.51
7/15/2021 8:30:00 AM 20.27 68.486 0.265 7.35 25.99 8.61
7/15/2021 8:45:00 AM 20.35 68.63 0.265 7.36 25.97 8.7
7/15/2021 9:00:00 AM 20.41 68.738 0.265 7.37 21.76 8.74
7/15/2021 9:15:00 AM 20.49 68.882 0.265 7.38 21.23 8.79
7/15/2021 9:30:00 AM 20.59 69.062 0.265 7.4 26.64 8.87
7/15/2021 9:45:00 AM 20.72 69.296 0.265 7.41 28.28 8.96
7/15/2021 10:00:00 AM 20.91 69.638 0.266 7.43 20.54 9.07
7/15/2021 10:15:00 AM 21.01 69.818 0.266 7.43 18.51 9.1
7/15/2021 10:30:00 AM 21.23 70.214 0.266 7.45 19.73 9.19
7/15/2021 10:45:00 AM 21.32 70.376 0.266 7.46 22.81 9.21
7/15/2021 11:00:00 AM 21.57 70.826 0.266 7.48 20.33 9.28
7/15/2021 11:15:00 AM 21.85 71.33 0.266 7.5 19.53 9.38
7/15/2021 11:30:00 AM 21.97 71.546 0.266 7.51 18.72 9.39
7/15/2021 11:45:00 AM 22.11 71.798 0.267 7.53 17.77 9.45
7/15/2021 12:00:00 PM 22.32 72.176 0.267 7.54 17.44 9.5
7/15/2021 12:15:00 PM 22.63 72.734 0.267 7.56 17.26 9.59
7/15/2021 12:30:00 PM 22.86 73.148 0.267 7.57 14.55 9.62
7/15/2021 12:45:00 PM 23.08 73.544 0.267 7.59 16.05 9.62
7/15/2021 1:00:00 PM 23.3 73.94 0.267 7.6 20.07 9.64
7/15/2021 1:15:00 PM 23.49 74.282 0.267 7.61 20.29 9.67
7/15/2021 1:30:00 PM 23.81 74.858 0.267 7.62 13.61 9.71
7/15/2021 1:45:00 PM 24.07 75.326 0.268 7.64 16.67 9.75
7/15/2021 2:00:00 PM 24.21 75.578 0.268 7.65 11.23 9.75
7/15/2021 2:15:00 PM 24.46 76.028 0.268 7.66 12.93 9.8
7/15/2021 2:30:00 PM 24.68 76.424 0.268 7.68 17.18 9.81
7/15/2021 2:45:00 PM 24.79 76.622 0.268 7.69 14.79 9.8
7/15/2021 3:00:00 PM 24.91 76.838 0.268 7.69 14.66 9.8
7/15/2021 3:15:00 PM 24.95 76.91 0.269 7.69 16.89 9.76
7/15/2021 3:30:00 PM 25.03 77.054 0.269 7.7 17.3 9.74
7/15/2021 3:45:00 PM 24.9 76.82 0.269 7.69 14.09 9.66
7/15/2021 4:00:00 PM 24.75 76.55 0.27 7.67 15.88 9.55
7/15/2021 4:15:00 PM 24.72 76.496 0.269 7.67 16.26 9.54
7/15/2021 4:30:00 PM 24.7 76.46 0.27 7.66 15.56 9.55
7/15/2021 4:45:00 PM 24.64 76.352 0.27 7.66 17.93 9.53
7/15/2021 5:00:00 PM 24.59 76.262 0.27 7.66 12.13 9.49
7/15/2021 5:15:00 PM 24.52 76.136 0.27 7.65 16.75 9.43
7/15/2021 5:30:00 PM 24.49 76.082 0.27 7.64 16.17 9.37
7/15/2021 5:45:00 PM 24.44 75.992 0.271 7.63 17.03 9.32
7/15/2021 6:00:00 PM 24.33 75.794 0.271 7.63 14.75 9.23
7/15/2021 6:15:00 PM 24.19 75.542 0.271 7.61 15.43 9.15
7/15/2021 6:30:00 PM 23.99 75.182 0.271 7.59 19.74 8.99
7/15/2021 6:45:00 PM 23.83 74.894 0.271 7.57 11.89 8.87
7/15/2021 7:00:00 PM 23.64 74.552 0.272 7.55 17.28 8.67
7/15/2021 7:15:00 PM 23.44 74.192 0.272 7.53 19.53 8.69
7/15/2021 7:30:00 PM 23.27 73.886 0.272 7.52 14.71 8.56
7/15/2021 7:45:00 PM 23.11 73.598 0.272 7.5 14.79 8.51
7/15/2021 8:00:00 PM 22.96 73.328 0.272 7.48 18.21 8.41
7/15/2021 8:15:00 PM 22.8 73.04 0.272 7.46 14.72 8.3
7/15/2021 8:30:00 PM 22.65 72.77 0.272 7.44 18.22 8.19
7/15/2021 8:45:00 PM 22.51 72.518 0.272 7.42 13.52 8.06
7/15/2021 9:00:00 PM 22.36 72.248 0.273 7.4 16.52 7.97
7/15/2021 9:15:00 PM 22.22 71.996 0.273 7.39 17.48 7.9
7/15/2021 9:30:00 PM 22.09 71.762 0.273 7.37 18.69 7.84
7/15/2021 9:45:00 PM 21.98 71.564 0.273 7.36 15.34 7.78
7/15/2021 10:00:00 PM 21.85 71.33 0.273 7.35 15.21 7.74
7/15/2021 10:15:00 PM 21.74 71.132 0.273 7.34 18.73 7.71
7/15/2021 10:30:00 PM 21.64 70.952 0.273 7.34 16.9 7.69
7/15/2021 10:45:00 PM 21.53 70.754 0.273 7.32 20.05 7.67
7/15/2021 11:00:00 PM 21.43 70.574 0.273 7.32 17.63 7.66
7/15/2021 11:15:00 PM 21.33 70.394 0.274 7.32 19.11 7.65
7/15/2021 11:30:00 PM 21.24 70.232 0.273 7.32 28.82 7.64
7/15/2021 11:45:00 PM 21.16 70.088 0.274 7.31 17.76 7.64
7/16/2021 12:00:00 AM 21.06 69.908 0.274 7.3 18.19 7.64
7/16/2021 12:15:00 AM 20.99 69.782 0.274 7.3 18.48 7.65
7/16/2021 12:30:00 AM 20.92 69.656 0.274 7.3 13.92 7.64
7/16/2021 12:45:00 AM 20.85 69.53 0.274 7.3 17.75 7.65
7/16/2021 1:00:00 AM 20.79 69.422 0.274 7.3 15.37 7.64
7/16/2021 1:15:00 AM 20.74 69.332 0.274 7.3 16.31 7.65
7/16/2021 1:30:00 AM 20.69 69.242 0.274 7.3 16.71 7.64
7/16/2021 1:45:00 AM 20.65 69.17 0.274 7.29 18.92 7.65
7/16/2021 2:00:00 AM 20.6 69.08 0.274 7.29 17.54 7.65
7/16/2021 2:15:00 AM 20.55 68.99 0.275 7.28 19.2 7.65
7/16/2021 2:30:00 AM 20.51 68.918 0.275 7.29 19.5 7.65
7/16/2021 2:45:00 AM 20.47 68.846 0.275 7.28 16.86 7.64
7/16/2021 3:00:00 AM 20.42 68.756 0.275 7.28 17.22 7.66
7/16/2021 3:15:00 AM 20.39 68.702 0.276 7.29 18.16 7.66
7/16/2021 3:30:00 AM 20.36 68.648 0.276 7.28 19.42 7.66
7/16/2021 3:45:00 AM 20.33 68.594 0.276 7.28 17.51 7.65
7/16/2021 4:00:00 AM 20.3 68.54 0.276 7.28 19.54 7.66
7/16/2021 4:15:00 AM 20.26 68.468 0.277 7.28 16.52 7.66
7/16/2021 4:30:00 AM 20.23 68.414 0.277 7.28 20.9 7.66
7/16/2021 4:45:00 AM 20.19 68.342 0.277 7.28 133.24 7.66
7/16/2021 5:00:00 AM 20.16 68.288 0.277 7.27 18.42 7.65
7/16/2021 5:15:00 AM 20.12 68.216 0.277 7.27 19.24 7.65
7/16/2021 5:30:00 AM 20.09 68.162 0.278 7.27 30.37 7.66
7/16/2021 5:45:00 AM 20.06 68.108 0.278 7.27 15.79 7.65
7/16/2021 6:00:00 AM 20.03 68.054 0.278 7.27 15.47 7.66
7/16/2021 6:15:00 AM 20 68 0.278 7.27 21.12 7.69
7/16/2021 6:30:00 AM 19.98 67.964 0.278 7.27 18.94 7.73
7/16/2021 6:45:00 AM 19.98 67.964 0.278 7.28 18.52 7.79
7/16/2021 7:00:00 AM 19.99 67.982 0.278 7.28 16.78 7.86
7/16/2021 7:15:00 AM 20.01 68.018 0.278 7.29 17.14 7.95
7/16/2021 7:30:00 AM 20.04 68.07201 0.279 7.31 17.82 8.04
7/16/2021 7:45:00 AM 20.08 68.144 0.279 7.32 17.59 8.16
7/16/2021 8:00:00 AM 20.17 68.306 0.278 7.33 13.81 8.29
7/16/2021 8:15:00 AM 20.26 68.468 0.278 7.34 13.25 8.41
7/16/2021 8:30:00 AM 20.28 68.504 0.278 7.35 15.91 8.47
7/16/2021 8:45:00 AM 20.36 68.648 0.278 7.36 17.46 8.58
7/16/2021 9:00:00 AM 20.55 68.99 0.279 7.38 18.01 8.74
7/16/2021 9:15:00 AM 20.78 69.404 0.279 7.4 17.4 8.9
7/16/2021 9:30:00 AM 20.97 69.746 0.279 7.42